<?xml version="1.0" encoding="UTF-8" standalone="no" ?>
<gpx xmlns="http://www.topografix.com/GPX/1/1" xmlns:xsi="http://www.w3.org/2001/XMLSchema-instance" xsi:schemaLocation="http://www.topografix.com/GPX/1/1 http://www.topografix.com/GPX/1/1/gpx.xsd" version="1.1" creator="VisuGPX - https://www.visugpx.com">
  <metadata>
    <name>LA VACHERIE COMBLEROUFLE LES GUEULARD</name>
  </metadata>
  <trk>
    <name><![CDATA[RECO COMBLEROUFLE LES GEULARD]]></name>
    <trkseg>
      <trkpt lat="44.88699" lon="5.18611">
        <ele>937.51</ele>
        <time>2021-08-26T06:21:32Z</time>
      </trkpt>
      <trkpt lat="44.887" lon="5.18609">
        <ele>936.65</ele>
        <time>2021-08-26T06:21:58Z</time>
      </trkpt>
      <trkpt lat="44.88701" lon="5.1861">
        <ele>936.94</ele>
        <time>2021-08-26T06:22:28Z</time>
      </trkpt>
      <trkpt lat="44.88699" lon="5.1861">
        <ele>937.02</ele>
        <time>2021-08-26T06:22:50Z</time>
      </trkpt>
      <trkpt lat="44.88699" lon="5.18612">
        <ele>936.63</ele>
        <time>2021-08-26T06:23:13Z</time>
      </trkpt>
      <trkpt lat="44.88698" lon="5.1861">
        <ele>938.01</ele>
        <time>2021-08-26T06:23:40Z</time>
      </trkpt>
      <trkpt lat="44.88699" lon="5.1861">
        <ele>938.73</ele>
        <time>2021-08-26T06:23:42Z</time>
      </trkpt>
      <trkpt lat="44.88698" lon="5.1861">
        <ele>937.23</ele>
        <time>2021-08-26T06:24:01Z</time>
      </trkpt>
      <trkpt lat="44.887" lon="5.18611">
        <ele>937.13</ele>
        <time>2021-08-26T06:24:16Z</time>
      </trkpt>
      <trkpt lat="44.887" lon="5.18611">
        <ele>937.49</ele>
        <time>2021-08-26T06:24:36Z</time>
      </trkpt>
      <trkpt lat="44.88699" lon="5.18611">
        <ele>937.24</ele>
        <time>2021-08-26T06:24:52Z</time>
      </trkpt>
      <trkpt lat="44.887" lon="5.18612">
        <ele>937.1</ele>
        <time>2021-08-26T06:24:53Z</time>
      </trkpt>
      <trkpt lat="44.88708" lon="5.18613">
        <ele>936.39</ele>
        <time>2021-08-26T06:25:00Z</time>
      </trkpt>
      <trkpt lat="44.88725" lon="5.1862">
        <ele>939.1</ele>
        <time>2021-08-26T06:25:20Z</time>
      </trkpt>
      <trkpt lat="44.88723" lon="5.1862">
        <ele>938.35</ele>
        <time>2021-08-26T06:25:23Z</time>
      </trkpt>
      <trkpt lat="44.88723" lon="5.18625">
        <ele>938.34</ele>
        <time>2021-08-26T06:25:27Z</time>
      </trkpt>
      <trkpt lat="44.88722" lon="5.18631">
        <ele>937.66</ele>
        <time>2021-08-26T06:25:31Z</time>
      </trkpt>
      <trkpt lat="44.88725" lon="5.18658">
        <ele>939.39</ele>
        <time>2021-08-26T06:25:49Z</time>
      </trkpt>
      <trkpt lat="44.88726" lon="5.18691">
        <ele>940.59</ele>
        <time>2021-08-26T06:26:09Z</time>
      </trkpt>
      <trkpt lat="44.88722" lon="5.18722">
        <ele>941.52</ele>
        <time>2021-08-26T06:26:28Z</time>
      </trkpt>
      <trkpt lat="44.88717" lon="5.18743">
        <ele>944.67</ele>
        <time>2021-08-26T06:26:44Z</time>
      </trkpt>
      <trkpt lat="44.88716" lon="5.18762">
        <ele>946.96</ele>
        <time>2021-08-26T06:27:00Z</time>
      </trkpt>
      <trkpt lat="44.88717" lon="5.18782">
        <ele>948.63</ele>
        <time>2021-08-26T06:27:16Z</time>
      </trkpt>
      <trkpt lat="44.88717" lon="5.18786">
        <ele>948.96</ele>
        <time>2021-08-26T06:27:18Z</time>
      </trkpt>
      <trkpt lat="44.88717" lon="5.18794">
        <ele>949.3</ele>
        <time>2021-08-26T06:27:24Z</time>
      </trkpt>
      <trkpt lat="44.88719" lon="5.18813">
        <ele>950.31</ele>
        <time>2021-08-26T06:27:38Z</time>
      </trkpt>
      <trkpt lat="44.88719" lon="5.18818">
        <ele>950.71</ele>
        <time>2021-08-26T06:27:41Z</time>
      </trkpt>
      <trkpt lat="44.88717" lon="5.1884">
        <ele>952.84</ele>
        <time>2021-08-26T06:27:56Z</time>
      </trkpt>
      <trkpt lat="44.88703" lon="5.18855">
        <ele>954.08</ele>
        <time>2021-08-26T06:28:12Z</time>
      </trkpt>
      <trkpt lat="44.8869" lon="5.18869">
        <ele>956.66</ele>
        <time>2021-08-26T06:28:28Z</time>
      </trkpt>
      <trkpt lat="44.88685" lon="5.18881">
        <ele>957.87</ele>
        <time>2021-08-26T06:28:42Z</time>
      </trkpt>
      <trkpt lat="44.88685" lon="5.1889">
        <ele>958.46</ele>
        <time>2021-08-26T06:29:00Z</time>
      </trkpt>
      <trkpt lat="44.88685" lon="5.18895">
        <ele>959.16</ele>
        <time>2021-08-26T06:29:05Z</time>
      </trkpt>
      <trkpt lat="44.88684" lon="5.18905">
        <ele>960.65</ele>
        <time>2021-08-26T06:29:13Z</time>
      </trkpt>
      <trkpt lat="44.88684" lon="5.18915">
        <ele>960.95</ele>
        <time>2021-08-26T06:29:21Z</time>
      </trkpt>
      <trkpt lat="44.88684" lon="5.18931">
        <ele>961.06</ele>
        <time>2021-08-26T06:29:31Z</time>
      </trkpt>
      <trkpt lat="44.88681" lon="5.18958">
        <ele>962.04</ele>
        <time>2021-08-26T06:29:49Z</time>
      </trkpt>
      <trkpt lat="44.88681" lon="5.18962">
        <ele>962.06</ele>
        <time>2021-08-26T06:29:54Z</time>
      </trkpt>
      <trkpt lat="44.88673" lon="5.18983">
        <ele>962.66</ele>
        <time>2021-08-26T06:30:09Z</time>
      </trkpt>
      <trkpt lat="44.88668" lon="5.19002">
        <ele>963.59</ele>
        <time>2021-08-26T06:30:24Z</time>
      </trkpt>
      <trkpt lat="44.88668" lon="5.19032">
        <ele>964.08</ele>
        <time>2021-08-26T06:30:43Z</time>
      </trkpt>
      <trkpt lat="44.8867" lon="5.19043">
        <ele>965.2</ele>
        <time>2021-08-26T06:30:51Z</time>
      </trkpt>
      <trkpt lat="44.88668" lon="5.19049">
        <ele>965.46</ele>
        <time>2021-08-26T06:30:55Z</time>
      </trkpt>
      <trkpt lat="44.88659" lon="5.19074">
        <ele>965.65</ele>
        <time>2021-08-26T06:31:13Z</time>
      </trkpt>
      <trkpt lat="44.88658" lon="5.19076">
        <ele>965.8</ele>
        <time>2021-08-26T06:31:14Z</time>
      </trkpt>
      <trkpt lat="44.88655" lon="5.19084">
        <ele>966</ele>
        <time>2021-08-26T06:31:20Z</time>
      </trkpt>
      <trkpt lat="44.8865" lon="5.19105">
        <ele>966.25</ele>
        <time>2021-08-26T06:31:34Z</time>
      </trkpt>
      <trkpt lat="44.88647" lon="5.19116">
        <ele>966.54</ele>
        <time>2021-08-26T06:31:41Z</time>
      </trkpt>
      <trkpt lat="44.88643" lon="5.19135">
        <ele>967.12</ele>
        <time>2021-08-26T06:31:54Z</time>
      </trkpt>
      <trkpt lat="44.88636" lon="5.19158">
        <ele>967.68</ele>
        <time>2021-08-26T06:32:11Z</time>
      </trkpt>
      <trkpt lat="44.88624" lon="5.19181">
        <ele>969.25</ele>
        <time>2021-08-26T06:32:30Z</time>
      </trkpt>
      <trkpt lat="44.88619" lon="5.19188">
        <ele>970.2</ele>
        <time>2021-08-26T06:32:39Z</time>
      </trkpt>
      <trkpt lat="44.88609" lon="5.19202">
        <ele>970.91</ele>
        <time>2021-08-26T06:32:55Z</time>
      </trkpt>
      <trkpt lat="44.88609" lon="5.19206">
        <ele>971.23</ele>
        <time>2021-08-26T06:33:10Z</time>
      </trkpt>
      <trkpt lat="44.88608" lon="5.19215">
        <ele>970.79</ele>
        <time>2021-08-26T06:33:23Z</time>
      </trkpt>
      <trkpt lat="44.88602" lon="5.19236">
        <ele>969.86</ele>
        <time>2021-08-26T06:33:43Z</time>
      </trkpt>
      <trkpt lat="44.88601" lon="5.19237">
        <ele>969.6</ele>
        <time>2021-08-26T06:33:49Z</time>
      </trkpt>
      <trkpt lat="44.88596" lon="5.19263">
        <ele>967.41</ele>
        <time>2021-08-26T06:34:09Z</time>
      </trkpt>
      <trkpt lat="44.88592" lon="5.19277">
        <ele>965.33</ele>
        <time>2021-08-26T06:34:24Z</time>
      </trkpt>
      <trkpt lat="44.8859" lon="5.19282">
        <ele>964.68</ele>
        <time>2021-08-26T06:34:29Z</time>
      </trkpt>
      <trkpt lat="44.88589" lon="5.19287">
        <ele>963.74</ele>
        <time>2021-08-26T06:34:33Z</time>
      </trkpt>
      <trkpt lat="44.88585" lon="5.19315">
        <ele>961.21</ele>
        <time>2021-08-26T06:34:54Z</time>
      </trkpt>
      <trkpt lat="44.88594" lon="5.19341">
        <ele>958.3</ele>
        <time>2021-08-26T06:35:15Z</time>
      </trkpt>
      <trkpt lat="44.88607" lon="5.1936">
        <ele>956.35</ele>
        <time>2021-08-26T06:35:37Z</time>
      </trkpt>
      <trkpt lat="44.88608" lon="5.19375">
        <ele>954.5</ele>
        <time>2021-08-26T06:35:56Z</time>
      </trkpt>
      <trkpt lat="44.88608" lon="5.19379">
        <ele>953.74</ele>
        <time>2021-08-26T06:36:00Z</time>
      </trkpt>
      <trkpt lat="44.88606" lon="5.19398">
        <ele>951.12</ele>
        <time>2021-08-26T06:36:18Z</time>
      </trkpt>
      <trkpt lat="44.88605" lon="5.19401">
        <ele>950.64</ele>
        <time>2021-08-26T06:36:31Z</time>
      </trkpt>
      <trkpt lat="44.88603" lon="5.19408">
        <ele>950.22</ele>
        <time>2021-08-26T06:36:44Z</time>
      </trkpt>
      <trkpt lat="44.88599" lon="5.19416">
        <ele>949.29</ele>
        <time>2021-08-26T06:37:05Z</time>
      </trkpt>
      <trkpt lat="44.88597" lon="5.19419">
        <ele>948.94</ele>
        <time>2021-08-26T06:37:08Z</time>
      </trkpt>
      <trkpt lat="44.88598" lon="5.19442">
        <ele>945.52</ele>
        <time>2021-08-26T06:37:24Z</time>
      </trkpt>
      <trkpt lat="44.88611" lon="5.19454">
        <ele>944.93</ele>
        <time>2021-08-26T06:37:39Z</time>
      </trkpt>
      <trkpt lat="44.8863" lon="5.19466">
        <ele>944.81</ele>
        <time>2021-08-26T06:37:58Z</time>
      </trkpt>
      <trkpt lat="44.88651" lon="5.19481">
        <ele>944.13</ele>
        <time>2021-08-26T06:38:19Z</time>
      </trkpt>
      <trkpt lat="44.88675" lon="5.19504">
        <ele>943.71</ele>
        <time>2021-08-26T06:38:43Z</time>
      </trkpt>
      <trkpt lat="44.88681" lon="5.19532">
        <ele>941.99</ele>
        <time>2021-08-26T06:39:04Z</time>
      </trkpt>
      <trkpt lat="44.8868" lon="5.19534">
        <ele>941.94</ele>
        <time>2021-08-26T06:39:06Z</time>
      </trkpt>
      <trkpt lat="44.88674" lon="5.1954">
        <ele>942.36</ele>
        <time>2021-08-26T06:39:18Z</time>
      </trkpt>
      <trkpt lat="44.88669" lon="5.19545">
        <ele>942.27</ele>
        <time>2021-08-26T06:39:23Z</time>
      </trkpt>
      <trkpt lat="44.8865" lon="5.19551">
        <ele>942.7</ele>
        <time>2021-08-26T06:39:40Z</time>
      </trkpt>
      <trkpt lat="44.8863" lon="5.19553">
        <ele>942.72</ele>
        <time>2021-08-26T06:39:58Z</time>
      </trkpt>
      <trkpt lat="44.88603" lon="5.19568">
        <ele>942.95</ele>
        <time>2021-08-26T06:40:23Z</time>
      </trkpt>
      <trkpt lat="44.88586" lon="5.19583">
        <ele>943.11</ele>
        <time>2021-08-26T06:40:40Z</time>
      </trkpt>
      <trkpt lat="44.88573" lon="5.19595">
        <ele>943.9</ele>
        <time>2021-08-26T06:40:55Z</time>
      </trkpt>
      <trkpt lat="44.88558" lon="5.19605">
        <ele>945.08</ele>
        <time>2021-08-26T06:41:11Z</time>
      </trkpt>
      <trkpt lat="44.88539" lon="5.1962">
        <ele>946.15</ele>
        <time>2021-08-26T06:41:31Z</time>
      </trkpt>
      <trkpt lat="44.88525" lon="5.19632">
        <ele>948.17</ele>
        <time>2021-08-26T06:41:48Z</time>
      </trkpt>
      <trkpt lat="44.88512" lon="5.19642">
        <ele>949.04</ele>
        <time>2021-08-26T06:42:02Z</time>
      </trkpt>
      <trkpt lat="44.88511" lon="5.19644">
        <ele>949.29</ele>
        <time>2021-08-26T06:42:04Z</time>
      </trkpt>
      <trkpt lat="44.88501" lon="5.19654">
        <ele>950.46</ele>
        <time>2021-08-26T06:42:17Z</time>
      </trkpt>
      <trkpt lat="44.88491" lon="5.19664">
        <ele>951.97</ele>
        <time>2021-08-26T06:42:29Z</time>
      </trkpt>
      <trkpt lat="44.88482" lon="5.19671">
        <ele>953.27</ele>
        <time>2021-08-26T06:42:43Z</time>
      </trkpt>
      <trkpt lat="44.88473" lon="5.19681">
        <ele>954.05</ele>
        <time>2021-08-26T06:42:54Z</time>
      </trkpt>
      <trkpt lat="44.88467" lon="5.19692">
        <ele>954.7</ele>
        <time>2021-08-26T06:43:03Z</time>
      </trkpt>
      <trkpt lat="44.88466" lon="5.19694">
        <ele>954.87</ele>
        <time>2021-08-26T06:43:05Z</time>
      </trkpt>
      <trkpt lat="44.88461" lon="5.197">
        <ele>955.54</ele>
        <time>2021-08-26T06:43:11Z</time>
      </trkpt>
      <trkpt lat="44.88449" lon="5.1971">
        <ele>957.11</ele>
        <time>2021-08-26T06:43:25Z</time>
      </trkpt>
      <trkpt lat="44.88438" lon="5.19721">
        <ele>959.35</ele>
        <time>2021-08-26T06:43:41Z</time>
      </trkpt>
      <trkpt lat="44.88422" lon="5.19736">
        <ele>961.85</ele>
        <time>2021-08-26T06:44:05Z</time>
      </trkpt>
      <trkpt lat="44.88416" lon="5.19743">
        <ele>962.59</ele>
        <time>2021-08-26T06:44:21Z</time>
      </trkpt>
      <trkpt lat="44.88407" lon="5.19747">
        <ele>963.41</ele>
        <time>2021-08-26T06:44:31Z</time>
      </trkpt>
      <trkpt lat="44.88405" lon="5.19749">
        <ele>963.73</ele>
        <time>2021-08-26T06:44:34Z</time>
      </trkpt>
      <trkpt lat="44.88391" lon="5.19754">
        <ele>964.15</ele>
        <time>2021-08-26T06:44:49Z</time>
      </trkpt>
      <trkpt lat="44.88375" lon="5.19762">
        <ele>964.52</ele>
        <time>2021-08-26T06:45:06Z</time>
      </trkpt>
      <trkpt lat="44.88361" lon="5.19768">
        <ele>963.93</ele>
        <time>2021-08-26T06:45:22Z</time>
      </trkpt>
      <trkpt lat="44.88349" lon="5.1977">
        <ele>964.6</ele>
        <time>2021-08-26T06:45:36Z</time>
      </trkpt>
      <trkpt lat="44.88342" lon="5.19784">
        <ele>964.01</ele>
        <time>2021-08-26T06:45:54Z</time>
      </trkpt>
      <trkpt lat="44.88343" lon="5.19791">
        <ele>962.98</ele>
        <time>2021-08-26T06:46:00Z</time>
      </trkpt>
      <trkpt lat="44.88344" lon="5.19796">
        <ele>962.8</ele>
        <time>2021-08-26T06:46:20Z</time>
      </trkpt>
      <trkpt lat="44.88343" lon="5.19812">
        <ele>960.76</ele>
        <time>2021-08-26T06:46:36Z</time>
      </trkpt>
      <trkpt lat="44.88341" lon="5.19821">
        <ele>959.57</ele>
        <time>2021-08-26T06:46:56Z</time>
      </trkpt>
      <trkpt lat="44.88336" lon="5.19834">
        <ele>958.28</ele>
        <time>2021-08-26T06:47:18Z</time>
      </trkpt>
      <trkpt lat="44.88333" lon="5.19859">
        <ele>955.78</ele>
        <time>2021-08-26T06:47:39Z</time>
      </trkpt>
      <trkpt lat="44.88334" lon="5.1988">
        <ele>957.18</ele>
        <time>2021-08-26T06:47:57Z</time>
      </trkpt>
      <trkpt lat="44.88332" lon="5.19909">
        <ele>960.29</ele>
        <time>2021-08-26T06:48:19Z</time>
      </trkpt>
      <trkpt lat="44.88326" lon="5.19933">
        <ele>961.52</ele>
        <time>2021-08-26T06:48:37Z</time>
      </trkpt>
      <trkpt lat="44.88314" lon="5.19952">
        <ele>961.84</ele>
        <time>2021-08-26T06:49:00Z</time>
      </trkpt>
      <trkpt lat="44.88306" lon="5.19975">
        <ele>963.47</ele>
        <time>2021-08-26T06:49:19Z</time>
      </trkpt>
      <trkpt lat="44.88298" lon="5.19993">
        <ele>965.67</ele>
        <time>2021-08-26T06:49:41Z</time>
      </trkpt>
      <trkpt lat="44.88282" lon="5.20005">
        <ele>967.21</ele>
        <time>2021-08-26T06:50:02Z</time>
      </trkpt>
      <trkpt lat="44.88274" lon="5.20029">
        <ele>967.22</ele>
        <time>2021-08-26T06:50:23Z</time>
      </trkpt>
      <trkpt lat="44.88261" lon="5.20043">
        <ele>968.34</ele>
        <time>2021-08-26T06:50:40Z</time>
      </trkpt>
      <trkpt lat="44.88256" lon="5.20047">
        <ele>968.62</ele>
        <time>2021-08-26T06:50:47Z</time>
      </trkpt>
      <trkpt lat="44.88251" lon="5.20049">
        <ele>968.53</ele>
        <time>2021-08-26T06:50:54Z</time>
      </trkpt>
      <trkpt lat="44.88247" lon="5.20051">
        <ele>968.91</ele>
        <time>2021-08-26T06:50:58Z</time>
      </trkpt>
      <trkpt lat="44.88237" lon="5.20054">
        <ele>969.21</ele>
        <time>2021-08-26T06:51:08Z</time>
      </trkpt>
      <trkpt lat="44.88221" lon="5.20053">
        <ele>969.83</ele>
        <time>2021-08-26T06:51:23Z</time>
      </trkpt>
      <trkpt lat="44.88212" lon="5.20052">
        <ele>970.19</ele>
        <time>2021-08-26T06:51:31Z</time>
      </trkpt>
      <trkpt lat="44.88198" lon="5.20053">
        <ele>971.13</ele>
        <time>2021-08-26T06:51:45Z</time>
      </trkpt>
      <trkpt lat="44.88185" lon="5.20051">
        <ele>972.65</ele>
        <time>2021-08-26T06:51:59Z</time>
      </trkpt>
      <trkpt lat="44.88181" lon="5.2005">
        <ele>972.78</ele>
        <time>2021-08-26T06:52:14Z</time>
      </trkpt>
      <trkpt lat="44.88174" lon="5.20045">
        <ele>973.29</ele>
        <time>2021-08-26T06:52:45Z</time>
      </trkpt>
      <trkpt lat="44.8816" lon="5.20048">
        <ele>974.82</ele>
        <time>2021-08-26T06:53:01Z</time>
      </trkpt>
      <trkpt lat="44.88144" lon="5.20056">
        <ele>976.88</ele>
        <time>2021-08-26T06:53:20Z</time>
      </trkpt>
      <trkpt lat="44.88139" lon="5.20058">
        <ele>978.03</ele>
        <time>2021-08-26T06:53:38Z</time>
      </trkpt>
      <trkpt lat="44.88136" lon="5.2005">
        <ele>978.98</ele>
        <time>2021-08-26T06:53:53Z</time>
      </trkpt>
      <trkpt lat="44.88136" lon="5.2004">
        <ele>980.66</ele>
        <time>2021-08-26T06:54:16Z</time>
      </trkpt>
      <trkpt lat="44.88126" lon="5.20041">
        <ele>982.41</ele>
        <time>2021-08-26T06:54:40Z</time>
      </trkpt>
      <trkpt lat="44.88118" lon="5.20042">
        <ele>983.99</ele>
        <time>2021-08-26T06:54:55Z</time>
      </trkpt>
      <trkpt lat="44.88109" lon="5.20045">
        <ele>986.25</ele>
        <time>2021-08-26T06:55:10Z</time>
      </trkpt>
      <trkpt lat="44.88098" lon="5.20046">
        <ele>989.22</ele>
        <time>2021-08-26T06:55:26Z</time>
      </trkpt>
      <trkpt lat="44.88089" lon="5.20043">
        <ele>992.04</ele>
        <time>2021-08-26T06:55:43Z</time>
      </trkpt>
      <trkpt lat="44.88081" lon="5.20035">
        <ele>994.69</ele>
        <time>2021-08-26T06:56:01Z</time>
      </trkpt>
      <trkpt lat="44.88079" lon="5.20036">
        <ele>995.51</ele>
        <time>2021-08-26T06:56:19Z</time>
      </trkpt>
      <trkpt lat="44.88078" lon="5.20035">
        <ele>995.48</ele>
        <time>2021-08-26T06:56:47Z</time>
      </trkpt>
      <trkpt lat="44.88071" lon="5.20034">
        <ele>997.84</ele>
        <time>2021-08-26T06:57:07Z</time>
      </trkpt>
      <trkpt lat="44.88062" lon="5.20036">
        <ele>1000.47</ele>
        <time>2021-08-26T06:57:23Z</time>
      </trkpt>
      <trkpt lat="44.88053" lon="5.2004">
        <ele>1002.62</ele>
        <time>2021-08-26T06:57:39Z</time>
      </trkpt>
      <trkpt lat="44.88042" lon="5.20037">
        <ele>1005.19</ele>
        <time>2021-08-26T06:57:56Z</time>
      </trkpt>
      <trkpt lat="44.88029" lon="5.20036">
        <ele>1005.28</ele>
        <time>2021-08-26T06:58:14Z</time>
      </trkpt>
      <trkpt lat="44.88027" lon="5.20037">
        <ele>1006.8</ele>
        <time>2021-08-26T06:58:17Z</time>
      </trkpt>
      <trkpt lat="44.8802" lon="5.20039">
        <ele>1007.64</ele>
        <time>2021-08-26T06:58:33Z</time>
      </trkpt>
      <trkpt lat="44.88016" lon="5.20038">
        <ele>1008.4</ele>
        <time>2021-08-26T06:58:52Z</time>
      </trkpt>
      <trkpt lat="44.88006" lon="5.20032">
        <ele>1011.28</ele>
        <time>2021-08-26T06:59:09Z</time>
      </trkpt>
      <trkpt lat="44.88001" lon="5.20033">
        <ele>1012.32</ele>
        <time>2021-08-26T06:59:26Z</time>
      </trkpt>
      <trkpt lat="44.87996" lon="5.20027">
        <ele>1013.69</ele>
        <time>2021-08-26T06:59:45Z</time>
      </trkpt>
      <trkpt lat="44.87988" lon="5.20025">
        <ele>1015.28</ele>
        <time>2021-08-26T06:59:59Z</time>
      </trkpt>
      <trkpt lat="44.87987" lon="5.20024">
        <ele>1015.38</ele>
        <time>2021-08-26T07:00:00Z</time>
      </trkpt>
      <trkpt lat="44.87977" lon="5.20026">
        <ele>1016.69</ele>
        <time>2021-08-26T07:00:14Z</time>
      </trkpt>
      <trkpt lat="44.87967" lon="5.20026">
        <ele>1018.17</ele>
        <time>2021-08-26T07:00:26Z</time>
      </trkpt>
      <trkpt lat="44.87958" lon="5.2002">
        <ele>1019.36</ele>
        <time>2021-08-26T07:00:38Z</time>
      </trkpt>
      <trkpt lat="44.87962" lon="5.20018">
        <ele>1019.2</ele>
        <time>2021-08-26T07:00:58Z</time>
      </trkpt>
      <trkpt lat="44.87964" lon="5.2002">
        <ele>1018.83</ele>
        <time>2021-08-26T07:01:19Z</time>
      </trkpt>
      <trkpt lat="44.87966" lon="5.20013">
        <ele>1019.63</ele>
        <time>2021-08-26T07:01:38Z</time>
      </trkpt>
      <trkpt lat="44.87967" lon="5.20011">
        <ele>1019.58</ele>
        <time>2021-08-26T07:01:40Z</time>
      </trkpt>
      <trkpt lat="44.87972" lon="5.20005">
        <ele>1019.66</ele>
        <time>2021-08-26T07:01:47Z</time>
      </trkpt>
      <trkpt lat="44.87993" lon="5.19999">
        <ele>1019.3</ele>
        <time>2021-08-26T07:02:08Z</time>
      </trkpt>
      <trkpt lat="44.87996" lon="5.19995">
        <ele>1019.8</ele>
        <time>2021-08-26T07:02:16Z</time>
      </trkpt>
      <trkpt lat="44.88" lon="5.19994">
        <ele>1019.42</ele>
        <time>2021-08-26T07:02:20Z</time>
      </trkpt>
      <trkpt lat="44.88012" lon="5.19988">
        <ele>1019.61</ele>
        <time>2021-08-26T07:02:34Z</time>
      </trkpt>
      <trkpt lat="44.88019" lon="5.19987">
        <ele>1019.4</ele>
        <time>2021-08-26T07:02:42Z</time>
      </trkpt>
      <trkpt lat="44.88032" lon="5.19983">
        <ele>1018.67</ele>
        <time>2021-08-26T07:03:03Z</time>
      </trkpt>
      <trkpt lat="44.8804" lon="5.19988">
        <ele>1016.1</ele>
        <time>2021-08-26T07:03:19Z</time>
      </trkpt>
      <trkpt lat="44.8805" lon="5.19995">
        <ele>1014.04</ele>
        <time>2021-08-26T07:03:37Z</time>
      </trkpt>
      <trkpt lat="44.88057" lon="5.19996">
        <ele>1014.1</ele>
        <time>2021-08-26T07:03:55Z</time>
      </trkpt>
      <trkpt lat="44.88057" lon="5.19993">
        <ele>1013.81</ele>
        <time>2021-08-26T07:04:17Z</time>
      </trkpt>
      <trkpt lat="44.88058" lon="5.19992">
        <ele>1014.23</ele>
        <time>2021-08-26T07:04:43Z</time>
      </trkpt>
      <trkpt lat="44.88059" lon="5.19992">
        <ele>1014.73</ele>
        <time>2021-08-26T07:04:57Z</time>
      </trkpt>
      <trkpt lat="44.88056" lon="5.19985">
        <ele>1013.89</ele>
        <time>2021-08-26T07:05:25Z</time>
      </trkpt>
      <trkpt lat="44.88056" lon="5.19986">
        <ele>1013.88</ele>
        <time>2021-08-26T07:05:51Z</time>
      </trkpt>
      <trkpt lat="44.88055" lon="5.19987">
        <ele>1014.64</ele>
        <time>2021-08-26T07:06:15Z</time>
      </trkpt>
      <trkpt lat="44.88058" lon="5.19986">
        <ele>1015.47</ele>
        <time>2021-08-26T07:06:40Z</time>
      </trkpt>
      <trkpt lat="44.8806" lon="5.19989">
        <ele>1015.24</ele>
        <time>2021-08-26T07:07:07Z</time>
      </trkpt>
      <trkpt lat="44.88058" lon="5.19989">
        <ele>1015.72</ele>
        <time>2021-08-26T07:07:31Z</time>
      </trkpt>
      <trkpt lat="44.88057" lon="5.19984">
        <ele>1015.67</ele>
        <time>2021-08-26T07:08:02Z</time>
      </trkpt>
      <trkpt lat="44.8806" lon="5.1999">
        <ele>1016.08</ele>
        <time>2021-08-26T07:08:31Z</time>
      </trkpt>
      <trkpt lat="44.88059" lon="5.19992">
        <ele>1016.25</ele>
        <time>2021-08-26T07:08:58Z</time>
      </trkpt>
      <trkpt lat="44.88049" lon="5.19996">
        <ele>1017.76</ele>
        <time>2021-08-26T07:09:19Z</time>
      </trkpt>
      <trkpt lat="44.88037" lon="5.19998">
        <ele>1018.7</ele>
        <time>2021-08-26T07:09:36Z</time>
      </trkpt>
      <trkpt lat="44.88023" lon="5.19997">
        <ele>1019.8</ele>
        <time>2021-08-26T07:09:56Z</time>
      </trkpt>
      <trkpt lat="44.88014" lon="5.19993">
        <ele>1022.86</ele>
        <time>2021-08-26T07:10:14Z</time>
      </trkpt>
      <trkpt lat="44.87998" lon="5.19998">
        <ele>1023.53</ele>
        <time>2021-08-26T07:10:32Z</time>
      </trkpt>
      <trkpt lat="44.87989" lon="5.19994">
        <ele>1025.16</ele>
        <time>2021-08-26T07:10:52Z</time>
      </trkpt>
      <trkpt lat="44.87985" lon="5.19997">
        <ele>1024.31</ele>
        <time>2021-08-26T07:11:00Z</time>
      </trkpt>
      <trkpt lat="44.87979" lon="5.20003">
        <ele>1023.86</ele>
        <time>2021-08-26T07:11:13Z</time>
      </trkpt>
      <trkpt lat="44.87962" lon="5.2001">
        <ele>1024.75</ele>
        <time>2021-08-26T07:11:31Z</time>
      </trkpt>
      <trkpt lat="44.87947" lon="5.20011">
        <ele>1025.14</ele>
        <time>2021-08-26T07:11:48Z</time>
      </trkpt>
      <trkpt lat="44.87938" lon="5.20009">
        <ele>1025.56</ele>
        <time>2021-08-26T07:12:04Z</time>
      </trkpt>
      <trkpt lat="44.87918" lon="5.20007">
        <ele>1026.39</ele>
        <time>2021-08-26T07:12:24Z</time>
      </trkpt>
      <trkpt lat="44.87917" lon="5.20008">
        <ele>1026.29</ele>
        <time>2021-08-26T07:12:26Z</time>
      </trkpt>
      <trkpt lat="44.87899" lon="5.20012">
        <ele>1026.52</ele>
        <time>2021-08-26T07:12:45Z</time>
      </trkpt>
      <trkpt lat="44.87892" lon="5.20013">
        <ele>1026.99</ele>
        <time>2021-08-26T07:12:52Z</time>
      </trkpt>
      <trkpt lat="44.87883" lon="5.20016">
        <ele>1027.97</ele>
        <time>2021-08-26T07:13:06Z</time>
      </trkpt>
      <trkpt lat="44.87873" lon="5.20019">
        <ele>1029.66</ele>
        <time>2021-08-26T07:13:18Z</time>
      </trkpt>
      <trkpt lat="44.87862" lon="5.20024">
        <ele>1031.49</ele>
        <time>2021-08-26T07:13:37Z</time>
      </trkpt>
      <trkpt lat="44.87852" lon="5.20022">
        <ele>1033.5</ele>
        <time>2021-08-26T07:13:54Z</time>
      </trkpt>
      <trkpt lat="44.87843" lon="5.20019">
        <ele>1035.48</ele>
        <time>2021-08-26T07:14:11Z</time>
      </trkpt>
      <trkpt lat="44.87842" lon="5.20021">
        <ele>1035.3</ele>
        <time>2021-08-26T07:14:41Z</time>
      </trkpt>
      <trkpt lat="44.87829" lon="5.2002">
        <ele>1038.36</ele>
        <time>2021-08-26T07:14:59Z</time>
      </trkpt>
      <trkpt lat="44.87819" lon="5.20018">
        <ele>1039.94</ele>
        <time>2021-08-26T07:15:15Z</time>
      </trkpt>
      <trkpt lat="44.87817" lon="5.20016">
        <ele>1040.03</ele>
        <time>2021-08-26T07:15:32Z</time>
      </trkpt>
      <trkpt lat="44.8781" lon="5.20021">
        <ele>1041.64</ele>
        <time>2021-08-26T07:15:52Z</time>
      </trkpt>
      <trkpt lat="44.878" lon="5.20022">
        <ele>1042.51</ele>
        <time>2021-08-26T07:16:12Z</time>
      </trkpt>
      <trkpt lat="44.87788" lon="5.20025">
        <ele>1043.71</ele>
        <time>2021-08-26T07:16:29Z</time>
      </trkpt>
      <trkpt lat="44.87777" lon="5.20028">
        <ele>1045.18</ele>
        <time>2021-08-26T07:16:47Z</time>
      </trkpt>
      <trkpt lat="44.87761" lon="5.20034">
        <ele>1047.66</ele>
        <time>2021-08-26T07:17:08Z</time>
      </trkpt>
      <trkpt lat="44.87739" lon="5.2004">
        <ele>1049.79</ele>
        <time>2021-08-26T07:17:30Z</time>
      </trkpt>
      <trkpt lat="44.87721" lon="5.20044">
        <ele>1051.56</ele>
        <time>2021-08-26T07:17:53Z</time>
      </trkpt>
      <trkpt lat="44.8771" lon="5.20043">
        <ele>1052.66</ele>
        <time>2021-08-26T07:18:14Z</time>
      </trkpt>
      <trkpt lat="44.87694" lon="5.20051">
        <ele>1053.64</ele>
        <time>2021-08-26T07:18:37Z</time>
      </trkpt>
      <trkpt lat="44.87677" lon="5.20055">
        <ele>1054.73</ele>
        <time>2021-08-26T07:18:58Z</time>
      </trkpt>
      <trkpt lat="44.87665" lon="5.20059">
        <ele>1055.29</ele>
        <time>2021-08-26T07:19:16Z</time>
      </trkpt>
      <trkpt lat="44.87646" lon="5.20065">
        <ele>1056.29</ele>
        <time>2021-08-26T07:19:35Z</time>
      </trkpt>
      <trkpt lat="44.87634" lon="5.20069">
        <ele>1056.8</ele>
        <time>2021-08-26T07:19:55Z</time>
      </trkpt>
      <trkpt lat="44.87629" lon="5.20077">
        <ele>1056.75</ele>
        <time>2021-08-26T07:20:21Z</time>
      </trkpt>
      <trkpt lat="44.8763" lon="5.2008">
        <ele>1056.91</ele>
        <time>2021-08-26T07:20:52Z</time>
      </trkpt>
      <trkpt lat="44.87631" lon="5.20078">
        <ele>1056.88</ele>
        <time>2021-08-26T07:21:21Z</time>
      </trkpt>
      <trkpt lat="44.87625" lon="5.20077">
        <ele>1057.57</ele>
        <time>2021-08-26T07:21:42Z</time>
      </trkpt>
      <trkpt lat="44.87613" lon="5.20082">
        <ele>1059.18</ele>
        <time>2021-08-26T07:22:02Z</time>
      </trkpt>
      <trkpt lat="44.87595" lon="5.20083">
        <ele>1059.88</ele>
        <time>2021-08-26T07:22:20Z</time>
      </trkpt>
      <trkpt lat="44.87586" lon="5.20082">
        <ele>1059.85</ele>
        <time>2021-08-26T07:22:42Z</time>
      </trkpt>
      <trkpt lat="44.87582" lon="5.20078">
        <ele>1060.07</ele>
        <time>2021-08-26T07:23:06Z</time>
      </trkpt>
      <trkpt lat="44.8757" lon="5.20086">
        <ele>1060.47</ele>
        <time>2021-08-26T07:23:26Z</time>
      </trkpt>
      <trkpt lat="44.87558" lon="5.20092">
        <ele>1061.33</ele>
        <time>2021-08-26T07:23:45Z</time>
      </trkpt>
      <trkpt lat="44.87549" lon="5.20095">
        <ele>1062.63</ele>
        <time>2021-08-26T07:24:03Z</time>
      </trkpt>
      <trkpt lat="44.87536" lon="5.20096">
        <ele>1063.14</ele>
        <time>2021-08-26T07:24:22Z</time>
      </trkpt>
      <trkpt lat="44.87529" lon="5.20097">
        <ele>1063.43</ele>
        <time>2021-08-26T07:24:40Z</time>
      </trkpt>
      <trkpt lat="44.87528" lon="5.20095">
        <ele>1063.53</ele>
        <time>2021-08-26T07:25:07Z</time>
      </trkpt>
      <trkpt lat="44.87527" lon="5.20097">
        <ele>1063.66</ele>
        <time>2021-08-26T07:25:34Z</time>
      </trkpt>
      <trkpt lat="44.87527" lon="5.20103">
        <ele>1063.55</ele>
        <time>2021-08-26T07:26:01Z</time>
      </trkpt>
      <trkpt lat="44.87524" lon="5.20103">
        <ele>1064.15</ele>
        <time>2021-08-26T07:26:34Z</time>
      </trkpt>
      <trkpt lat="44.87521" lon="5.20097">
        <ele>1064.16</ele>
        <time>2021-08-26T07:26:57Z</time>
      </trkpt>
      <trkpt lat="44.87515" lon="5.2009">
        <ele>1064.24</ele>
        <time>2021-08-26T07:27:19Z</time>
      </trkpt>
      <trkpt lat="44.8752" lon="5.20095">
        <ele>1064.42</ele>
        <time>2021-08-26T07:27:45Z</time>
      </trkpt>
      <trkpt lat="44.87524" lon="5.201">
        <ele>1064.61</ele>
        <time>2021-08-26T07:28:09Z</time>
      </trkpt>
      <trkpt lat="44.87527" lon="5.20098">
        <ele>1065.01</ele>
        <time>2021-08-26T07:28:40Z</time>
      </trkpt>
      <trkpt lat="44.87524" lon="5.201">
        <ele>1065.33</ele>
        <time>2021-08-26T07:29:08Z</time>
      </trkpt>
      <trkpt lat="44.87519" lon="5.2011">
        <ele>1066.09</ele>
        <time>2021-08-26T07:29:29Z</time>
      </trkpt>
      <trkpt lat="44.87514" lon="5.20123">
        <ele>1066.87</ele>
        <time>2021-08-26T07:29:49Z</time>
      </trkpt>
      <trkpt lat="44.87505" lon="5.20137">
        <ele>1067.51</ele>
        <time>2021-08-26T07:30:08Z</time>
      </trkpt>
      <trkpt lat="44.87497" lon="5.20144">
        <ele>1068.32</ele>
        <time>2021-08-26T07:30:27Z</time>
      </trkpt>
      <trkpt lat="44.8749" lon="5.20149">
        <ele>1069.46</ele>
        <time>2021-08-26T07:30:48Z</time>
      </trkpt>
      <trkpt lat="44.87486" lon="5.20152">
        <ele>1069.83</ele>
        <time>2021-08-26T07:31:03Z</time>
      </trkpt>
      <trkpt lat="44.87476" lon="5.2016">
        <ele>1071.45</ele>
        <time>2021-08-26T07:31:21Z</time>
      </trkpt>
      <trkpt lat="44.87473" lon="5.20162">
        <ele>1072.32</ele>
        <time>2021-08-26T07:31:37Z</time>
      </trkpt>
      <trkpt lat="44.8747" lon="5.20158">
        <ele>1074.46</ele>
        <time>2021-08-26T07:31:55Z</time>
      </trkpt>
      <trkpt lat="44.87471" lon="5.20154">
        <ele>1077.74</ele>
        <time>2021-08-26T07:32:09Z</time>
      </trkpt>
      <trkpt lat="44.87466" lon="5.20143">
        <ele>1080.94</ele>
        <time>2021-08-26T07:32:28Z</time>
      </trkpt>
      <trkpt lat="44.87463" lon="5.20135">
        <ele>1083.33</ele>
        <time>2021-08-26T07:32:49Z</time>
      </trkpt>
      <trkpt lat="44.87463" lon="5.20136">
        <ele>1083.58</ele>
        <time>2021-08-26T07:33:14Z</time>
      </trkpt>
      <trkpt lat="44.87461" lon="5.20138">
        <ele>1083.46</ele>
        <time>2021-08-26T07:33:42Z</time>
      </trkpt>
      <trkpt lat="44.87456" lon="5.20133">
        <ele>1086.04</ele>
        <time>2021-08-26T07:34:07Z</time>
      </trkpt>
      <trkpt lat="44.87454" lon="5.20135">
        <ele>1085.97</ele>
        <time>2021-08-26T07:34:29Z</time>
      </trkpt>
      <trkpt lat="44.87456" lon="5.20134">
        <ele>1086.08</ele>
        <time>2021-08-26T07:34:46Z</time>
      </trkpt>
      <trkpt lat="44.87456" lon="5.20132">
        <ele>1086.1</ele>
        <time>2021-08-26T07:35:13Z</time>
      </trkpt>
      <trkpt lat="44.87461" lon="5.20121">
        <ele>1088.03</ele>
        <time>2021-08-26T07:35:28Z</time>
      </trkpt>
      <trkpt lat="44.87462" lon="5.20108">
        <ele>1091.52</ele>
        <time>2021-08-26T07:35:45Z</time>
      </trkpt>
      <trkpt lat="44.87458" lon="5.20099">
        <ele>1094.75</ele>
        <time>2021-08-26T07:36:00Z</time>
      </trkpt>
      <trkpt lat="44.87459" lon="5.2009">
        <ele>1097.85</ele>
        <time>2021-08-26T07:36:21Z</time>
      </trkpt>
      <trkpt lat="44.87461" lon="5.20087">
        <ele>1098.5</ele>
        <time>2021-08-26T07:36:43Z</time>
      </trkpt>
      <trkpt lat="44.87462" lon="5.20085">
        <ele>1098.75</ele>
        <time>2021-08-26T07:37:03Z</time>
      </trkpt>
      <trkpt lat="44.87461" lon="5.20081">
        <ele>1101.59</ele>
        <time>2021-08-26T07:37:27Z</time>
      </trkpt>
      <trkpt lat="44.87459" lon="5.20074">
        <ele>1102.88</ele>
        <time>2021-08-26T07:37:50Z</time>
      </trkpt>
      <trkpt lat="44.87455" lon="5.2007">
        <ele>1103.75</ele>
        <time>2021-08-26T07:38:07Z</time>
      </trkpt>
      <trkpt lat="44.87453" lon="5.20057">
        <ele>1103.51</ele>
        <time>2021-08-26T07:38:26Z</time>
      </trkpt>
      <trkpt lat="44.87455" lon="5.20046">
        <ele>1104.04</ele>
        <time>2021-08-26T07:38:39Z</time>
      </trkpt>
      <trkpt lat="44.87456" lon="5.2003">
        <ele>1102.58</ele>
        <time>2021-08-26T07:38:55Z</time>
      </trkpt>
      <trkpt lat="44.87463" lon="5.20032">
        <ele>1102.82</ele>
        <time>2021-08-26T07:39:26Z</time>
      </trkpt>
      <trkpt lat="44.87459" lon="5.20031">
        <ele>1102.56</ele>
        <time>2021-08-26T07:40:00Z</time>
      </trkpt>
      <trkpt lat="44.8745" lon="5.20026">
        <ele>1102.22</ele>
        <time>2021-08-26T07:40:26Z</time>
      </trkpt>
      <trkpt lat="44.8745" lon="5.2003">
        <ele>1102.45</ele>
        <time>2021-08-26T07:40:56Z</time>
      </trkpt>
      <trkpt lat="44.87456" lon="5.20025">
        <ele>1102.58</ele>
        <time>2021-08-26T07:41:21Z</time>
      </trkpt>
      <trkpt lat="44.87453" lon="5.20028">
        <ele>1102.41</ele>
        <time>2021-08-26T07:41:43Z</time>
      </trkpt>
      <trkpt lat="44.87458" lon="5.20019">
        <ele>1101.98</ele>
        <time>2021-08-26T07:41:56Z</time>
      </trkpt>
      <trkpt lat="44.87457" lon="5.20011">
        <ele>1101.67</ele>
        <time>2021-08-26T07:42:16Z</time>
      </trkpt>
      <trkpt lat="44.87456" lon="5.20021">
        <ele>1102.33</ele>
        <time>2021-08-26T07:42:32Z</time>
      </trkpt>
      <trkpt lat="44.87453" lon="5.20031">
        <ele>1102.79</ele>
        <time>2021-08-26T07:42:49Z</time>
      </trkpt>
      <trkpt lat="44.87451" lon="5.20046">
        <ele>1103.52</ele>
        <time>2021-08-26T07:43:05Z</time>
      </trkpt>
      <trkpt lat="44.87448" lon="5.20057">
        <ele>1103.84</ele>
        <time>2021-08-26T07:43:27Z</time>
      </trkpt>
      <trkpt lat="44.87439" lon="5.20055">
        <ele>1106.08</ele>
        <time>2021-08-26T07:43:47Z</time>
      </trkpt>
      <trkpt lat="44.87448" lon="5.20057">
        <ele>1103.07</ele>
        <time>2021-08-26T07:44:00Z</time>
      </trkpt>
      <trkpt lat="44.87446" lon="5.20071">
        <ele>1103.89</ele>
        <time>2021-08-26T07:44:19Z</time>
      </trkpt>
      <trkpt lat="44.87445" lon="5.20074">
        <ele>1103.78</ele>
        <time>2021-08-26T07:44:38Z</time>
      </trkpt>
      <trkpt lat="44.8744" lon="5.20081">
        <ele>1103.65</ele>
        <time>2021-08-26T07:45:01Z</time>
      </trkpt>
      <trkpt lat="44.87432" lon="5.20104">
        <ele>1103.16</ele>
        <time>2021-08-26T07:45:18Z</time>
      </trkpt>
      <trkpt lat="44.8743" lon="5.20109">
        <ele>1102.83</ele>
        <time>2021-08-26T07:45:35Z</time>
      </trkpt>
      <trkpt lat="44.87429" lon="5.20114">
        <ele>1102.68</ele>
        <time>2021-08-26T07:45:39Z</time>
      </trkpt>
      <trkpt lat="44.87425" lon="5.20135">
        <ele>1101.61</ele>
        <time>2021-08-26T07:45:54Z</time>
      </trkpt>
      <trkpt lat="44.8742" lon="5.20152">
        <ele>1099.71</ele>
        <time>2021-08-26T07:46:12Z</time>
      </trkpt>
      <trkpt lat="44.87415" lon="5.20167">
        <ele>1097.23</ele>
        <time>2021-08-26T07:46:31Z</time>
      </trkpt>
      <trkpt lat="44.87414" lon="5.20174">
        <ele>1096.44</ele>
        <time>2021-08-26T07:46:36Z</time>
      </trkpt>
      <trkpt lat="44.8741" lon="5.20191">
        <ele>1093.48</ele>
        <time>2021-08-26T07:46:49Z</time>
      </trkpt>
      <trkpt lat="44.87402" lon="5.20211">
        <ele>1091.47</ele>
        <time>2021-08-26T07:47:05Z</time>
      </trkpt>
      <trkpt lat="44.87389" lon="5.20236">
        <ele>1089.15</ele>
        <time>2021-08-26T07:47:25Z</time>
      </trkpt>
      <trkpt lat="44.87378" lon="5.2025">
        <ele>1088.41</ele>
        <time>2021-08-26T07:47:38Z</time>
      </trkpt>
      <trkpt lat="44.87378" lon="5.20251">
        <ele>1088.4</ele>
        <time>2021-08-26T07:47:39Z</time>
      </trkpt>
      <trkpt lat="44.87369" lon="5.20261">
        <ele>1088.45</ele>
        <time>2021-08-26T07:47:49Z</time>
      </trkpt>
      <trkpt lat="44.87365" lon="5.20267">
        <ele>1088.49</ele>
        <time>2021-08-26T07:47:54Z</time>
      </trkpt>
      <trkpt lat="44.87353" lon="5.20288">
        <ele>1087.64</ele>
        <time>2021-08-26T07:48:10Z</time>
      </trkpt>
      <trkpt lat="44.87352" lon="5.20291">
        <ele>1087.21</ele>
        <time>2021-08-26T07:48:13Z</time>
      </trkpt>
      <trkpt lat="44.87342" lon="5.20308">
        <ele>1085.93</ele>
        <time>2021-08-26T07:48:27Z</time>
      </trkpt>
      <trkpt lat="44.87339" lon="5.20312">
        <ele>1085.96</ele>
        <time>2021-08-26T07:48:30Z</time>
      </trkpt>
      <trkpt lat="44.87333" lon="5.20318">
        <ele>1085.71</ele>
        <time>2021-08-26T07:48:36Z</time>
      </trkpt>
      <trkpt lat="44.87324" lon="5.20337">
        <ele>1084.94</ele>
        <time>2021-08-26T07:48:50Z</time>
      </trkpt>
      <trkpt lat="44.87315" lon="5.20352">
        <ele>1083.64</ele>
        <time>2021-08-26T07:49:04Z</time>
      </trkpt>
      <trkpt lat="44.87309" lon="5.20364">
        <ele>1082.06</ele>
        <time>2021-08-26T07:49:14Z</time>
      </trkpt>
      <trkpt lat="44.87303" lon="5.20374">
        <ele>1080.57</ele>
        <time>2021-08-26T07:49:30Z</time>
      </trkpt>
      <trkpt lat="44.87298" lon="5.2039">
        <ele>1077.55</ele>
        <time>2021-08-26T07:49:49Z</time>
      </trkpt>
      <trkpt lat="44.87303" lon="5.204">
        <ele>1077.88</ele>
        <time>2021-08-26T07:49:58Z</time>
      </trkpt>
      <trkpt lat="44.8731" lon="5.20409">
        <ele>1078.82</ele>
        <time>2021-08-26T07:50:16Z</time>
      </trkpt>
      <trkpt lat="44.8731" lon="5.2041">
        <ele>1078.74</ele>
        <time>2021-08-26T07:50:20Z</time>
      </trkpt>
      <trkpt lat="44.87298" lon="5.20416">
        <ele>1081.93</ele>
        <time>2021-08-26T07:50:40Z</time>
      </trkpt>
      <trkpt lat="44.87283" lon="5.20425">
        <ele>1083.37</ele>
        <time>2021-08-26T07:50:58Z</time>
      </trkpt>
      <trkpt lat="44.87272" lon="5.20431">
        <ele>1086.05</ele>
        <time>2021-08-26T07:51:14Z</time>
      </trkpt>
      <trkpt lat="44.8726" lon="5.20435">
        <ele>1089.26</ele>
        <time>2021-08-26T07:51:34Z</time>
      </trkpt>
      <trkpt lat="44.87256" lon="5.20437">
        <ele>1089.22</ele>
        <time>2021-08-26T07:51:56Z</time>
      </trkpt>
      <trkpt lat="44.87249" lon="5.2044">
        <ele>1090.82</ele>
        <time>2021-08-26T07:52:19Z</time>
      </trkpt>
      <trkpt lat="44.87229" lon="5.20437">
        <ele>1093.2</ele>
        <time>2021-08-26T07:52:41Z</time>
      </trkpt>
      <trkpt lat="44.87218" lon="5.20443">
        <ele>1094.6</ele>
        <time>2021-08-26T07:52:58Z</time>
      </trkpt>
      <trkpt lat="44.87205" lon="5.20446">
        <ele>1097.64</ele>
        <time>2021-08-26T07:53:18Z</time>
      </trkpt>
      <trkpt lat="44.87187" lon="5.20441">
        <ele>1100.68</ele>
        <time>2021-08-26T07:53:39Z</time>
      </trkpt>
      <trkpt lat="44.87174" lon="5.20442">
        <ele>1103.58</ele>
        <time>2021-08-26T07:53:58Z</time>
      </trkpt>
      <trkpt lat="44.87159" lon="5.20446">
        <ele>1106.67</ele>
        <time>2021-08-26T07:54:19Z</time>
      </trkpt>
      <trkpt lat="44.8715" lon="5.20445">
        <ele>1108.46</ele>
        <time>2021-08-26T07:54:41Z</time>
      </trkpt>
      <trkpt lat="44.87141" lon="5.2045">
        <ele>1109.94</ele>
        <time>2021-08-26T07:55:06Z</time>
      </trkpt>
      <trkpt lat="44.87131" lon="5.20449">
        <ele>1112.7</ele>
        <time>2021-08-26T07:55:27Z</time>
      </trkpt>
      <trkpt lat="44.87121" lon="5.20454">
        <ele>1115.86</ele>
        <time>2021-08-26T07:55:43Z</time>
      </trkpt>
      <trkpt lat="44.87106" lon="5.20448">
        <ele>1117.69</ele>
        <time>2021-08-26T07:56:05Z</time>
      </trkpt>
      <trkpt lat="44.87096" lon="5.20449">
        <ele>1119.07</ele>
        <time>2021-08-26T07:56:18Z</time>
      </trkpt>
      <trkpt lat="44.87092" lon="5.20445">
        <ele>1120.17</ele>
        <time>2021-08-26T07:56:38Z</time>
      </trkpt>
      <trkpt lat="44.87082" lon="5.20449">
        <ele>1122.74</ele>
        <time>2021-08-26T07:56:54Z</time>
      </trkpt>
      <trkpt lat="44.87072" lon="5.2045">
        <ele>1124.33</ele>
        <time>2021-08-26T07:57:08Z</time>
      </trkpt>
      <trkpt lat="44.87065" lon="5.20446">
        <ele>1124.97</ele>
        <time>2021-08-26T07:57:25Z</time>
      </trkpt>
      <trkpt lat="44.8706" lon="5.20445">
        <ele>1125.75</ele>
        <time>2021-08-26T07:57:41Z</time>
      </trkpt>
      <trkpt lat="44.87045" lon="5.20448">
        <ele>1128.15</ele>
        <time>2021-08-26T07:58:00Z</time>
      </trkpt>
      <trkpt lat="44.87025" lon="5.20443">
        <ele>1128.57</ele>
        <time>2021-08-26T07:58:23Z</time>
      </trkpt>
      <trkpt lat="44.87006" lon="5.20433">
        <ele>1131.67</ele>
        <time>2021-08-26T07:58:42Z</time>
      </trkpt>
      <trkpt lat="44.8699" lon="5.20428">
        <ele>1133.76</ele>
        <time>2021-08-26T07:59:03Z</time>
      </trkpt>
      <trkpt lat="44.86981" lon="5.20423">
        <ele>1134.99</ele>
        <time>2021-08-26T07:59:17Z</time>
      </trkpt>
      <trkpt lat="44.86972" lon="5.20427">
        <ele>1135.88</ele>
        <time>2021-08-26T07:59:36Z</time>
      </trkpt>
      <trkpt lat="44.86971" lon="5.20424">
        <ele>1136.49</ele>
        <time>2021-08-26T07:59:54Z</time>
      </trkpt>
      <trkpt lat="44.86958" lon="5.2042">
        <ele>1136.44</ele>
        <time>2021-08-26T08:00:21Z</time>
      </trkpt>
      <trkpt lat="44.86956" lon="5.20423">
        <ele>1138.12</ele>
        <time>2021-08-26T08:00:42Z</time>
      </trkpt>
      <trkpt lat="44.86948" lon="5.20426">
        <ele>1139.72</ele>
        <time>2021-08-26T08:00:55Z</time>
      </trkpt>
      <trkpt lat="44.86945" lon="5.20424">
        <ele>1140.09</ele>
        <time>2021-08-26T08:00:58Z</time>
      </trkpt>
      <trkpt lat="44.86937" lon="5.20418">
        <ele>1139.91</ele>
        <time>2021-08-26T08:01:23Z</time>
      </trkpt>
      <trkpt lat="44.86934" lon="5.20418">
        <ele>1141.27</ele>
        <time>2021-08-26T08:01:27Z</time>
      </trkpt>
      <trkpt lat="44.86932" lon="5.20418">
        <ele>1142.25</ele>
        <time>2021-08-26T08:01:32Z</time>
      </trkpt>
      <trkpt lat="44.86923" lon="5.20415">
        <ele>1143.61</ele>
        <time>2021-08-26T08:01:44Z</time>
      </trkpt>
      <trkpt lat="44.86919" lon="5.20411">
        <ele>1143.81</ele>
        <time>2021-08-26T08:02:05Z</time>
      </trkpt>
      <trkpt lat="44.86917" lon="5.20414">
        <ele>1143.77</ele>
        <time>2021-08-26T08:02:34Z</time>
      </trkpt>
      <trkpt lat="44.86917" lon="5.20412">
        <ele>1143.86</ele>
        <time>2021-08-26T08:03:04Z</time>
      </trkpt>
      <trkpt lat="44.86915" lon="5.20412">
        <ele>1144.11</ele>
        <time>2021-08-26T08:03:29Z</time>
      </trkpt>
      <trkpt lat="44.86915" lon="5.20413">
        <ele>1143.84</ele>
        <time>2021-08-26T08:03:53Z</time>
      </trkpt>
      <trkpt lat="44.86913" lon="5.2041">
        <ele>1144.17</ele>
        <time>2021-08-26T08:04:24Z</time>
      </trkpt>
      <trkpt lat="44.86908" lon="5.20407">
        <ele>1145.86</ele>
        <time>2021-08-26T08:04:46Z</time>
      </trkpt>
      <trkpt lat="44.86908" lon="5.20386">
        <ele>1148.84</ele>
        <time>2021-08-26T08:05:09Z</time>
      </trkpt>
      <trkpt lat="44.86908" lon="5.20368">
        <ele>1152.09</ele>
        <time>2021-08-26T08:05:26Z</time>
      </trkpt>
      <trkpt lat="44.86915" lon="5.20347">
        <ele>1155.04</ele>
        <time>2021-08-26T08:05:47Z</time>
      </trkpt>
      <trkpt lat="44.86922" lon="5.20337">
        <ele>1156.57</ele>
        <time>2021-08-26T08:06:01Z</time>
      </trkpt>
      <trkpt lat="44.86932" lon="5.20323">
        <ele>1159.58</ele>
        <time>2021-08-26T08:06:19Z</time>
      </trkpt>
      <trkpt lat="44.86944" lon="5.20302">
        <ele>1162</ele>
        <time>2021-08-26T08:06:41Z</time>
      </trkpt>
      <trkpt lat="44.86948" lon="5.20283">
        <ele>1164.6</ele>
        <time>2021-08-26T08:07:00Z</time>
      </trkpt>
      <trkpt lat="44.86954" lon="5.20271">
        <ele>1167.06</ele>
        <time>2021-08-26T08:07:20Z</time>
      </trkpt>
      <trkpt lat="44.86955" lon="5.20265">
        <ele>1168.75</ele>
        <time>2021-08-26T08:07:32Z</time>
      </trkpt>
      <trkpt lat="44.86955" lon="5.20264">
        <ele>1168.77</ele>
        <time>2021-08-26T08:07:33Z</time>
      </trkpt>
      <trkpt lat="44.86957" lon="5.20253">
        <ele>1170.03</ele>
        <time>2021-08-26T08:07:57Z</time>
      </trkpt>
      <trkpt lat="44.86957" lon="5.20249">
        <ele>1170.19</ele>
        <time>2021-08-26T08:08:13Z</time>
      </trkpt>
      <trkpt lat="44.86957" lon="5.20248">
        <ele>1171.14</ele>
        <time>2021-08-26T08:08:35Z</time>
      </trkpt>
      <trkpt lat="44.86964" lon="5.20242">
        <ele>1173.17</ele>
        <time>2021-08-26T08:09:00Z</time>
      </trkpt>
      <trkpt lat="44.86973" lon="5.20232">
        <ele>1176.04</ele>
        <time>2021-08-26T08:09:18Z</time>
      </trkpt>
      <trkpt lat="44.86983" lon="5.20222">
        <ele>1178.87</ele>
        <time>2021-08-26T08:09:35Z</time>
      </trkpt>
      <trkpt lat="44.86991" lon="5.20216">
        <ele>1181.94</ele>
        <time>2021-08-26T08:09:54Z</time>
      </trkpt>
      <trkpt lat="44.87009" lon="5.20208">
        <ele>1185.13</ele>
        <time>2021-08-26T08:10:14Z</time>
      </trkpt>
      <trkpt lat="44.87024" lon="5.20208">
        <ele>1188.11</ele>
        <time>2021-08-26T08:10:33Z</time>
      </trkpt>
      <trkpt lat="44.8704" lon="5.20206">
        <ele>1189.76</ele>
        <time>2021-08-26T08:10:53Z</time>
      </trkpt>
      <trkpt lat="44.87053" lon="5.202">
        <ele>1189.78</ele>
        <time>2021-08-26T08:11:10Z</time>
      </trkpt>
      <trkpt lat="44.87058" lon="5.20199">
        <ele>1192.07</ele>
        <time>2021-08-26T08:11:17Z</time>
      </trkpt>
      <trkpt lat="44.8707" lon="5.20199">
        <ele>1195.2</ele>
        <time>2021-08-26T08:11:36Z</time>
      </trkpt>
      <trkpt lat="44.87076" lon="5.20199">
        <ele>1196.41</ele>
        <time>2021-08-26T08:11:54Z</time>
      </trkpt>
      <trkpt lat="44.87081" lon="5.20193">
        <ele>1199.13</ele>
        <time>2021-08-26T08:12:15Z</time>
      </trkpt>
      <trkpt lat="44.87082" lon="5.2018">
        <ele>1201.48</ele>
        <time>2021-08-26T08:12:34Z</time>
      </trkpt>
      <trkpt lat="44.87084" lon="5.2017">
        <ele>1202.97</ele>
        <time>2021-08-26T08:12:55Z</time>
      </trkpt>
      <trkpt lat="44.87089" lon="5.20171">
        <ele>1203.93</ele>
        <time>2021-08-26T08:13:09Z</time>
      </trkpt>
      <trkpt lat="44.87099" lon="5.20172">
        <ele>1205.96</ele>
        <time>2021-08-26T08:13:30Z</time>
      </trkpt>
      <trkpt lat="44.87104" lon="5.20173">
        <ele>1207.08</ele>
        <time>2021-08-26T08:13:48Z</time>
      </trkpt>
      <trkpt lat="44.87102" lon="5.20171">
        <ele>1206.9</ele>
        <time>2021-08-26T08:14:08Z</time>
      </trkpt>
      <trkpt lat="44.87102" lon="5.20167">
        <ele>1209.08</ele>
        <time>2021-08-26T08:14:27Z</time>
      </trkpt>
      <trkpt lat="44.87112" lon="5.20168">
        <ele>1211.22</ele>
        <time>2021-08-26T08:14:48Z</time>
      </trkpt>
      <trkpt lat="44.87114" lon="5.20169">
        <ele>1211.71</ele>
        <time>2021-08-26T08:15:13Z</time>
      </trkpt>
      <trkpt lat="44.87113" lon="5.20164">
        <ele>1211.84</ele>
        <time>2021-08-26T08:15:41Z</time>
      </trkpt>
      <trkpt lat="44.87114" lon="5.20159">
        <ele>1213.63</ele>
        <time>2021-08-26T08:16:09Z</time>
      </trkpt>
      <trkpt lat="44.87119" lon="5.20163">
        <ele>1214.66</ele>
        <time>2021-08-26T08:16:31Z</time>
      </trkpt>
      <trkpt lat="44.87118" lon="5.20155">
        <ele>1214.95</ele>
        <time>2021-08-26T08:16:58Z</time>
      </trkpt>
      <trkpt lat="44.87119" lon="5.20158">
        <ele>1214.24</ele>
        <time>2021-08-26T08:17:26Z</time>
      </trkpt>
      <trkpt lat="44.87119" lon="5.20162">
        <ele>1214.06</ele>
        <time>2021-08-26T08:17:46Z</time>
      </trkpt>
      <trkpt lat="44.87119" lon="5.20153">
        <ele>1214</ele>
        <time>2021-08-26T08:18:07Z</time>
      </trkpt>
      <trkpt lat="44.8712" lon="5.20148">
        <ele>1214.16</ele>
        <time>2021-08-26T08:18:35Z</time>
      </trkpt>
      <trkpt lat="44.87119" lon="5.20151">
        <ele>1214.53</ele>
        <time>2021-08-26T08:19:09Z</time>
      </trkpt>
      <trkpt lat="44.87117" lon="5.20156">
        <ele>1215.49</ele>
        <time>2021-08-26T08:19:35Z</time>
      </trkpt>
      <trkpt lat="44.87119" lon="5.20159">
        <ele>1215.5</ele>
        <time>2021-08-26T08:19:44Z</time>
      </trkpt>
      <trkpt lat="44.87121" lon="5.20162">
        <ele>1215.34</ele>
        <time>2021-08-26T08:19:47Z</time>
      </trkpt>
      <trkpt lat="44.87117" lon="5.20165">
        <ele>1215.38</ele>
        <time>2021-08-26T08:20:15Z</time>
      </trkpt>
      <trkpt lat="44.87121" lon="5.20164">
        <ele>1215.47</ele>
        <time>2021-08-26T08:20:40Z</time>
      </trkpt>
      <trkpt lat="44.87122" lon="5.20165">
        <ele>1215.42</ele>
        <time>2021-08-26T08:21:07Z</time>
      </trkpt>
      <trkpt lat="44.87123" lon="5.20169">
        <ele>1215.59</ele>
        <time>2021-08-26T08:21:37Z</time>
      </trkpt>
      <trkpt lat="44.87122" lon="5.20169">
        <ele>1215.82</ele>
        <time>2021-08-26T08:22:06Z</time>
      </trkpt>
      <trkpt lat="44.87118" lon="5.2017">
        <ele>1214.98</ele>
        <time>2021-08-26T08:22:31Z</time>
      </trkpt>
      <trkpt lat="44.87119" lon="5.20168">
        <ele>1214.9</ele>
        <time>2021-08-26T08:23:00Z</time>
      </trkpt>
      <trkpt lat="44.87121" lon="5.20169">
        <ele>1214.72</ele>
        <time>2021-08-26T08:23:30Z</time>
      </trkpt>
      <trkpt lat="44.87112" lon="5.20167">
        <ele>1213.43</ele>
        <time>2021-08-26T08:23:56Z</time>
      </trkpt>
      <trkpt lat="44.87106" lon="5.20169">
        <ele>1211.82</ele>
        <time>2021-08-26T08:24:16Z</time>
      </trkpt>
      <trkpt lat="44.87101" lon="5.20169">
        <ele>1210.76</ele>
        <time>2021-08-26T08:24:43Z</time>
      </trkpt>
      <trkpt lat="44.87104" lon="5.2017">
        <ele>1210.89</ele>
        <time>2021-08-26T08:25:09Z</time>
      </trkpt>
      <trkpt lat="44.87104" lon="5.20171">
        <ele>1211.11</ele>
        <time>2021-08-26T08:25:32Z</time>
      </trkpt>
      <trkpt lat="44.87095" lon="5.20173">
        <ele>1208.69</ele>
        <time>2021-08-26T08:25:49Z</time>
      </trkpt>
      <trkpt lat="44.87091" lon="5.20172">
        <ele>1207.98</ele>
        <time>2021-08-26T08:26:12Z</time>
      </trkpt>
      <trkpt lat="44.87091" lon="5.20171">
        <ele>1208.31</ele>
        <time>2021-08-26T08:26:40Z</time>
      </trkpt>
      <trkpt lat="44.87092" lon="5.20171">
        <ele>1208.06</ele>
        <time>2021-08-26T08:27:07Z</time>
      </trkpt>
      <trkpt lat="44.87085" lon="5.20169">
        <ele>1207.2</ele>
        <time>2021-08-26T08:27:24Z</time>
      </trkpt>
      <trkpt lat="44.87085" lon="5.20187">
        <ele>1204.09</ele>
        <time>2021-08-26T08:27:44Z</time>
      </trkpt>
      <trkpt lat="44.87079" lon="5.20196">
        <ele>1201.02</ele>
        <time>2021-08-26T08:27:59Z</time>
      </trkpt>
      <trkpt lat="44.87069" lon="5.20197">
        <ele>1199.85</ele>
        <time>2021-08-26T08:28:18Z</time>
      </trkpt>
      <trkpt lat="44.87068" lon="5.20198">
        <ele>1199.45</ele>
        <time>2021-08-26T08:28:44Z</time>
      </trkpt>
      <trkpt lat="44.8706" lon="5.20201">
        <ele>1197.58</ele>
        <time>2021-08-26T08:29:11Z</time>
      </trkpt>
      <trkpt lat="44.87045" lon="5.20206">
        <ele>1194.97</ele>
        <time>2021-08-26T08:29:30Z</time>
      </trkpt>
      <trkpt lat="44.8703" lon="5.2021">
        <ele>1192.93</ele>
        <time>2021-08-26T08:29:48Z</time>
      </trkpt>
      <trkpt lat="44.87018" lon="5.20206">
        <ele>1191.47</ele>
        <time>2021-08-26T08:30:09Z</time>
      </trkpt>
      <trkpt lat="44.87017" lon="5.20206">
        <ele>1190.05</ele>
        <time>2021-08-26T08:30:11Z</time>
      </trkpt>
      <trkpt lat="44.8701" lon="5.20205">
        <ele>1189.81</ele>
        <time>2021-08-26T08:30:34Z</time>
      </trkpt>
      <trkpt lat="44.86998" lon="5.2021">
        <ele>1187.27</ele>
        <time>2021-08-26T08:30:54Z</time>
      </trkpt>
      <trkpt lat="44.8699" lon="5.20218">
        <ele>1184.49</ele>
        <time>2021-08-26T08:31:17Z</time>
      </trkpt>
      <trkpt lat="44.86986" lon="5.20223">
        <ele>1183.65</ele>
        <time>2021-08-26T08:31:43Z</time>
      </trkpt>
      <trkpt lat="44.86983" lon="5.20227">
        <ele>1182.38</ele>
        <time>2021-08-26T08:32:03Z</time>
      </trkpt>
      <trkpt lat="44.86975" lon="5.20232">
        <ele>1180.51</ele>
        <time>2021-08-26T08:32:21Z</time>
      </trkpt>
      <trkpt lat="44.86966" lon="5.20237">
        <ele>1178.51</ele>
        <time>2021-08-26T08:32:41Z</time>
      </trkpt>
      <trkpt lat="44.86954" lon="5.20247">
        <ele>1176.72</ele>
        <time>2021-08-26T08:33:00Z</time>
      </trkpt>
      <trkpt lat="44.86946" lon="5.20251">
        <ele>1179.81</ele>
        <time>2021-08-26T08:33:15Z</time>
      </trkpt>
      <trkpt lat="44.86942" lon="5.20253">
        <ele>1181.12</ele>
        <time>2021-08-26T08:33:22Z</time>
      </trkpt>
      <trkpt lat="44.86931" lon="5.20253">
        <ele>1182.53</ele>
        <time>2021-08-26T08:33:43Z</time>
      </trkpt>
      <trkpt lat="44.86914" lon="5.20262">
        <ele>1182.81</ele>
        <time>2021-08-26T08:34:02Z</time>
      </trkpt>
      <trkpt lat="44.86901" lon="5.20279">
        <ele>1183.13</ele>
        <time>2021-08-26T08:34:19Z</time>
      </trkpt>
      <trkpt lat="44.86888" lon="5.20297">
        <ele>1182.72</ele>
        <time>2021-08-26T08:34:37Z</time>
      </trkpt>
      <trkpt lat="44.86874" lon="5.20308">
        <ele>1184.24</ele>
        <time>2021-08-26T08:34:56Z</time>
      </trkpt>
      <trkpt lat="44.86853" lon="5.20314">
        <ele>1185.55</ele>
        <time>2021-08-26T08:35:13Z</time>
      </trkpt>
      <trkpt lat="44.86833" lon="5.2032">
        <ele>1188.32</ele>
        <time>2021-08-26T08:35:35Z</time>
      </trkpt>
      <trkpt lat="44.8682" lon="5.20331">
        <ele>1190.51</ele>
        <time>2021-08-26T08:35:54Z</time>
      </trkpt>
      <trkpt lat="44.86801" lon="5.20341">
        <ele>1193.38</ele>
        <time>2021-08-26T08:36:16Z</time>
      </trkpt>
      <trkpt lat="44.86796" lon="5.20349">
        <ele>1193.93</ele>
        <time>2021-08-26T08:36:29Z</time>
      </trkpt>
      <trkpt lat="44.86796" lon="5.20352">
        <ele>1194.01</ele>
        <time>2021-08-26T08:36:31Z</time>
      </trkpt>
      <trkpt lat="44.86793" lon="5.20352">
        <ele>1193.85</ele>
        <time>2021-08-26T08:36:50Z</time>
      </trkpt>
      <trkpt lat="44.86793" lon="5.20351">
        <ele>1193.85</ele>
        <time>2021-08-26T08:37:11Z</time>
      </trkpt>
      <trkpt lat="44.8679" lon="5.20357">
        <ele>1194.03</ele>
        <time>2021-08-26T08:37:41Z</time>
      </trkpt>
      <trkpt lat="44.8679" lon="5.20363">
        <ele>1194.13</ele>
        <time>2021-08-26T08:37:46Z</time>
      </trkpt>
      <trkpt lat="44.86789" lon="5.20365">
        <ele>1193.85</ele>
        <time>2021-08-26T08:37:48Z</time>
      </trkpt>
      <trkpt lat="44.86788" lon="5.20383">
        <ele>1193.14</ele>
        <time>2021-08-26T08:38:04Z</time>
      </trkpt>
      <trkpt lat="44.86787" lon="5.20388">
        <ele>1193.39</ele>
        <time>2021-08-26T08:38:10Z</time>
      </trkpt>
      <trkpt lat="44.86782" lon="5.20412">
        <ele>1192.47</ele>
        <time>2021-08-26T08:38:28Z</time>
      </trkpt>
      <trkpt lat="44.86781" lon="5.20417">
        <ele>1192.34</ele>
        <time>2021-08-26T08:38:32Z</time>
      </trkpt>
      <trkpt lat="44.86781" lon="5.20421">
        <ele>1192.32</ele>
        <time>2021-08-26T08:38:34Z</time>
      </trkpt>
      <trkpt lat="44.86778" lon="5.20426">
        <ele>1192.09</ele>
        <time>2021-08-26T08:38:47Z</time>
      </trkpt>
      <trkpt lat="44.86776" lon="5.20431">
        <ele>1191.76</ele>
        <time>2021-08-26T08:38:51Z</time>
      </trkpt>
      <trkpt lat="44.86775" lon="5.20439">
        <ele>1190.86</ele>
        <time>2021-08-26T08:38:57Z</time>
      </trkpt>
      <trkpt lat="44.86773" lon="5.20446">
        <ele>1190.56</ele>
        <time>2021-08-26T08:39:02Z</time>
      </trkpt>
      <trkpt lat="44.86755" lon="5.20461">
        <ele>1191.56</ele>
        <time>2021-08-26T08:39:22Z</time>
      </trkpt>
      <trkpt lat="44.86746" lon="5.20459">
        <ele>1191.04</ele>
        <time>2021-08-26T08:39:38Z</time>
      </trkpt>
      <trkpt lat="44.8674" lon="5.20444">
        <ele>1192.93</ele>
        <time>2021-08-26T08:39:54Z</time>
      </trkpt>
      <trkpt lat="44.86739" lon="5.20444">
        <ele>1193</ele>
        <time>2021-08-26T08:39:55Z</time>
      </trkpt>
      <trkpt lat="44.86724" lon="5.20446">
        <ele>1192.24</ele>
        <time>2021-08-26T08:40:12Z</time>
      </trkpt>
      <trkpt lat="44.86717" lon="5.20446">
        <ele>1192.53</ele>
        <time>2021-08-26T08:40:28Z</time>
      </trkpt>
      <trkpt lat="44.86712" lon="5.20443">
        <ele>1192.64</ele>
        <time>2021-08-26T08:40:46Z</time>
      </trkpt>
      <trkpt lat="44.86716" lon="5.20444">
        <ele>1192.57</ele>
        <time>2021-08-26T08:41:06Z</time>
      </trkpt>
      <trkpt lat="44.86718" lon="5.20456">
        <ele>1189.68</ele>
        <time>2021-08-26T08:41:24Z</time>
      </trkpt>
      <trkpt lat="44.86713" lon="5.20467">
        <ele>1187.97</ele>
        <time>2021-08-26T08:41:41Z</time>
      </trkpt>
      <trkpt lat="44.86709" lon="5.20467">
        <ele>1186.69</ele>
        <time>2021-08-26T08:41:49Z</time>
      </trkpt>
      <trkpt lat="44.86702" lon="5.20473">
        <ele>1185.02</ele>
        <time>2021-08-26T08:42:08Z</time>
      </trkpt>
      <trkpt lat="44.86698" lon="5.20478">
        <ele>1184.64</ele>
        <time>2021-08-26T08:42:25Z</time>
      </trkpt>
      <trkpt lat="44.86688" lon="5.20482">
        <ele>1182.39</ele>
        <time>2021-08-26T08:42:41Z</time>
      </trkpt>
      <trkpt lat="44.86681" lon="5.20486">
        <ele>1180.25</ele>
        <time>2021-08-26T08:43:00Z</time>
      </trkpt>
      <trkpt lat="44.86673" lon="5.20483">
        <ele>1177.19</ele>
        <time>2021-08-26T08:43:18Z</time>
      </trkpt>
      <trkpt lat="44.86668" lon="5.20485">
        <ele>1175.55</ele>
        <time>2021-08-26T08:43:34Z</time>
      </trkpt>
      <trkpt lat="44.86668" lon="5.20488">
        <ele>1175.25</ele>
        <time>2021-08-26T08:43:54Z</time>
      </trkpt>
      <trkpt lat="44.86662" lon="5.20488">
        <ele>1172.63</ele>
        <time>2021-08-26T08:44:18Z</time>
      </trkpt>
      <trkpt lat="44.86652" lon="5.20485">
        <ele>1169.54</ele>
        <time>2021-08-26T08:44:33Z</time>
      </trkpt>
      <trkpt lat="44.86646" lon="5.20485">
        <ele>1166.39</ele>
        <time>2021-08-26T08:44:46Z</time>
      </trkpt>
      <trkpt lat="44.86639" lon="5.20486">
        <ele>1163.39</ele>
        <time>2021-08-26T08:45:02Z</time>
      </trkpt>
      <trkpt lat="44.86629" lon="5.20486">
        <ele>1160.19</ele>
        <time>2021-08-26T08:45:17Z</time>
      </trkpt>
      <trkpt lat="44.86621" lon="5.20482">
        <ele>1157.13</ele>
        <time>2021-08-26T08:45:32Z</time>
      </trkpt>
      <trkpt lat="44.86614" lon="5.20481">
        <ele>1154.22</ele>
        <time>2021-08-26T08:45:53Z</time>
      </trkpt>
      <trkpt lat="44.86608" lon="5.20487">
        <ele>1151.15</ele>
        <time>2021-08-26T08:46:11Z</time>
      </trkpt>
      <trkpt lat="44.86603" lon="5.20489">
        <ele>1149.68</ele>
        <time>2021-08-26T08:46:29Z</time>
      </trkpt>
      <trkpt lat="44.86595" lon="5.2049">
        <ele>1146.53</ele>
        <time>2021-08-26T08:46:46Z</time>
      </trkpt>
      <trkpt lat="44.86589" lon="5.20488">
        <ele>1143.41</ele>
        <time>2021-08-26T08:47:05Z</time>
      </trkpt>
      <trkpt lat="44.86584" lon="5.20486">
        <ele>1140.21</ele>
        <time>2021-08-26T08:47:18Z</time>
      </trkpt>
      <trkpt lat="44.86577" lon="5.20488">
        <ele>1137.48</ele>
        <time>2021-08-26T08:47:36Z</time>
      </trkpt>
      <trkpt lat="44.86572" lon="5.20492">
        <ele>1135.5</ele>
        <time>2021-08-26T08:47:55Z</time>
      </trkpt>
      <trkpt lat="44.86569" lon="5.20492">
        <ele>1134.22</ele>
        <time>2021-08-26T08:48:17Z</time>
      </trkpt>
      <trkpt lat="44.86566" lon="5.2049">
        <ele>1132.64</ele>
        <time>2021-08-26T08:48:43Z</time>
      </trkpt>
      <trkpt lat="44.86567" lon="5.20491">
        <ele>1131.59</ele>
        <time>2021-08-26T08:49:07Z</time>
      </trkpt>
      <trkpt lat="44.86571" lon="5.20488">
        <ele>1131.39</ele>
        <time>2021-08-26T08:49:32Z</time>
      </trkpt>
      <trkpt lat="44.86567" lon="5.20485">
        <ele>1131.18</ele>
        <time>2021-08-26T08:49:50Z</time>
      </trkpt>
      <trkpt lat="44.86568" lon="5.20487">
        <ele>1131.48</ele>
        <time>2021-08-26T08:50:20Z</time>
      </trkpt>
      <trkpt lat="44.86569" lon="5.20487">
        <ele>1131.27</ele>
        <time>2021-08-26T08:50:43Z</time>
      </trkpt>
      <trkpt lat="44.86559" lon="5.2048">
        <ele>1129.18</ele>
        <time>2021-08-26T08:51:05Z</time>
      </trkpt>
      <trkpt lat="44.86554" lon="5.20478">
        <ele>1126.12</ele>
        <time>2021-08-26T08:51:12Z</time>
      </trkpt>
      <trkpt lat="44.86546" lon="5.20477">
        <ele>1123.53</ele>
        <time>2021-08-26T08:51:34Z</time>
      </trkpt>
      <trkpt lat="44.86539" lon="5.20476">
        <ele>1120.52</ele>
        <time>2021-08-26T08:51:47Z</time>
      </trkpt>
      <trkpt lat="44.86529" lon="5.20475">
        <ele>1117.42</ele>
        <time>2021-08-26T08:52:03Z</time>
      </trkpt>
      <trkpt lat="44.86523" lon="5.20472">
        <ele>1114.35</ele>
        <time>2021-08-26T08:52:21Z</time>
      </trkpt>
      <trkpt lat="44.86513" lon="5.20476">
        <ele>1111.27</ele>
        <time>2021-08-26T08:52:44Z</time>
      </trkpt>
      <trkpt lat="44.86504" lon="5.20469">
        <ele>1108.07</ele>
        <time>2021-08-26T08:53:04Z</time>
      </trkpt>
      <trkpt lat="44.86496" lon="5.20463">
        <ele>1104.95</ele>
        <time>2021-08-26T08:53:18Z</time>
      </trkpt>
      <trkpt lat="44.86491" lon="5.20457">
        <ele>1103.07</ele>
        <time>2021-08-26T08:53:42Z</time>
      </trkpt>
      <trkpt lat="44.86496" lon="5.20455">
        <ele>1103.67</ele>
        <time>2021-08-26T08:54:09Z</time>
      </trkpt>
      <trkpt lat="44.86487" lon="5.20453">
        <ele>1100.63</ele>
        <time>2021-08-26T08:54:28Z</time>
      </trkpt>
      <trkpt lat="44.86476" lon="5.20446">
        <ele>1098.13</ele>
        <time>2021-08-26T08:54:48Z</time>
      </trkpt>
      <trkpt lat="44.86473" lon="5.2044">
        <ele>1097.8</ele>
        <time>2021-08-26T08:55:04Z</time>
      </trkpt>
      <trkpt lat="44.86473" lon="5.20438">
        <ele>1097.67</ele>
        <time>2021-08-26T08:55:26Z</time>
      </trkpt>
      <trkpt lat="44.86467" lon="5.20427">
        <ele>1095.81</ele>
        <time>2021-08-26T08:55:47Z</time>
      </trkpt>
      <trkpt lat="44.8646" lon="5.20417">
        <ele>1094.63</ele>
        <time>2021-08-26T08:56:04Z</time>
      </trkpt>
      <trkpt lat="44.86457" lon="5.2041">
        <ele>1093.79</ele>
        <time>2021-08-26T08:56:23Z</time>
      </trkpt>
      <trkpt lat="44.86455" lon="5.20408">
        <ele>1093.64</ele>
        <time>2021-08-26T08:56:45Z</time>
      </trkpt>
      <trkpt lat="44.86451" lon="5.20406">
        <ele>1092.74</ele>
        <time>2021-08-26T08:57:02Z</time>
      </trkpt>
      <trkpt lat="44.86448" lon="5.20419">
        <ele>1089.71</ele>
        <time>2021-08-26T08:57:21Z</time>
      </trkpt>
      <trkpt lat="44.86448" lon="5.20423">
        <ele>1087.53</ele>
        <time>2021-08-26T08:57:41Z</time>
      </trkpt>
      <trkpt lat="44.86447" lon="5.20418">
        <ele>1086.87</ele>
        <time>2021-08-26T08:58:02Z</time>
      </trkpt>
      <trkpt lat="44.86446" lon="5.20414">
        <ele>1085.54</ele>
        <time>2021-08-26T08:58:20Z</time>
      </trkpt>
      <trkpt lat="44.8644" lon="5.20412">
        <ele>1084.35</ele>
        <time>2021-08-26T08:58:45Z</time>
      </trkpt>
      <trkpt lat="44.86439" lon="5.20414">
        <ele>1082.72</ele>
        <time>2021-08-26T08:59:06Z</time>
      </trkpt>
      <trkpt lat="44.86439" lon="5.20427">
        <ele>1081.76</ele>
        <time>2021-08-26T08:59:22Z</time>
      </trkpt>
      <trkpt lat="44.86439" lon="5.2043">
        <ele>1081</ele>
        <time>2021-08-26T08:59:31Z</time>
      </trkpt>
      <trkpt lat="44.86435" lon="5.20428">
        <ele>1078.46</ele>
        <time>2021-08-26T08:59:56Z</time>
      </trkpt>
      <trkpt lat="44.86437" lon="5.20428">
        <ele>1077.73</ele>
        <time>2021-08-26T09:00:09Z</time>
      </trkpt>
      <trkpt lat="44.86436" lon="5.2044">
        <ele>1075.74</ele>
        <time>2021-08-26T09:00:33Z</time>
      </trkpt>
      <trkpt lat="44.86437" lon="5.20441">
        <ele>1075.51</ele>
        <time>2021-08-26T09:00:53Z</time>
      </trkpt>
      <trkpt lat="44.86438" lon="5.20444">
        <ele>1074.84</ele>
        <time>2021-08-26T09:01:21Z</time>
      </trkpt>
      <trkpt lat="44.86428" lon="5.20441">
        <ele>1071.79</ele>
        <time>2021-08-26T09:01:40Z</time>
      </trkpt>
      <trkpt lat="44.86425" lon="5.20439">
        <ele>1071.73</ele>
        <time>2021-08-26T09:02:05Z</time>
      </trkpt>
      <trkpt lat="44.86419" lon="5.2044">
        <ele>1070.23</ele>
        <time>2021-08-26T09:02:27Z</time>
      </trkpt>
      <trkpt lat="44.86418" lon="5.20435">
        <ele>1068.68</ele>
        <time>2021-08-26T09:02:50Z</time>
      </trkpt>
      <trkpt lat="44.86418" lon="5.20434">
        <ele>1068.88</ele>
        <time>2021-08-26T09:03:11Z</time>
      </trkpt>
      <trkpt lat="44.86415" lon="5.20436">
        <ele>1067.35</ele>
        <time>2021-08-26T09:03:31Z</time>
      </trkpt>
      <trkpt lat="44.86404" lon="5.20429">
        <ele>1064.2</ele>
        <time>2021-08-26T09:03:51Z</time>
      </trkpt>
      <trkpt lat="44.86399" lon="5.20425">
        <ele>1061.98</ele>
        <time>2021-08-26T09:04:11Z</time>
      </trkpt>
      <trkpt lat="44.86396" lon="5.20428">
        <ele>1059.93</ele>
        <time>2021-08-26T09:04:31Z</time>
      </trkpt>
      <trkpt lat="44.86399" lon="5.20435">
        <ele>1059.37</ele>
        <time>2021-08-26T09:04:53Z</time>
      </trkpt>
      <trkpt lat="44.86395" lon="5.20428">
        <ele>1057.61</ele>
        <time>2021-08-26T09:05:17Z</time>
      </trkpt>
      <trkpt lat="44.86383" lon="5.20418">
        <ele>1054.46</ele>
        <time>2021-08-26T09:05:38Z</time>
      </trkpt>
      <trkpt lat="44.86374" lon="5.20411">
        <ele>1051.38</ele>
        <time>2021-08-26T09:05:53Z</time>
      </trkpt>
      <trkpt lat="44.86366" lon="5.20409">
        <ele>1048.22</ele>
        <time>2021-08-26T09:06:11Z</time>
      </trkpt>
      <trkpt lat="44.86363" lon="5.20408">
        <ele>1046.67</ele>
        <time>2021-08-26T09:06:28Z</time>
      </trkpt>
      <trkpt lat="44.86358" lon="5.20412">
        <ele>1045.42</ele>
        <time>2021-08-26T09:06:51Z</time>
      </trkpt>
      <trkpt lat="44.8635" lon="5.20408">
        <ele>1042.16</ele>
        <time>2021-08-26T09:07:04Z</time>
      </trkpt>
      <trkpt lat="44.86344" lon="5.20406">
        <ele>1038.92</ele>
        <time>2021-08-26T09:07:17Z</time>
      </trkpt>
      <trkpt lat="44.86339" lon="5.20404">
        <ele>1035.79</ele>
        <time>2021-08-26T09:07:32Z</time>
      </trkpt>
      <trkpt lat="44.86339" lon="5.20403">
        <ele>1035.42</ele>
        <time>2021-08-26T09:07:53Z</time>
      </trkpt>
      <trkpt lat="44.86333" lon="5.20402">
        <ele>1033.38</ele>
        <time>2021-08-26T09:08:14Z</time>
      </trkpt>
      <trkpt lat="44.86328" lon="5.20396">
        <ele>1030.83</ele>
        <time>2021-08-26T09:08:35Z</time>
      </trkpt>
      <trkpt lat="44.86322" lon="5.20388">
        <ele>1027.72</ele>
        <time>2021-08-26T09:08:52Z</time>
      </trkpt>
      <trkpt lat="44.86321" lon="5.20387">
        <ele>1027.43</ele>
        <time>2021-08-26T09:08:53Z</time>
      </trkpt>
      <trkpt lat="44.86315" lon="5.20387">
        <ele>1024.23</ele>
        <time>2021-08-26T09:09:03Z</time>
      </trkpt>
      <trkpt lat="44.86315" lon="5.20384">
        <ele>1024.09</ele>
        <time>2021-08-26T09:09:26Z</time>
      </trkpt>
      <trkpt lat="44.86311" lon="5.2038">
        <ele>1022.36</ele>
        <time>2021-08-26T09:09:35Z</time>
      </trkpt>
      <trkpt lat="44.86297" lon="5.20378">
        <ele>1019.05</ele>
        <time>2021-08-26T09:09:54Z</time>
      </trkpt>
      <trkpt lat="44.86296" lon="5.20378">
        <ele>1017.84</ele>
        <time>2021-08-26T09:10:14Z</time>
      </trkpt>
      <trkpt lat="44.86291" lon="5.20373">
        <ele>1015.08</ele>
        <time>2021-08-26T09:10:35Z</time>
      </trkpt>
      <trkpt lat="44.86284" lon="5.20368">
        <ele>1011.94</ele>
        <time>2021-08-26T09:10:49Z</time>
      </trkpt>
      <trkpt lat="44.86273" lon="5.20368">
        <ele>1009.55</ele>
        <time>2021-08-26T09:11:14Z</time>
      </trkpt>
      <trkpt lat="44.86266" lon="5.20364">
        <ele>1008.97</ele>
        <time>2021-08-26T09:11:35Z</time>
      </trkpt>
      <trkpt lat="44.8626" lon="5.20358">
        <ele>1007.58</ele>
        <time>2021-08-26T09:11:54Z</time>
      </trkpt>
      <trkpt lat="44.86257" lon="5.20353">
        <ele>1005.94</ele>
        <time>2021-08-26T09:12:15Z</time>
      </trkpt>
      <trkpt lat="44.86258" lon="5.20356">
        <ele>1006.13</ele>
        <time>2021-08-26T09:12:35Z</time>
      </trkpt>
      <trkpt lat="44.86258" lon="5.20362">
        <ele>1005.57</ele>
        <time>2021-08-26T09:13:04Z</time>
      </trkpt>
      <trkpt lat="44.86257" lon="5.20352">
        <ele>1003.75</ele>
        <time>2021-08-26T09:13:26Z</time>
      </trkpt>
      <trkpt lat="44.86251" lon="5.20347">
        <ele>1001.39</ele>
        <time>2021-08-26T09:13:50Z</time>
      </trkpt>
      <trkpt lat="44.86248" lon="5.20345">
        <ele>999.87</ele>
        <time>2021-08-26T09:14:16Z</time>
      </trkpt>
      <trkpt lat="44.86247" lon="5.20341">
        <ele>997.25</ele>
        <time>2021-08-26T09:14:42Z</time>
      </trkpt>
      <trkpt lat="44.86242" lon="5.20339">
        <ele>994.64</ele>
        <time>2021-08-26T09:15:01Z</time>
      </trkpt>
      <trkpt lat="44.86237" lon="5.20335">
        <ele>992.26</ele>
        <time>2021-08-26T09:15:11Z</time>
      </trkpt>
      <trkpt lat="44.86231" lon="5.20333">
        <ele>990.7</ele>
        <time>2021-08-26T09:15:34Z</time>
      </trkpt>
      <trkpt lat="44.86232" lon="5.20332">
        <ele>990.53</ele>
        <time>2021-08-26T09:16:02Z</time>
      </trkpt>
      <trkpt lat="44.86227" lon="5.20332">
        <ele>990.29</ele>
        <time>2021-08-26T09:16:27Z</time>
      </trkpt>
      <trkpt lat="44.86228" lon="5.20333">
        <ele>990.99</ele>
        <time>2021-08-26T09:17:08Z</time>
      </trkpt>
      <trkpt lat="44.86223" lon="5.20326">
        <ele>987.91</ele>
        <time>2021-08-26T09:17:29Z</time>
      </trkpt>
      <trkpt lat="44.86212" lon="5.20325">
        <ele>985.41</ele>
        <time>2021-08-26T09:17:50Z</time>
      </trkpt>
      <trkpt lat="44.86206" lon="5.20327">
        <ele>983.06</ele>
        <time>2021-08-26T09:18:00Z</time>
      </trkpt>
      <trkpt lat="44.86204" lon="5.20326">
        <ele>981.69</ele>
        <time>2021-08-26T09:18:21Z</time>
      </trkpt>
      <trkpt lat="44.86204" lon="5.20326">
        <ele>981.67</ele>
        <time>2021-08-26T09:18:53Z</time>
      </trkpt>
      <trkpt lat="44.86199" lon="5.20324">
        <ele>979.25</ele>
        <time>2021-08-26T09:19:13Z</time>
      </trkpt>
      <trkpt lat="44.86195" lon="5.20322">
        <ele>977.57</ele>
        <time>2021-08-26T09:19:33Z</time>
      </trkpt>
      <trkpt lat="44.86195" lon="5.20321">
        <ele>977.93</ele>
        <time>2021-08-26T09:20:01Z</time>
      </trkpt>
      <trkpt lat="44.86194" lon="5.20321">
        <ele>975.69</ele>
        <time>2021-08-26T09:20:28Z</time>
      </trkpt>
      <trkpt lat="44.86191" lon="5.20317">
        <ele>973.99</ele>
        <time>2021-08-26T09:20:53Z</time>
      </trkpt>
      <trkpt lat="44.86187" lon="5.20316">
        <ele>971.63</ele>
        <time>2021-08-26T09:21:12Z</time>
      </trkpt>
      <trkpt lat="44.86182" lon="5.20311">
        <ele>968.15</ele>
        <time>2021-08-26T09:21:26Z</time>
      </trkpt>
      <trkpt lat="44.86172" lon="5.20316">
        <ele>966.4</ele>
        <time>2021-08-26T09:21:47Z</time>
      </trkpt>
      <trkpt lat="44.86173" lon="5.20323">
        <ele>968.33</ele>
        <time>2021-08-26T09:22:10Z</time>
      </trkpt>
      <trkpt lat="44.8618" lon="5.20323">
        <ele>968.48</ele>
        <time>2021-08-26T09:22:30Z</time>
      </trkpt>
      <trkpt lat="44.8618" lon="5.2033">
        <ele>967.86</ele>
        <time>2021-08-26T09:22:55Z</time>
      </trkpt>
      <trkpt lat="44.86168" lon="5.20311">
        <ele>964.83</ele>
        <time>2021-08-26T09:23:14Z</time>
      </trkpt>
      <trkpt lat="44.86159" lon="5.20299">
        <ele>961.63</ele>
        <time>2021-08-26T09:23:30Z</time>
      </trkpt>
      <trkpt lat="44.86141" lon="5.20282">
        <ele>959.46</ele>
        <time>2021-08-26T09:23:52Z</time>
      </trkpt>
      <trkpt lat="44.8613" lon="5.20265">
        <ele>957.31</ele>
        <time>2021-08-26T09:24:12Z</time>
      </trkpt>
      <trkpt lat="44.86124" lon="5.20256">
        <ele>955.29</ele>
        <time>2021-08-26T09:24:33Z</time>
      </trkpt>
      <trkpt lat="44.86121" lon="5.20246">
        <ele>954.39</ele>
        <time>2021-08-26T09:24:53Z</time>
      </trkpt>
      <trkpt lat="44.86104" lon="5.20237">
        <ele>951.97</ele>
        <time>2021-08-26T09:25:10Z</time>
      </trkpt>
      <trkpt lat="44.86088" lon="5.20223">
        <ele>950.23</ele>
        <time>2021-08-26T09:25:27Z</time>
      </trkpt>
      <trkpt lat="44.86087" lon="5.20221">
        <ele>950.38</ele>
        <time>2021-08-26T09:25:28Z</time>
      </trkpt>
      <trkpt lat="44.86079" lon="5.20208">
        <ele>949.13</ele>
        <time>2021-08-26T09:25:42Z</time>
      </trkpt>
      <trkpt lat="44.86069" lon="5.20198">
        <ele>948.11</ele>
        <time>2021-08-26T09:26:00Z</time>
      </trkpt>
      <trkpt lat="44.86051" lon="5.20182">
        <ele>946.86</ele>
        <time>2021-08-26T09:26:20Z</time>
      </trkpt>
      <trkpt lat="44.86038" lon="5.20167">
        <ele>945.3</ele>
        <time>2021-08-26T09:26:37Z</time>
      </trkpt>
      <trkpt lat="44.86035" lon="5.20158">
        <ele>944.59</ele>
        <time>2021-08-26T09:26:47Z</time>
      </trkpt>
      <trkpt lat="44.8602" lon="5.20143">
        <ele>943.74</ele>
        <time>2021-08-26T09:27:07Z</time>
      </trkpt>
      <trkpt lat="44.86003" lon="5.20133">
        <ele>942.88</ele>
        <time>2021-08-26T09:27:29Z</time>
      </trkpt>
      <trkpt lat="44.85987" lon="5.20124">
        <ele>941.78</ele>
        <time>2021-08-26T09:27:47Z</time>
      </trkpt>
      <trkpt lat="44.85972" lon="5.20112">
        <ele>941.15</ele>
        <time>2021-08-26T09:28:06Z</time>
      </trkpt>
      <trkpt lat="44.85952" lon="5.20094">
        <ele>940.1</ele>
        <time>2021-08-26T09:28:27Z</time>
      </trkpt>
      <trkpt lat="44.85942" lon="5.20088">
        <ele>939.83</ele>
        <time>2021-08-26T09:28:44Z</time>
      </trkpt>
      <trkpt lat="44.85921" lon="5.20074">
        <ele>939.21</ele>
        <time>2021-08-26T09:29:06Z</time>
      </trkpt>
      <trkpt lat="44.8591" lon="5.20065">
        <ele>939.2</ele>
        <time>2021-08-26T09:29:17Z</time>
      </trkpt>
      <trkpt lat="44.85887" lon="5.20049">
        <ele>939.27</ele>
        <time>2021-08-26T09:29:40Z</time>
      </trkpt>
      <trkpt lat="44.85869" lon="5.20036">
        <ele>939</ele>
        <time>2021-08-26T09:29:59Z</time>
      </trkpt>
      <trkpt lat="44.85855" lon="5.20026">
        <ele>939.04</ele>
        <time>2021-08-26T09:30:18Z</time>
      </trkpt>
      <trkpt lat="44.85843" lon="5.20019">
        <ele>938.83</ele>
        <time>2021-08-26T09:30:35Z</time>
      </trkpt>
      <trkpt lat="44.85836" lon="5.20017">
        <ele>938.7</ele>
        <time>2021-08-26T09:30:46Z</time>
      </trkpt>
      <trkpt lat="44.85814" lon="5.20004">
        <ele>939.21</ele>
        <time>2021-08-26T09:31:04Z</time>
      </trkpt>
      <trkpt lat="44.85793" lon="5.19991">
        <ele>938.88</ele>
        <time>2021-08-26T09:31:25Z</time>
      </trkpt>
      <trkpt lat="44.85786" lon="5.19988">
        <ele>938.57</ele>
        <time>2021-08-26T09:31:30Z</time>
      </trkpt>
      <trkpt lat="44.85768" lon="5.19977">
        <ele>937.98</ele>
        <time>2021-08-26T09:31:50Z</time>
      </trkpt>
      <trkpt lat="44.85749" lon="5.19961">
        <ele>937.43</ele>
        <time>2021-08-26T09:32:11Z</time>
      </trkpt>
      <trkpt lat="44.85735" lon="5.19953">
        <ele>937.61</ele>
        <time>2021-08-26T09:32:30Z</time>
      </trkpt>
      <trkpt lat="44.85712" lon="5.1994">
        <ele>937.87</ele>
        <time>2021-08-26T09:32:52Z</time>
      </trkpt>
      <trkpt lat="44.85697" lon="5.19933">
        <ele>937.09</ele>
        <time>2021-08-26T09:33:07Z</time>
      </trkpt>
      <trkpt lat="44.85695" lon="5.19932">
        <ele>936.8</ele>
        <time>2021-08-26T09:33:09Z</time>
      </trkpt>
      <trkpt lat="44.85679" lon="5.19925">
        <ele>936.06</ele>
        <time>2021-08-26T09:33:25Z</time>
      </trkpt>
      <trkpt lat="44.85659" lon="5.19917">
        <ele>935.8</ele>
        <time>2021-08-26T09:33:46Z</time>
      </trkpt>
      <trkpt lat="44.85643" lon="5.1991">
        <ele>935.93</ele>
        <time>2021-08-26T09:34:06Z</time>
      </trkpt>
      <trkpt lat="44.85629" lon="5.19903">
        <ele>936.09</ele>
        <time>2021-08-26T09:34:23Z</time>
      </trkpt>
      <trkpt lat="44.85609" lon="5.19896">
        <ele>936.51</ele>
        <time>2021-08-26T09:34:45Z</time>
      </trkpt>
      <trkpt lat="44.85589" lon="5.19898">
        <ele>937.16</ele>
        <time>2021-08-26T09:35:05Z</time>
      </trkpt>
      <trkpt lat="44.85574" lon="5.19899">
        <ele>938.67</ele>
        <time>2021-08-26T09:35:24Z</time>
      </trkpt>
      <trkpt lat="44.85555" lon="5.19899">
        <ele>939.53</ele>
        <time>2021-08-26T09:35:43Z</time>
      </trkpt>
      <trkpt lat="44.85552" lon="5.19894">
        <ele>939.37</ele>
        <time>2021-08-26T09:35:54Z</time>
      </trkpt>
      <trkpt lat="44.85547" lon="5.19888">
        <ele>939.52</ele>
        <time>2021-08-26T09:36:12Z</time>
      </trkpt>
      <trkpt lat="44.85547" lon="5.19888">
        <ele>939.67</ele>
        <time>2021-08-26T09:36:36Z</time>
      </trkpt>
      <trkpt lat="44.85547" lon="5.1989">
        <ele>939.59</ele>
        <time>2021-08-26T09:37:11Z</time>
      </trkpt>
      <trkpt lat="44.85548" lon="5.1989">
        <ele>939.58</ele>
        <time>2021-08-26T09:37:42Z</time>
      </trkpt>
      <trkpt lat="44.85548" lon="5.19886">
        <ele>939.41</ele>
        <time>2021-08-26T09:38:02Z</time>
      </trkpt>
      <trkpt lat="44.85548" lon="5.19883">
        <ele>939.24</ele>
        <time>2021-08-26T09:38:05Z</time>
      </trkpt>
      <trkpt lat="44.85549" lon="5.19879">
        <ele>939.04</ele>
        <time>2021-08-26T09:38:08Z</time>
      </trkpt>
      <trkpt lat="44.85551" lon="5.19868">
        <ele>938.01</ele>
        <time>2021-08-26T09:38:25Z</time>
      </trkpt>
      <trkpt lat="44.85551" lon="5.19868">
        <ele>938.14</ele>
        <time>2021-08-26T09:39:03Z</time>
      </trkpt>
      <trkpt lat="44.85553" lon="5.19868">
        <ele>938.02</ele>
        <time>2021-08-26T09:39:34Z</time>
      </trkpt>
      <trkpt lat="44.85557" lon="5.19864">
        <ele>937.82</ele>
        <time>2021-08-26T09:39:41Z</time>
      </trkpt>
      <trkpt lat="44.85573" lon="5.1984">
        <ele>934.94</ele>
        <time>2021-08-26T09:40:03Z</time>
      </trkpt>
      <trkpt lat="44.85582" lon="5.19823">
        <ele>934.04</ele>
        <time>2021-08-26T09:40:16Z</time>
      </trkpt>
      <trkpt lat="44.8559" lon="5.19801">
        <ele>932.54</ele>
        <time>2021-08-26T09:40:32Z</time>
      </trkpt>
      <trkpt lat="44.85592" lon="5.19791">
        <ele>931.7</ele>
        <time>2021-08-26T09:40:38Z</time>
      </trkpt>
      <trkpt lat="44.85596" lon="5.19782">
        <ele>930.91</ele>
        <time>2021-08-26T09:40:48Z</time>
      </trkpt>
      <trkpt lat="44.85602" lon="5.19776">
        <ele>929.75</ele>
        <time>2021-08-26T09:40:55Z</time>
      </trkpt>
      <trkpt lat="44.85614" lon="5.19766">
        <ele>926.99</ele>
        <time>2021-08-26T09:41:09Z</time>
      </trkpt>
      <trkpt lat="44.85621" lon="5.19758">
        <ele>925.63</ele>
        <time>2021-08-26T09:41:18Z</time>
      </trkpt>
      <trkpt lat="44.85624" lon="5.19753">
        <ele>924.85</ele>
        <time>2021-08-26T09:41:23Z</time>
      </trkpt>
      <trkpt lat="44.85627" lon="5.19748">
        <ele>924.31</ele>
        <time>2021-08-26T09:41:28Z</time>
      </trkpt>
      <trkpt lat="44.85635" lon="5.19735">
        <ele>921.85</ele>
        <time>2021-08-26T09:41:41Z</time>
      </trkpt>
      <trkpt lat="44.85637" lon="5.1973">
        <ele>921.2</ele>
        <time>2021-08-26T09:41:45Z</time>
      </trkpt>
      <trkpt lat="44.85644" lon="5.19719">
        <ele>920.14</ele>
        <time>2021-08-26T09:41:54Z</time>
      </trkpt>
      <trkpt lat="44.85647" lon="5.19715">
        <ele>920.23</ele>
        <time>2021-08-26T09:41:58Z</time>
      </trkpt>
      <trkpt lat="44.85656" lon="5.19702">
        <ele>918.46</ele>
        <time>2021-08-26T09:42:11Z</time>
      </trkpt>
      <trkpt lat="44.85665" lon="5.1969">
        <ele>915.96</ele>
        <time>2021-08-26T09:42:25Z</time>
      </trkpt>
      <trkpt lat="44.85673" lon="5.19682">
        <ele>914.5</ele>
        <time>2021-08-26T09:42:35Z</time>
      </trkpt>
      <trkpt lat="44.85681" lon="5.19672">
        <ele>912.44</ele>
        <time>2021-08-26T09:42:47Z</time>
      </trkpt>
      <trkpt lat="44.85686" lon="5.19667">
        <ele>911.24</ele>
        <time>2021-08-26T09:42:54Z</time>
      </trkpt>
      <trkpt lat="44.85694" lon="5.19655">
        <ele>909.68</ele>
        <time>2021-08-26T09:43:07Z</time>
      </trkpt>
      <trkpt lat="44.85703" lon="5.19646">
        <ele>907.2</ele>
        <time>2021-08-26T09:43:20Z</time>
      </trkpt>
      <trkpt lat="44.857" lon="5.19643">
        <ele>905.77</ele>
        <time>2021-08-26T09:43:28Z</time>
      </trkpt>
      <trkpt lat="44.85696" lon="5.19642">
        <ele>904.53</ele>
        <time>2021-08-26T09:43:42Z</time>
      </trkpt>
      <trkpt lat="44.8569" lon="5.19641">
        <ele>903.58</ele>
        <time>2021-08-26T09:44:09Z</time>
      </trkpt>
      <trkpt lat="44.85684" lon="5.19643">
        <ele>902.47</ele>
        <time>2021-08-26T09:44:21Z</time>
      </trkpt>
      <trkpt lat="44.85673" lon="5.19647">
        <ele>900.5</ele>
        <time>2021-08-26T09:44:34Z</time>
      </trkpt>
      <trkpt lat="44.85668" lon="5.1965">
        <ele>899.53</ele>
        <time>2021-08-26T09:44:45Z</time>
      </trkpt>
      <trkpt lat="44.85666" lon="5.19648">
        <ele>899.45</ele>
        <time>2021-08-26T09:45:17Z</time>
      </trkpt>
      <trkpt lat="44.85655" lon="5.19654">
        <ele>897.39</ele>
        <time>2021-08-26T09:45:34Z</time>
      </trkpt>
      <trkpt lat="44.85653" lon="5.19654">
        <ele>897.27</ele>
        <time>2021-08-26T09:45:49Z</time>
      </trkpt>
      <trkpt lat="44.85653" lon="5.19654">
        <ele>897.29</ele>
        <time>2021-08-26T09:45:53Z</time>
      </trkpt>
      <trkpt lat="44.85633" lon="5.19664">
        <ele>894.63</ele>
        <time>2021-08-26T09:46:13Z</time>
      </trkpt>
      <trkpt lat="44.85626" lon="5.19667">
        <ele>894.14</ele>
        <time>2021-08-26T09:46:20Z</time>
      </trkpt>
      <trkpt lat="44.85622" lon="5.19667">
        <ele>893.31</ele>
        <time>2021-08-26T09:46:24Z</time>
      </trkpt>
      <trkpt lat="44.85609" lon="5.19674">
        <ele>891.07</ele>
        <time>2021-08-26T09:46:39Z</time>
      </trkpt>
      <trkpt lat="44.85597" lon="5.19682">
        <ele>888.86</ele>
        <time>2021-08-26T09:46:53Z</time>
      </trkpt>
      <trkpt lat="44.85587" lon="5.19686">
        <ele>887.5</ele>
        <time>2021-08-26T09:47:04Z</time>
      </trkpt>
      <trkpt lat="44.85573" lon="5.19689">
        <ele>885.06</ele>
        <time>2021-08-26T09:47:20Z</time>
      </trkpt>
      <trkpt lat="44.85564" lon="5.19694">
        <ele>882.71</ele>
        <time>2021-08-26T09:47:31Z</time>
      </trkpt>
      <trkpt lat="44.85548" lon="5.19706">
        <ele>879.63</ele>
        <time>2021-08-26T09:47:51Z</time>
      </trkpt>
      <trkpt lat="44.85544" lon="5.19707">
        <ele>878.69</ele>
        <time>2021-08-26T09:47:56Z</time>
      </trkpt>
      <trkpt lat="44.85533" lon="5.19716">
        <ele>876.88</ele>
        <time>2021-08-26T09:48:10Z</time>
      </trkpt>
      <trkpt lat="44.8552" lon="5.19728">
        <ele>874.51</ele>
        <time>2021-08-26T09:48:28Z</time>
      </trkpt>
      <trkpt lat="44.85514" lon="5.19734">
        <ele>873.79</ele>
        <time>2021-08-26T09:48:35Z</time>
      </trkpt>
      <trkpt lat="44.855" lon="5.19748">
        <ele>871.55</ele>
        <time>2021-08-26T09:48:52Z</time>
      </trkpt>
      <trkpt lat="44.85486" lon="5.19759">
        <ele>869.8</ele>
        <time>2021-08-26T09:49:07Z</time>
      </trkpt>
      <trkpt lat="44.85473" lon="5.19769">
        <ele>868.34</ele>
        <time>2021-08-26T09:49:21Z</time>
      </trkpt>
      <trkpt lat="44.85461" lon="5.1978">
        <ele>866.29</ele>
        <time>2021-08-26T09:49:37Z</time>
      </trkpt>
      <trkpt lat="44.8546" lon="5.19781">
        <ele>866</ele>
        <time>2021-08-26T09:49:39Z</time>
      </trkpt>
      <trkpt lat="44.85443" lon="5.19793">
        <ele>863.95</ele>
        <time>2021-08-26T09:49:56Z</time>
      </trkpt>
      <trkpt lat="44.85427" lon="5.19805">
        <ele>861.98</ele>
        <time>2021-08-26T09:50:13Z</time>
      </trkpt>
      <trkpt lat="44.85415" lon="5.19813">
        <ele>860.2</ele>
        <time>2021-08-26T09:50:28Z</time>
      </trkpt>
      <trkpt lat="44.85407" lon="5.19815">
        <ele>858.54</ele>
        <time>2021-08-26T09:50:37Z</time>
      </trkpt>
      <trkpt lat="44.85402" lon="5.19819">
        <ele>857.69</ele>
        <time>2021-08-26T09:50:42Z</time>
      </trkpt>
      <trkpt lat="44.85399" lon="5.1982">
        <ele>857.25</ele>
        <time>2021-08-26T09:50:46Z</time>
      </trkpt>
      <trkpt lat="44.85391" lon="5.19825">
        <ele>856.27</ele>
        <time>2021-08-26T09:50:54Z</time>
      </trkpt>
      <trkpt lat="44.85387" lon="5.19826">
        <ele>855.54</ele>
        <time>2021-08-26T09:50:58Z</time>
      </trkpt>
      <trkpt lat="44.85377" lon="5.19831">
        <ele>853.65</ele>
        <time>2021-08-26T09:51:13Z</time>
      </trkpt>
      <trkpt lat="44.85383" lon="5.1983">
        <ele>852.24</ele>
        <time>2021-08-26T09:51:39Z</time>
      </trkpt>
      <trkpt lat="44.85387" lon="5.19828">
        <ele>851.58</ele>
        <time>2021-08-26T09:51:58Z</time>
      </trkpt>
      <trkpt lat="44.8539" lon="5.19829">
        <ele>851.71</ele>
        <time>2021-08-26T09:52:27Z</time>
      </trkpt>
      <trkpt lat="44.85396" lon="5.19817">
        <ele>850.03</ele>
        <time>2021-08-26T09:52:52Z</time>
      </trkpt>
      <trkpt lat="44.85401" lon="5.19809">
        <ele>849.01</ele>
        <time>2021-08-26T09:53:03Z</time>
      </trkpt>
      <trkpt lat="44.85402" lon="5.19806">
        <ele>848.84</ele>
        <time>2021-08-26T09:53:18Z</time>
      </trkpt>
      <trkpt lat="44.85408" lon="5.19791">
        <ele>847.05</ele>
        <time>2021-08-26T09:53:32Z</time>
      </trkpt>
      <trkpt lat="44.85417" lon="5.19775">
        <ele>844.23</ele>
        <time>2021-08-26T09:53:49Z</time>
      </trkpt>
      <trkpt lat="44.85425" lon="5.19759">
        <ele>842.12</ele>
        <time>2021-08-26T09:54:04Z</time>
      </trkpt>
      <trkpt lat="44.85432" lon="5.19741">
        <ele>839.48</ele>
        <time>2021-08-26T09:54:21Z</time>
      </trkpt>
      <trkpt lat="44.85433" lon="5.19736">
        <ele>838.76</ele>
        <time>2021-08-26T09:54:25Z</time>
      </trkpt>
      <trkpt lat="44.85435" lon="5.19724">
        <ele>837.38</ele>
        <time>2021-08-26T09:54:33Z</time>
      </trkpt>
      <trkpt lat="44.8544" lon="5.19706">
        <ele>834.87</ele>
        <time>2021-08-26T09:54:48Z</time>
      </trkpt>
      <trkpt lat="44.8544" lon="5.19702">
        <ele>834.53</ele>
        <time>2021-08-26T09:54:51Z</time>
      </trkpt>
      <trkpt lat="44.85443" lon="5.19684">
        <ele>832.59</ele>
        <time>2021-08-26T09:55:05Z</time>
      </trkpt>
      <trkpt lat="44.85449" lon="5.19668">
        <ele>830.93</ele>
        <time>2021-08-26T09:55:21Z</time>
      </trkpt>
      <trkpt lat="44.85453" lon="5.19658">
        <ele>830.34</ele>
        <time>2021-08-26T09:55:33Z</time>
      </trkpt>
      <trkpt lat="44.85456" lon="5.19651">
        <ele>828.49</ele>
        <time>2021-08-26T09:55:42Z</time>
      </trkpt>
      <trkpt lat="44.85463" lon="5.19634">
        <ele>826.03</ele>
        <time>2021-08-26T09:55:57Z</time>
      </trkpt>
      <trkpt lat="44.85469" lon="5.19621">
        <ele>823.5</ele>
        <time>2021-08-26T09:56:13Z</time>
      </trkpt>
      <trkpt lat="44.85473" lon="5.19613">
        <ele>823.56</ele>
        <time>2021-08-26T09:56:23Z</time>
      </trkpt>
      <trkpt lat="44.85479" lon="5.19605">
        <ele>821.64</ele>
        <time>2021-08-26T09:56:36Z</time>
      </trkpt>
      <trkpt lat="44.85486" lon="5.19594">
        <ele>819.34</ele>
        <time>2021-08-26T09:56:58Z</time>
      </trkpt>
      <trkpt lat="44.85493" lon="5.19584">
        <ele>817.78</ele>
        <time>2021-08-26T09:57:21Z</time>
      </trkpt>
      <trkpt lat="44.85496" lon="5.19575">
        <ele>816.53</ele>
        <time>2021-08-26T09:57:43Z</time>
      </trkpt>
      <trkpt lat="44.85499" lon="5.19571">
        <ele>816.12</ele>
        <time>2021-08-26T09:58:06Z</time>
      </trkpt>
      <trkpt lat="44.85501" lon="5.19554">
        <ele>814.49</ele>
        <time>2021-08-26T09:58:28Z</time>
      </trkpt>
      <trkpt lat="44.85507" lon="5.19545">
        <ele>813.32</ele>
        <time>2021-08-26T09:58:47Z</time>
      </trkpt>
      <trkpt lat="44.85514" lon="5.19533">
        <ele>811.18</ele>
        <time>2021-08-26T09:59:08Z</time>
      </trkpt>
      <trkpt lat="44.85521" lon="5.19524">
        <ele>810.31</ele>
        <time>2021-08-26T09:59:27Z</time>
      </trkpt>
      <trkpt lat="44.85532" lon="5.19508">
        <ele>807.76</ele>
        <time>2021-08-26T09:59:45Z</time>
      </trkpt>
      <trkpt lat="44.85541" lon="5.19495">
        <ele>804.67</ele>
        <time>2021-08-26T10:00:00Z</time>
      </trkpt>
      <trkpt lat="44.85542" lon="5.19494">
        <ele>805.15</ele>
        <time>2021-08-26T10:00:25Z</time>
      </trkpt>
      <trkpt lat="44.85546" lon="5.19486">
        <ele>803.63</ele>
        <time>2021-08-26T10:00:41Z</time>
      </trkpt>
      <trkpt lat="44.85549" lon="5.19467">
        <ele>801.21</ele>
        <time>2021-08-26T10:00:56Z</time>
      </trkpt>
      <trkpt lat="44.85559" lon="5.19445">
        <ele>798.25</ele>
        <time>2021-08-26T10:01:15Z</time>
      </trkpt>
      <trkpt lat="44.85557" lon="5.19438">
        <ele>796.74</ele>
        <time>2021-08-26T10:01:30Z</time>
      </trkpt>
      <trkpt lat="44.85561" lon="5.19426">
        <ele>795.72</ele>
        <time>2021-08-26T10:01:47Z</time>
      </trkpt>
      <trkpt lat="44.85572" lon="5.19411">
        <ele>794.19</ele>
        <time>2021-08-26T10:02:07Z</time>
      </trkpt>
      <trkpt lat="44.85583" lon="5.19406">
        <ele>794.98</ele>
        <time>2021-08-26T10:02:25Z</time>
      </trkpt>
      <trkpt lat="44.85583" lon="5.19401">
        <ele>794.36</ele>
        <time>2021-08-26T10:02:48Z</time>
      </trkpt>
      <trkpt lat="44.8559" lon="5.19393">
        <ele>793.04</ele>
        <time>2021-08-26T10:03:06Z</time>
      </trkpt>
      <trkpt lat="44.85599" lon="5.19385">
        <ele>792.73</ele>
        <time>2021-08-26T10:03:24Z</time>
      </trkpt>
      <trkpt lat="44.85612" lon="5.19377">
        <ele>791.59</ele>
        <time>2021-08-26T10:03:41Z</time>
      </trkpt>
      <trkpt lat="44.85626" lon="5.19364">
        <ele>789.71</ele>
        <time>2021-08-26T10:04:02Z</time>
      </trkpt>
      <trkpt lat="44.85639" lon="5.19351">
        <ele>787.15</ele>
        <time>2021-08-26T10:04:20Z</time>
      </trkpt>
      <trkpt lat="44.8565" lon="5.19345">
        <ele>785.84</ele>
        <time>2021-08-26T10:04:39Z</time>
      </trkpt>
      <trkpt lat="44.8566" lon="5.1934">
        <ele>783.88</ele>
        <time>2021-08-26T10:04:56Z</time>
      </trkpt>
      <trkpt lat="44.85662" lon="5.19335">
        <ele>783.62</ele>
        <time>2021-08-26T10:05:14Z</time>
      </trkpt>
      <trkpt lat="44.85677" lon="5.1932">
        <ele>783.33</ele>
        <time>2021-08-26T10:05:33Z</time>
      </trkpt>
      <trkpt lat="44.85693" lon="5.19308">
        <ele>781.57</ele>
        <time>2021-08-26T10:05:53Z</time>
      </trkpt>
      <trkpt lat="44.85706" lon="5.19294">
        <ele>781.25</ele>
        <time>2021-08-26T10:06:10Z</time>
      </trkpt>
      <trkpt lat="44.85717" lon="5.19278">
        <ele>779.68</ele>
        <time>2021-08-26T10:06:30Z</time>
      </trkpt>
      <trkpt lat="44.85716" lon="5.19275">
        <ele>780.06</ele>
        <time>2021-08-26T10:06:54Z</time>
      </trkpt>
      <trkpt lat="44.85722" lon="5.19265">
        <ele>778.58</ele>
        <time>2021-08-26T10:07:11Z</time>
      </trkpt>
      <trkpt lat="44.85723" lon="5.19262">
        <ele>778.45</ele>
        <time>2021-08-26T10:07:13Z</time>
      </trkpt>
      <trkpt lat="44.85731" lon="5.19247">
        <ele>777.71</ele>
        <time>2021-08-26T10:07:26Z</time>
      </trkpt>
      <trkpt lat="44.8574" lon="5.19238">
        <ele>777.2</ele>
        <time>2021-08-26T10:07:35Z</time>
      </trkpt>
      <trkpt lat="44.85746" lon="5.19224">
        <ele>776.09</ele>
        <time>2021-08-26T10:07:52Z</time>
      </trkpt>
      <trkpt lat="44.85742" lon="5.19212">
        <ele>773.82</ele>
        <time>2021-08-26T10:08:07Z</time>
      </trkpt>
      <trkpt lat="44.85732" lon="5.19218">
        <ele>772.42</ele>
        <time>2021-08-26T10:08:23Z</time>
      </trkpt>
      <trkpt lat="44.85728" lon="5.19221">
        <ele>772</ele>
        <time>2021-08-26T10:08:28Z</time>
      </trkpt>
      <trkpt lat="44.85726" lon="5.19223">
        <ele>771.74</ele>
        <time>2021-08-26T10:08:31Z</time>
      </trkpt>
      <trkpt lat="44.85714" lon="5.19232">
        <ele>769.94</ele>
        <time>2021-08-26T10:08:45Z</time>
      </trkpt>
      <trkpt lat="44.85707" lon="5.19242">
        <ele>768.85</ele>
        <time>2021-08-26T10:08:54Z</time>
      </trkpt>
      <trkpt lat="44.85698" lon="5.19254">
        <ele>767.93</ele>
        <time>2021-08-26T10:09:06Z</time>
      </trkpt>
      <trkpt lat="44.85695" lon="5.19256">
        <ele>767.66</ele>
        <time>2021-08-26T10:09:09Z</time>
      </trkpt>
      <trkpt lat="44.85678" lon="5.19267">
        <ele>766.71</ele>
        <time>2021-08-26T10:09:24Z</time>
      </trkpt>
      <trkpt lat="44.85668" lon="5.19272">
        <ele>766.29</ele>
        <time>2021-08-26T10:09:35Z</time>
      </trkpt>
      <trkpt lat="44.85662" lon="5.19274">
        <ele>765.6</ele>
        <time>2021-08-26T10:09:42Z</time>
      </trkpt>
      <trkpt lat="44.85654" lon="5.19278">
        <ele>764.54</ele>
        <time>2021-08-26T10:09:50Z</time>
      </trkpt>
      <trkpt lat="44.85639" lon="5.19276">
        <ele>763.59</ele>
        <time>2021-08-26T10:10:06Z</time>
      </trkpt>
      <trkpt lat="44.85634" lon="5.19276">
        <ele>763.16</ele>
        <time>2021-08-26T10:10:11Z</time>
      </trkpt>
      <trkpt lat="44.85631" lon="5.19275">
        <ele>762.91</ele>
        <time>2021-08-26T10:10:13Z</time>
      </trkpt>
      <trkpt lat="44.85616" lon="5.19274">
        <ele>760.78</ele>
        <time>2021-08-26T10:10:29Z</time>
      </trkpt>
      <trkpt lat="44.85607" lon="5.19272">
        <ele>757.68</ele>
        <time>2021-08-26T10:10:41Z</time>
      </trkpt>
      <trkpt lat="44.85593" lon="5.19266">
        <ele>755.09</ele>
        <time>2021-08-26T10:10:58Z</time>
      </trkpt>
      <trkpt lat="44.85576" lon="5.19259">
        <ele>754.41</ele>
        <time>2021-08-26T10:11:13Z</time>
      </trkpt>
      <trkpt lat="44.85571" lon="5.19257">
        <ele>754.14</ele>
        <time>2021-08-26T10:11:20Z</time>
      </trkpt>
      <trkpt lat="44.85566" lon="5.19254">
        <ele>753.54</ele>
        <time>2021-08-26T10:11:24Z</time>
      </trkpt>
      <trkpt lat="44.85564" lon="5.19252">
        <ele>753.46</ele>
        <time>2021-08-26T10:11:27Z</time>
      </trkpt>
      <trkpt lat="44.85542" lon="5.19245">
        <ele>750.93</ele>
        <time>2021-08-26T10:11:45Z</time>
      </trkpt>
      <trkpt lat="44.85528" lon="5.19239">
        <ele>749.06</ele>
        <time>2021-08-26T10:11:59Z</time>
      </trkpt>
      <trkpt lat="44.85513" lon="5.1923">
        <ele>747.45</ele>
        <time>2021-08-26T10:12:13Z</time>
      </trkpt>
      <trkpt lat="44.855" lon="5.19219">
        <ele>745.65</ele>
        <time>2021-08-26T10:12:25Z</time>
      </trkpt>
      <trkpt lat="44.8549" lon="5.19214">
        <ele>744.57</ele>
        <time>2021-08-26T10:12:35Z</time>
      </trkpt>
      <trkpt lat="44.85473" lon="5.19212">
        <ele>743.43</ele>
        <time>2021-08-26T10:12:50Z</time>
      </trkpt>
      <trkpt lat="44.85457" lon="5.19208">
        <ele>741.11</ele>
        <time>2021-08-26T10:13:05Z</time>
      </trkpt>
      <trkpt lat="44.85438" lon="5.19206">
        <ele>739.56</ele>
        <time>2021-08-26T10:13:21Z</time>
      </trkpt>
      <trkpt lat="44.85423" lon="5.1921">
        <ele>737.75</ele>
        <time>2021-08-26T10:13:36Z</time>
      </trkpt>
      <trkpt lat="44.85405" lon="5.19216">
        <ele>735.34</ele>
        <time>2021-08-26T10:13:54Z</time>
      </trkpt>
      <trkpt lat="44.85389" lon="5.19217">
        <ele>733.68</ele>
        <time>2021-08-26T10:14:09Z</time>
      </trkpt>
      <trkpt lat="44.85385" lon="5.19218">
        <ele>733.1</ele>
        <time>2021-08-26T10:14:14Z</time>
      </trkpt>
      <trkpt lat="44.85372" lon="5.19228">
        <ele>731.92</ele>
        <time>2021-08-26T10:14:27Z</time>
      </trkpt>
      <trkpt lat="44.8537" lon="5.19229">
        <ele>731.71</ele>
        <time>2021-08-26T10:14:34Z</time>
      </trkpt>
      <trkpt lat="44.85367" lon="5.19231">
        <ele>731.41</ele>
        <time>2021-08-26T10:14:37Z</time>
      </trkpt>
      <trkpt lat="44.85351" lon="5.19242">
        <ele>729.13</ele>
        <time>2021-08-26T10:14:54Z</time>
      </trkpt>
      <trkpt lat="44.85344" lon="5.19249">
        <ele>728.34</ele>
        <time>2021-08-26T10:15:10Z</time>
      </trkpt>
      <trkpt lat="44.8534" lon="5.19256">
        <ele>727.61</ele>
        <time>2021-08-26T10:15:18Z</time>
      </trkpt>
      <trkpt lat="44.85338" lon="5.19257">
        <ele>727.51</ele>
        <time>2021-08-26T10:15:20Z</time>
      </trkpt>
      <trkpt lat="44.85322" lon="5.19271">
        <ele>725.93</ele>
        <time>2021-08-26T10:15:38Z</time>
      </trkpt>
      <trkpt lat="44.85307" lon="5.19278">
        <ele>723.1</ele>
        <time>2021-08-26T10:15:55Z</time>
      </trkpt>
      <trkpt lat="44.85294" lon="5.19286">
        <ele>721.17</ele>
        <time>2021-08-26T10:16:09Z</time>
      </trkpt>
      <trkpt lat="44.85286" lon="5.19287">
        <ele>719.85</ele>
        <time>2021-08-26T10:16:23Z</time>
      </trkpt>
      <trkpt lat="44.85282" lon="5.19294">
        <ele>719.06</ele>
        <time>2021-08-26T10:16:41Z</time>
      </trkpt>
      <trkpt lat="44.85284" lon="5.19301">
        <ele>719.48</ele>
        <time>2021-08-26T10:16:57Z</time>
      </trkpt>
      <trkpt lat="44.85282" lon="5.19301">
        <ele>718.92</ele>
        <time>2021-08-26T10:17:13Z</time>
      </trkpt>
      <trkpt lat="44.85281" lon="5.193">
        <ele>719.15</ele>
        <time>2021-08-26T10:17:42Z</time>
      </trkpt>
      <trkpt lat="44.85279" lon="5.19299">
        <ele>718.33</ele>
        <time>2021-08-26T10:18:12Z</time>
      </trkpt>
      <trkpt lat="44.8528" lon="5.19292">
        <ele>718.64</ele>
        <time>2021-08-26T10:18:47Z</time>
      </trkpt>
      <trkpt lat="44.85278" lon="5.19291">
        <ele>718.91</ele>
        <time>2021-08-26T10:19:24Z</time>
      </trkpt>
      <trkpt lat="44.85292" lon="5.19289">
        <ele>718.26</ele>
        <time>2021-08-26T10:20:14Z</time>
      </trkpt>
      <trkpt lat="44.85282" lon="5.19297">
        <ele>718.37</ele>
        <time>2021-08-26T10:21:40Z</time>
      </trkpt>
      <trkpt lat="44.85279" lon="5.19295">
        <ele>717.94</ele>
        <time>2021-08-26T10:22:11Z</time>
      </trkpt>
      <trkpt lat="44.85276" lon="5.19294">
        <ele>718.5</ele>
        <time>2021-08-26T10:22:38Z</time>
      </trkpt>
      <trkpt lat="44.85278" lon="5.19297">
        <ele>718.37</ele>
        <time>2021-08-26T10:23:02Z</time>
      </trkpt>
      <trkpt lat="44.85277" lon="5.19304">
        <ele>718.43</ele>
        <time>2021-08-26T10:23:24Z</time>
      </trkpt>
      <trkpt lat="44.85281" lon="5.19297">
        <ele>718.28</ele>
        <time>2021-08-26T10:23:49Z</time>
      </trkpt>
      <trkpt lat="44.85275" lon="5.19302">
        <ele>718.65</ele>
        <time>2021-08-26T10:24:43Z</time>
      </trkpt>
      <trkpt lat="44.85283" lon="5.19292">
        <ele>718.5</ele>
        <time>2021-08-26T10:27:38Z</time>
      </trkpt>
      <trkpt lat="44.85285" lon="5.19302">
        <ele>717.76</ele>
        <time>2021-08-26T10:30:31Z</time>
      </trkpt>
      <trkpt lat="44.85281" lon="5.19296">
        <ele>717.96</ele>
        <time>2021-08-26T10:33:31Z</time>
      </trkpt>
      <trkpt lat="44.8528" lon="5.19291">
        <ele>717.84</ele>
        <time>2021-08-26T10:34:16Z</time>
      </trkpt>
      <trkpt lat="44.85284" lon="5.19294">
        <ele>718.01</ele>
        <time>2021-08-26T10:34:46Z</time>
      </trkpt>
      <trkpt lat="44.85283" lon="5.19293">
        <ele>718.09</ele>
        <time>2021-08-26T10:35:14Z</time>
      </trkpt>
      <trkpt lat="44.85285" lon="5.19294">
        <ele>717.91</ele>
        <time>2021-08-26T10:35:41Z</time>
      </trkpt>
      <trkpt lat="44.85285" lon="5.19295">
        <ele>718.08</ele>
        <time>2021-08-26T10:36:09Z</time>
      </trkpt>
      <trkpt lat="44.85289" lon="5.19297">
        <ele>718.24</ele>
        <time>2021-08-26T10:36:40Z</time>
      </trkpt>
      <trkpt lat="44.8529" lon="5.19296">
        <ele>718.31</ele>
        <time>2021-08-26T10:37:00Z</time>
      </trkpt>
      <trkpt lat="44.85284" lon="5.19296">
        <ele>718.1</ele>
        <time>2021-08-26T10:37:22Z</time>
      </trkpt>
      <trkpt lat="44.85281" lon="5.19297">
        <ele>718.09</ele>
        <time>2021-08-26T10:37:38Z</time>
      </trkpt>
      <trkpt lat="44.8528" lon="5.19293">
        <ele>718.1</ele>
        <time>2021-08-26T10:38:12Z</time>
      </trkpt>
      <trkpt lat="44.85279" lon="5.19295">
        <ele>717.69</ele>
        <time>2021-08-26T10:38:43Z</time>
      </trkpt>
      <trkpt lat="44.85277" lon="5.19298">
        <ele>717.95</ele>
        <time>2021-08-26T10:39:15Z</time>
      </trkpt>
      <trkpt lat="44.8528" lon="5.193">
        <ele>718.36</ele>
        <time>2021-08-26T10:39:38Z</time>
      </trkpt>
      <trkpt lat="44.85277" lon="5.19297">
        <ele>718.39</ele>
        <time>2021-08-26T10:40:08Z</time>
      </trkpt>
      <trkpt lat="44.85275" lon="5.19295">
        <ele>718.22</ele>
        <time>2021-08-26T10:40:40Z</time>
      </trkpt>
      <trkpt lat="44.85277" lon="5.19297">
        <ele>717.99</ele>
        <time>2021-08-26T10:41:13Z</time>
      </trkpt>
      <trkpt lat="44.85276" lon="5.19297">
        <ele>718.39</ele>
        <time>2021-08-26T10:41:46Z</time>
      </trkpt>
      <trkpt lat="44.85278" lon="5.19302">
        <ele>718.01</ele>
        <time>2021-08-26T10:42:21Z</time>
      </trkpt>
      <trkpt lat="44.8528" lon="5.19299">
        <ele>717.98</ele>
        <time>2021-08-26T10:42:52Z</time>
      </trkpt>
      <trkpt lat="44.85281" lon="5.19296">
        <ele>718.18</ele>
        <time>2021-08-26T10:43:23Z</time>
      </trkpt>
      <trkpt lat="44.85281" lon="5.19297">
        <ele>717.91</ele>
        <time>2021-08-26T10:43:56Z</time>
      </trkpt>
      <trkpt lat="44.85278" lon="5.19292">
        <ele>717.91</ele>
        <time>2021-08-26T10:44:23Z</time>
      </trkpt>
      <trkpt lat="44.85281" lon="5.19299">
        <ele>717.93</ele>
        <time>2021-08-26T10:44:57Z</time>
      </trkpt>
      <trkpt lat="44.85283" lon="5.19299">
        <ele>718.02</ele>
        <time>2021-08-26T10:45:27Z</time>
      </trkpt>
      <trkpt lat="44.85284" lon="5.19301">
        <ele>717.68</ele>
        <time>2021-08-26T10:46:00Z</time>
      </trkpt>
      <trkpt lat="44.85283" lon="5.19298">
        <ele>718.2</ele>
        <time>2021-08-26T10:46:31Z</time>
      </trkpt>
      <trkpt lat="44.85283" lon="5.19298">
        <ele>717.73</ele>
        <time>2021-08-26T10:47:03Z</time>
      </trkpt>
      <trkpt lat="44.8528" lon="5.19301">
        <ele>717.3</ele>
        <time>2021-08-26T10:47:36Z</time>
      </trkpt>
      <trkpt lat="44.85286" lon="5.19305">
        <ele>717.39</ele>
        <time>2021-08-26T10:48:10Z</time>
      </trkpt>
      <trkpt lat="44.85285" lon="5.19301">
        <ele>717.49</ele>
        <time>2021-08-26T10:48:37Z</time>
      </trkpt>
      <trkpt lat="44.85286" lon="5.19302">
        <ele>717.31</ele>
        <time>2021-08-26T10:49:10Z</time>
      </trkpt>
      <trkpt lat="44.85286" lon="5.193">
        <ele>716.6</ele>
        <time>2021-08-26T10:49:44Z</time>
      </trkpt>
      <trkpt lat="44.85284" lon="5.19293">
        <ele>716.9</ele>
        <time>2021-08-26T10:50:34Z</time>
      </trkpt>
      <trkpt lat="44.85287" lon="5.19298">
        <ele>716.34</ele>
        <time>2021-08-26T10:51:04Z</time>
      </trkpt>
      <trkpt lat="44.85294" lon="5.19303">
        <ele>716.42</ele>
        <time>2021-08-26T10:51:47Z</time>
      </trkpt>
      <trkpt lat="44.85287" lon="5.19302">
        <ele>715.85</ele>
        <time>2021-08-26T10:52:26Z</time>
      </trkpt>
      <trkpt lat="44.85282" lon="5.19301">
        <ele>716.15</ele>
        <time>2021-08-26T10:52:57Z</time>
      </trkpt>
      <trkpt lat="44.8528" lon="5.19301">
        <ele>715.96</ele>
        <time>2021-08-26T10:53:30Z</time>
      </trkpt>
      <trkpt lat="44.85288" lon="5.19302">
        <ele>715.95</ele>
        <time>2021-08-26T10:53:59Z</time>
      </trkpt>
      <trkpt lat="44.85286" lon="5.19301">
        <ele>715.58</ele>
        <time>2021-08-26T10:54:40Z</time>
      </trkpt>
      <trkpt lat="44.85284" lon="5.19301">
        <ele>715.95</ele>
        <time>2021-08-26T10:54:52Z</time>
      </trkpt>
      <trkpt lat="44.85282" lon="5.19296">
        <ele>715.59</ele>
        <time>2021-08-26T10:55:48Z</time>
      </trkpt>
      <trkpt lat="44.85282" lon="5.19298">
        <ele>715.42</ele>
        <time>2021-08-26T10:56:49Z</time>
      </trkpt>
      <trkpt lat="44.85282" lon="5.19301">
        <ele>715.32</ele>
        <time>2021-08-26T10:57:18Z</time>
      </trkpt>
      <trkpt lat="44.85283" lon="5.19296">
        <ele>715.52</ele>
        <time>2021-08-26T10:57:50Z</time>
      </trkpt>
      <trkpt lat="44.85287" lon="5.19307">
        <ele>714.86</ele>
        <time>2021-08-26T10:59:14Z</time>
      </trkpt>
      <trkpt lat="44.85281" lon="5.19301">
        <ele>715.57</ele>
        <time>2021-08-26T10:59:51Z</time>
      </trkpt>
      <trkpt lat="44.85288" lon="5.19295">
        <ele>714.98</ele>
        <time>2021-08-26T11:00:23Z</time>
      </trkpt>
      <trkpt lat="44.85288" lon="5.19295">
        <ele>715.32</ele>
        <time>2021-08-26T11:00:52Z</time>
      </trkpt>
      <trkpt lat="44.85289" lon="5.19288">
        <ele>715.45</ele>
        <time>2021-08-26T11:01:39Z</time>
      </trkpt>
      <trkpt lat="44.85288" lon="5.19287">
        <ele>715.31</ele>
        <time>2021-08-26T11:02:09Z</time>
      </trkpt>
      <trkpt lat="44.85283" lon="5.19302">
        <ele>715.79</ele>
        <time>2021-08-26T11:02:38Z</time>
      </trkpt>
      <trkpt lat="44.85285" lon="5.19293">
        <ele>715.67</ele>
        <time>2021-08-26T11:03:10Z</time>
      </trkpt>
      <trkpt lat="44.85285" lon="5.19298">
        <ele>715.69</ele>
        <time>2021-08-26T11:03:44Z</time>
      </trkpt>
      <trkpt lat="44.85284" lon="5.19299">
        <ele>715.62</ele>
        <time>2021-08-26T11:04:18Z</time>
      </trkpt>
      <trkpt lat="44.85284" lon="5.19294">
        <ele>715.53</ele>
        <time>2021-08-26T11:04:50Z</time>
      </trkpt>
      <trkpt lat="44.85278" lon="5.19296">
        <ele>715.75</ele>
        <time>2021-08-26T11:05:21Z</time>
      </trkpt>
      <trkpt lat="44.85276" lon="5.19296">
        <ele>716.12</ele>
        <time>2021-08-26T11:05:53Z</time>
      </trkpt>
      <trkpt lat="44.85279" lon="5.1929">
        <ele>716.43</ele>
        <time>2021-08-26T11:06:22Z</time>
      </trkpt>
      <trkpt lat="44.85279" lon="5.19291">
        <ele>716.45</ele>
        <time>2021-08-26T11:06:54Z</time>
      </trkpt>
      <trkpt lat="44.8528" lon="5.19294">
        <ele>715.8</ele>
        <time>2021-08-26T11:07:23Z</time>
      </trkpt>
      <trkpt lat="44.85279" lon="5.19294">
        <ele>716.26</ele>
        <time>2021-08-26T11:07:52Z</time>
      </trkpt>
      <trkpt lat="44.85278" lon="5.19284">
        <ele>716.27</ele>
        <time>2021-08-26T11:08:22Z</time>
      </trkpt>
      <trkpt lat="44.85278" lon="5.19286">
        <ele>716.01</ele>
        <time>2021-08-26T11:08:50Z</time>
      </trkpt>
      <trkpt lat="44.8528" lon="5.19292">
        <ele>716.9</ele>
        <time>2021-08-26T11:09:24Z</time>
      </trkpt>
      <trkpt lat="44.85279" lon="5.19296">
        <ele>716.33</ele>
        <time>2021-08-26T11:09:54Z</time>
      </trkpt>
      <trkpt lat="44.85284" lon="5.19292">
        <ele>716.31</ele>
        <time>2021-08-26T11:10:22Z</time>
      </trkpt>
      <trkpt lat="44.85283" lon="5.1929">
        <ele>716.57</ele>
        <time>2021-08-26T11:10:52Z</time>
      </trkpt>
      <trkpt lat="44.85284" lon="5.19291">
        <ele>716.32</ele>
        <time>2021-08-26T11:11:19Z</time>
      </trkpt>
      <trkpt lat="44.8528" lon="5.19302">
        <ele>716.22</ele>
        <time>2021-08-26T11:11:50Z</time>
      </trkpt>
      <trkpt lat="44.85278" lon="5.19291">
        <ele>716.48</ele>
        <time>2021-08-26T11:12:31Z</time>
      </trkpt>
      <trkpt lat="44.85279" lon="5.19295">
        <ele>716.62</ele>
        <time>2021-08-26T11:13:26Z</time>
      </trkpt>
      <trkpt lat="44.85278" lon="5.19299">
        <ele>716.54</ele>
        <time>2021-08-26T11:13:52Z</time>
      </trkpt>
      <trkpt lat="44.85281" lon="5.19298">
        <ele>716.5</ele>
        <time>2021-08-26T11:14:26Z</time>
      </trkpt>
      <trkpt lat="44.85277" lon="5.19293">
        <ele>716.46</ele>
        <time>2021-08-26T11:14:59Z</time>
      </trkpt>
      <trkpt lat="44.85275" lon="5.19298">
        <ele>716.64</ele>
        <time>2021-08-26T11:15:28Z</time>
      </trkpt>
      <trkpt lat="44.8528" lon="5.19298">
        <ele>716.81</ele>
        <time>2021-08-26T11:16:01Z</time>
      </trkpt>
      <trkpt lat="44.8528" lon="5.19301">
        <ele>716.63</ele>
        <time>2021-08-26T11:16:27Z</time>
      </trkpt>
      <trkpt lat="44.85275" lon="5.19302">
        <ele>716.24</ele>
        <time>2021-08-26T11:16:57Z</time>
      </trkpt>
      <trkpt lat="44.8528" lon="5.19298">
        <ele>716.35</ele>
        <time>2021-08-26T11:17:49Z</time>
      </trkpt>
      <trkpt lat="44.85281" lon="5.19303">
        <ele>716.2</ele>
        <time>2021-08-26T11:18:27Z</time>
      </trkpt>
      <trkpt lat="44.85276" lon="5.19304">
        <ele>715.82</ele>
        <time>2021-08-26T11:19:46Z</time>
      </trkpt>
      <trkpt lat="44.85276" lon="5.19299">
        <ele>715.81</ele>
        <time>2021-08-26T11:20:17Z</time>
      </trkpt>
      <trkpt lat="44.85274" lon="5.19303">
        <ele>716.05</ele>
        <time>2021-08-26T11:20:51Z</time>
      </trkpt>
      <trkpt lat="44.85279" lon="5.19303">
        <ele>715.8</ele>
        <time>2021-08-26T11:21:22Z</time>
      </trkpt>
      <trkpt lat="44.85276" lon="5.19301">
        <ele>715.48</ele>
        <time>2021-08-26T11:21:52Z</time>
      </trkpt>
      <trkpt lat="44.85279" lon="5.19299">
        <ele>715.87</ele>
        <time>2021-08-26T11:22:25Z</time>
      </trkpt>
      <trkpt lat="44.85279" lon="5.19296">
        <ele>715.56</ele>
        <time>2021-08-26T11:22:58Z</time>
      </trkpt>
      <trkpt lat="44.85276" lon="5.19295">
        <ele>716.01</ele>
        <time>2021-08-26T11:23:24Z</time>
      </trkpt>
      <trkpt lat="44.85282" lon="5.19299">
        <ele>716.98</ele>
        <time>2021-08-26T11:23:47Z</time>
      </trkpt>
      <trkpt lat="44.8528" lon="5.19292">
        <ele>715.8</ele>
        <time>2021-08-26T11:24:03Z</time>
      </trkpt>
      <trkpt lat="44.85282" lon="5.19288">
        <ele>715.72</ele>
        <time>2021-08-26T11:24:26Z</time>
      </trkpt>
      <trkpt lat="44.85281" lon="5.19289">
        <ele>715.83</ele>
        <time>2021-08-26T11:24:48Z</time>
      </trkpt>
      <trkpt lat="44.85282" lon="5.19288">
        <ele>715.87</ele>
        <time>2021-08-26T11:25:11Z</time>
      </trkpt>
      <trkpt lat="44.85284" lon="5.19288">
        <ele>715.72</ele>
        <time>2021-08-26T11:25:31Z</time>
      </trkpt>
      <trkpt lat="44.8529" lon="5.1928">
        <ele>714.75</ele>
        <time>2021-08-26T11:25:46Z</time>
      </trkpt>
      <trkpt lat="44.85292" lon="5.19279">
        <ele>714.64</ele>
        <time>2021-08-26T11:25:49Z</time>
      </trkpt>
      <trkpt lat="44.85295" lon="5.19266">
        <ele>713.88</ele>
        <time>2021-08-26T11:26:03Z</time>
      </trkpt>
      <trkpt lat="44.85297" lon="5.1925">
        <ele>712</ele>
        <time>2021-08-26T11:26:19Z</time>
      </trkpt>
      <trkpt lat="44.85306" lon="5.19241">
        <ele>712.65</ele>
        <time>2021-08-26T11:26:33Z</time>
      </trkpt>
      <trkpt lat="44.85312" lon="5.19236">
        <ele>712.25</ele>
        <time>2021-08-26T11:26:39Z</time>
      </trkpt>
      <trkpt lat="44.85317" lon="5.19225">
        <ele>710.56</ele>
        <time>2021-08-26T11:26:54Z</time>
      </trkpt>
      <trkpt lat="44.85314" lon="5.19209">
        <ele>708.55</ele>
        <time>2021-08-26T11:27:10Z</time>
      </trkpt>
      <trkpt lat="44.85313" lon="5.19197">
        <ele>707.37</ele>
        <time>2021-08-26T11:27:18Z</time>
      </trkpt>
      <trkpt lat="44.85315" lon="5.19167">
        <ele>705.42</ele>
        <time>2021-08-26T11:27:37Z</time>
      </trkpt>
      <trkpt lat="44.85316" lon="5.19164">
        <ele>705.01</ele>
        <time>2021-08-26T11:27:43Z</time>
      </trkpt>
      <trkpt lat="44.85317" lon="5.19159">
        <ele>704.48</ele>
        <time>2021-08-26T11:27:46Z</time>
      </trkpt>
      <trkpt lat="44.85319" lon="5.19142">
        <ele>702.13</ele>
        <time>2021-08-26T11:28:00Z</time>
      </trkpt>
      <trkpt lat="44.8532" lon="5.19121">
        <ele>699.95</ele>
        <time>2021-08-26T11:28:18Z</time>
      </trkpt>
      <trkpt lat="44.85317" lon="5.1912">
        <ele>697.7</ele>
        <time>2021-08-26T11:28:32Z</time>
      </trkpt>
      <trkpt lat="44.85312" lon="5.19126">
        <ele>695.01</ele>
        <time>2021-08-26T11:28:47Z</time>
      </trkpt>
      <trkpt lat="44.85309" lon="5.19125">
        <ele>692.88</ele>
        <time>2021-08-26T11:29:01Z</time>
      </trkpt>
      <trkpt lat="44.85304" lon="5.19126">
        <ele>690.3</ele>
        <time>2021-08-26T11:29:18Z</time>
      </trkpt>
      <trkpt lat="44.85306" lon="5.19114">
        <ele>687.79</ele>
        <time>2021-08-26T11:29:36Z</time>
      </trkpt>
      <trkpt lat="44.85314" lon="5.19104">
        <ele>685.66</ele>
        <time>2021-08-26T11:29:53Z</time>
      </trkpt>
      <trkpt lat="44.8532" lon="5.19093">
        <ele>684.47</ele>
        <time>2021-08-26T11:30:10Z</time>
      </trkpt>
      <trkpt lat="44.85319" lon="5.19092">
        <ele>684.03</ele>
        <time>2021-08-26T11:30:11Z</time>
      </trkpt>
      <trkpt lat="44.85318" lon="5.19092">
        <ele>683.71</ele>
        <time>2021-08-26T11:30:13Z</time>
      </trkpt>
      <trkpt lat="44.8531" lon="5.19096">
        <ele>682.62</ele>
        <time>2021-08-26T11:30:22Z</time>
      </trkpt>
      <trkpt lat="44.85302" lon="5.19108">
        <ele>680.1</ele>
        <time>2021-08-26T11:30:40Z</time>
      </trkpt>
      <trkpt lat="44.85297" lon="5.19108">
        <ele>676.93</ele>
        <time>2021-08-26T11:30:55Z</time>
      </trkpt>
      <trkpt lat="44.85295" lon="5.19099">
        <ele>673.73</ele>
        <time>2021-08-26T11:31:09Z</time>
      </trkpt>
      <trkpt lat="44.85294" lon="5.19094">
        <ele>671.95</ele>
        <time>2021-08-26T11:31:28Z</time>
      </trkpt>
      <trkpt lat="44.85296" lon="5.19091">
        <ele>670.99</ele>
        <time>2021-08-26T11:31:55Z</time>
      </trkpt>
      <trkpt lat="44.85303" lon="5.19081">
        <ele>667.98</ele>
        <time>2021-08-26T11:32:16Z</time>
      </trkpt>
      <trkpt lat="44.85311" lon="5.19074">
        <ele>667.96</ele>
        <time>2021-08-26T11:32:37Z</time>
      </trkpt>
      <trkpt lat="44.85313" lon="5.19081">
        <ele>667.5</ele>
        <time>2021-08-26T11:33:04Z</time>
      </trkpt>
      <trkpt lat="44.85314" lon="5.19085">
        <ele>667.69</ele>
        <time>2021-08-26T11:33:20Z</time>
      </trkpt>
      <trkpt lat="44.85313" lon="5.19085">
        <ele>667.42</ele>
        <time>2021-08-26T11:33:41Z</time>
      </trkpt>
      <trkpt lat="44.85312" lon="5.19075">
        <ele>669.64</ele>
        <time>2021-08-26T11:34:23Z</time>
      </trkpt>
      <trkpt lat="44.85316" lon="5.19079">
        <ele>669.91</ele>
        <time>2021-08-26T11:34:25Z</time>
      </trkpt>
      <trkpt lat="44.85327" lon="5.19083">
        <ele>670.44</ele>
        <time>2021-08-26T11:34:39Z</time>
      </trkpt>
      <trkpt lat="44.85327" lon="5.19084">
        <ele>670.4</ele>
        <time>2021-08-26T11:34:40Z</time>
      </trkpt>
      <trkpt lat="44.85331" lon="5.19084">
        <ele>670.57</ele>
        <time>2021-08-26T11:34:45Z</time>
      </trkpt>
      <trkpt lat="44.85337" lon="5.19086">
        <ele>670.6</ele>
        <time>2021-08-26T11:34:51Z</time>
      </trkpt>
      <trkpt lat="44.85341" lon="5.19089">
        <ele>671.43</ele>
        <time>2021-08-26T11:34:58Z</time>
      </trkpt>
      <trkpt lat="44.85345" lon="5.19088">
        <ele>671.67</ele>
        <time>2021-08-26T11:35:01Z</time>
      </trkpt>
      <trkpt lat="44.85346" lon="5.19087">
        <ele>671.72</ele>
        <time>2021-08-26T11:35:03Z</time>
      </trkpt>
      <trkpt lat="44.85348" lon="5.19085">
        <ele>671.64</ele>
        <time>2021-08-26T11:35:17Z</time>
      </trkpt>
      <trkpt lat="44.85349" lon="5.19087">
        <ele>671.84</ele>
        <time>2021-08-26T11:35:20Z</time>
      </trkpt>
      <trkpt lat="44.85351" lon="5.19091">
        <ele>671.42</ele>
        <time>2021-08-26T11:35:31Z</time>
      </trkpt>
      <trkpt lat="44.85355" lon="5.19092">
        <ele>671.59</ele>
        <time>2021-08-26T11:35:45Z</time>
      </trkpt>
      <trkpt lat="44.85359" lon="5.19097">
        <ele>672.79</ele>
        <time>2021-08-26T11:35:54Z</time>
      </trkpt>
      <trkpt lat="44.85368" lon="5.19098">
        <ele>673.29</ele>
        <time>2021-08-26T11:36:09Z</time>
      </trkpt>
      <trkpt lat="44.85369" lon="5.19098">
        <ele>673.21</ele>
        <time>2021-08-26T11:36:11Z</time>
      </trkpt>
      <trkpt lat="44.8538" lon="5.19098">
        <ele>674.18</ele>
        <time>2021-08-26T11:36:35Z</time>
      </trkpt>
      <trkpt lat="44.85386" lon="5.19097">
        <ele>674.16</ele>
        <time>2021-08-26T11:36:48Z</time>
      </trkpt>
      <trkpt lat="44.85387" lon="5.19098">
        <ele>674.13</ele>
        <time>2021-08-26T11:36:52Z</time>
      </trkpt>
      <trkpt lat="44.85389" lon="5.19096">
        <ele>674.18</ele>
        <time>2021-08-26T11:36:56Z</time>
      </trkpt>
      <trkpt lat="44.85392" lon="5.19098">
        <ele>674.3</ele>
        <time>2021-08-26T11:37:03Z</time>
      </trkpt>
      <trkpt lat="44.85401" lon="5.19104">
        <ele>675.27</ele>
        <time>2021-08-26T11:37:22Z</time>
      </trkpt>
      <trkpt lat="44.85409" lon="5.19105">
        <ele>675.43</ele>
        <time>2021-08-26T11:37:38Z</time>
      </trkpt>
      <trkpt lat="44.85411" lon="5.19107">
        <ele>676.33</ele>
        <time>2021-08-26T11:37:50Z</time>
      </trkpt>
      <trkpt lat="44.85415" lon="5.19107">
        <ele>677.1</ele>
        <time>2021-08-26T11:37:57Z</time>
      </trkpt>
      <trkpt lat="44.85423" lon="5.19106">
        <ele>677.31</ele>
        <time>2021-08-26T11:38:13Z</time>
      </trkpt>
      <trkpt lat="44.85428" lon="5.19099">
        <ele>677.45</ele>
        <time>2021-08-26T11:38:28Z</time>
      </trkpt>
      <trkpt lat="44.85439" lon="5.191">
        <ele>677.41</ele>
        <time>2021-08-26T11:38:45Z</time>
      </trkpt>
      <trkpt lat="44.85444" lon="5.19098">
        <ele>678.46</ele>
        <time>2021-08-26T11:39:10Z</time>
      </trkpt>
      <trkpt lat="44.85448" lon="5.19093">
        <ele>678.84</ele>
        <time>2021-08-26T11:39:29Z</time>
      </trkpt>
      <trkpt lat="44.85456" lon="5.19099">
        <ele>678.71</ele>
        <time>2021-08-26T11:39:40Z</time>
      </trkpt>
      <trkpt lat="44.85463" lon="5.19097">
        <ele>679.32</ele>
        <time>2021-08-26T11:39:54Z</time>
      </trkpt>
      <trkpt lat="44.8547" lon="5.19092">
        <ele>679.19</ele>
        <time>2021-08-26T11:40:06Z</time>
      </trkpt>
      <trkpt lat="44.85472" lon="5.19088">
        <ele>679.92</ele>
        <time>2021-08-26T11:40:18Z</time>
      </trkpt>
      <trkpt lat="44.85478" lon="5.19091">
        <ele>680.29</ele>
        <time>2021-08-26T11:40:45Z</time>
      </trkpt>
      <trkpt lat="44.85479" lon="5.19091">
        <ele>680.26</ele>
        <time>2021-08-26T11:40:46Z</time>
      </trkpt>
      <trkpt lat="44.85485" lon="5.19101">
        <ele>681.05</ele>
        <time>2021-08-26T11:41:11Z</time>
      </trkpt>
      <trkpt lat="44.85493" lon="5.191">
        <ele>681.68</ele>
        <time>2021-08-26T11:41:31Z</time>
      </trkpt>
      <trkpt lat="44.85497" lon="5.191">
        <ele>682.21</ele>
        <time>2021-08-26T11:41:47Z</time>
      </trkpt>
      <trkpt lat="44.85499" lon="5.19098">
        <ele>681.84</ele>
        <time>2021-08-26T11:41:52Z</time>
      </trkpt>
      <trkpt lat="44.85503" lon="5.19098">
        <ele>682.21</ele>
        <time>2021-08-26T11:41:57Z</time>
      </trkpt>
      <trkpt lat="44.85508" lon="5.19102">
        <ele>682.45</ele>
        <time>2021-08-26T11:42:14Z</time>
      </trkpt>
      <trkpt lat="44.85513" lon="5.19107">
        <ele>683.03</ele>
        <time>2021-08-26T11:42:30Z</time>
      </trkpt>
      <trkpt lat="44.85514" lon="5.19103">
        <ele>682.79</ele>
        <time>2021-08-26T11:42:43Z</time>
      </trkpt>
      <trkpt lat="44.85523" lon="5.19095">
        <ele>683.04</ele>
        <time>2021-08-26T11:43:02Z</time>
      </trkpt>
      <trkpt lat="44.85524" lon="5.19097">
        <ele>682.88</ele>
        <time>2021-08-26T11:43:11Z</time>
      </trkpt>
      <trkpt lat="44.85535" lon="5.19116">
        <ele>682.69</ele>
        <time>2021-08-26T11:43:37Z</time>
      </trkpt>
      <trkpt lat="44.85539" lon="5.1912">
        <ele>683.14</ele>
        <time>2021-08-26T11:43:48Z</time>
      </trkpt>
      <trkpt lat="44.85542" lon="5.19122">
        <ele>683.3</ele>
        <time>2021-08-26T11:43:59Z</time>
      </trkpt>
      <trkpt lat="44.85546" lon="5.19125">
        <ele>683.12</ele>
        <time>2021-08-26T11:44:07Z</time>
      </trkpt>
      <trkpt lat="44.85552" lon="5.19135">
        <ele>682.8</ele>
        <time>2021-08-26T11:44:19Z</time>
      </trkpt>
      <trkpt lat="44.85555" lon="5.19138">
        <ele>682.95</ele>
        <time>2021-08-26T11:44:37Z</time>
      </trkpt>
      <trkpt lat="44.85556" lon="5.19133">
        <ele>682.7</ele>
        <time>2021-08-26T11:44:39Z</time>
      </trkpt>
      <trkpt lat="44.85557" lon="5.19132">
        <ele>682.78</ele>
        <time>2021-08-26T11:44:44Z</time>
      </trkpt>
      <trkpt lat="44.85557" lon="5.19136">
        <ele>683.37</ele>
        <time>2021-08-26T11:44:48Z</time>
      </trkpt>
      <trkpt lat="44.85559" lon="5.19145">
        <ele>684.15</ele>
        <time>2021-08-26T11:45:03Z</time>
      </trkpt>
      <trkpt lat="44.85565" lon="5.1915">
        <ele>684.72</ele>
        <time>2021-08-26T11:45:11Z</time>
      </trkpt>
      <trkpt lat="44.85569" lon="5.19151">
        <ele>685.01</ele>
        <time>2021-08-26T11:45:23Z</time>
      </trkpt>
      <trkpt lat="44.85571" lon="5.19153">
        <ele>685.04</ele>
        <time>2021-08-26T11:45:30Z</time>
      </trkpt>
      <trkpt lat="44.85574" lon="5.19152">
        <ele>685.66</ele>
        <time>2021-08-26T11:45:38Z</time>
      </trkpt>
      <trkpt lat="44.85574" lon="5.19153">
        <ele>685.64</ele>
        <time>2021-08-26T11:45:40Z</time>
      </trkpt>
      <trkpt lat="44.85577" lon="5.19154">
        <ele>685.65</ele>
        <time>2021-08-26T11:45:46Z</time>
      </trkpt>
      <trkpt lat="44.85578" lon="5.19157">
        <ele>685.76</ele>
        <time>2021-08-26T11:45:49Z</time>
      </trkpt>
      <trkpt lat="44.85585" lon="5.19151">
        <ele>687.52</ele>
        <time>2021-08-26T11:46:08Z</time>
      </trkpt>
      <trkpt lat="44.85582" lon="5.19154">
        <ele>688.09</ele>
        <time>2021-08-26T11:46:25Z</time>
      </trkpt>
      <trkpt lat="44.85579" lon="5.19149">
        <ele>687.61</ele>
        <time>2021-08-26T11:46:38Z</time>
      </trkpt>
      <trkpt lat="44.85581" lon="5.19156">
        <ele>688.27</ele>
        <time>2021-08-26T11:47:03Z</time>
      </trkpt>
      <trkpt lat="44.85582" lon="5.19154">
        <ele>688.81</ele>
        <time>2021-08-26T11:47:17Z</time>
      </trkpt>
      <trkpt lat="44.85569" lon="5.19162">
        <ele>690.61</ele>
        <time>2021-08-26T11:47:55Z</time>
      </trkpt>
      <trkpt lat="44.85571" lon="5.19164">
        <ele>691.5</ele>
        <time>2021-08-26T11:48:00Z</time>
      </trkpt>
      <trkpt lat="44.85573" lon="5.19163">
        <ele>691.28</ele>
        <time>2021-08-26T11:48:02Z</time>
      </trkpt>
      <trkpt lat="44.85583" lon="5.19164">
        <ele>691.83</ele>
        <time>2021-08-26T11:48:23Z</time>
      </trkpt>
      <trkpt lat="44.85583" lon="5.19162">
        <ele>692.67</ele>
        <time>2021-08-26T11:48:43Z</time>
      </trkpt>
      <trkpt lat="44.85582" lon="5.19162">
        <ele>692.86</ele>
        <time>2021-08-26T11:49:16Z</time>
      </trkpt>
      <trkpt lat="44.85586" lon="5.19162">
        <ele>693.04</ele>
        <time>2021-08-26T11:49:37Z</time>
      </trkpt>
      <trkpt lat="44.85598" lon="5.19161">
        <ele>694.24</ele>
        <time>2021-08-26T11:49:56Z</time>
      </trkpt>
      <trkpt lat="44.85602" lon="5.1916">
        <ele>694</ele>
        <time>2021-08-26T11:50:04Z</time>
      </trkpt>
      <trkpt lat="44.85614" lon="5.19164">
        <ele>695.21</ele>
        <time>2021-08-26T11:50:23Z</time>
      </trkpt>
      <trkpt lat="44.85617" lon="5.19164">
        <ele>695.1</ele>
        <time>2021-08-26T11:50:27Z</time>
      </trkpt>
      <trkpt lat="44.85622" lon="5.19165">
        <ele>694.93</ele>
        <time>2021-08-26T11:50:48Z</time>
      </trkpt>
      <trkpt lat="44.85623" lon="5.19158">
        <ele>695.38</ele>
        <time>2021-08-26T11:51:13Z</time>
      </trkpt>
      <trkpt lat="44.85632" lon="5.19155">
        <ele>695.89</ele>
        <time>2021-08-26T11:51:27Z</time>
      </trkpt>
      <trkpt lat="44.85637" lon="5.19153">
        <ele>695.79</ele>
        <time>2021-08-26T11:51:51Z</time>
      </trkpt>
      <trkpt lat="44.85637" lon="5.19154">
        <ele>696.18</ele>
        <time>2021-08-26T11:52:11Z</time>
      </trkpt>
      <trkpt lat="44.85638" lon="5.19155">
        <ele>696.19</ele>
        <time>2021-08-26T11:52:13Z</time>
      </trkpt>
      <trkpt lat="44.85644" lon="5.19145">
        <ele>696.66</ele>
        <time>2021-08-26T11:52:33Z</time>
      </trkpt>
      <trkpt lat="44.85642" lon="5.19139">
        <ele>697.12</ele>
        <time>2021-08-26T11:52:53Z</time>
      </trkpt>
      <trkpt lat="44.85654" lon="5.19125">
        <ele>697.72</ele>
        <time>2021-08-26T11:53:11Z</time>
      </trkpt>
      <trkpt lat="44.85661" lon="5.19103">
        <ele>698.68</ele>
        <time>2021-08-26T11:53:33Z</time>
      </trkpt>
      <trkpt lat="44.85667" lon="5.19079">
        <ele>698.95</ele>
        <time>2021-08-26T11:53:56Z</time>
      </trkpt>
      <trkpt lat="44.85667" lon="5.19075">
        <ele>698.84</ele>
        <time>2021-08-26T11:53:59Z</time>
      </trkpt>
      <trkpt lat="44.85669" lon="5.19064">
        <ele>698.91</ele>
        <time>2021-08-26T11:54:09Z</time>
      </trkpt>
      <trkpt lat="44.85672" lon="5.19055">
        <ele>699.27</ele>
        <time>2021-08-26T11:54:23Z</time>
      </trkpt>
      <trkpt lat="44.85672" lon="5.19045">
        <ele>699.48</ele>
        <time>2021-08-26T11:54:34Z</time>
      </trkpt>
      <trkpt lat="44.85672" lon="5.19043">
        <ele>699.9</ele>
        <time>2021-08-26T11:54:37Z</time>
      </trkpt>
      <trkpt lat="44.85674" lon="5.19041">
        <ele>700.02</ele>
        <time>2021-08-26T11:54:41Z</time>
      </trkpt>
      <trkpt lat="44.85676" lon="5.19038">
        <ele>700.29</ele>
        <time>2021-08-26T11:54:50Z</time>
      </trkpt>
      <trkpt lat="44.85677" lon="5.19031">
        <ele>700.58</ele>
        <time>2021-08-26T11:54:57Z</time>
      </trkpt>
      <trkpt lat="44.85681" lon="5.19028">
        <ele>700.83</ele>
        <time>2021-08-26T11:55:04Z</time>
      </trkpt>
      <trkpt lat="44.85688" lon="5.19026">
        <ele>701.49</ele>
        <time>2021-08-26T11:55:11Z</time>
      </trkpt>
      <trkpt lat="44.85689" lon="5.19021">
        <ele>701.87</ele>
        <time>2021-08-26T11:55:15Z</time>
      </trkpt>
      <trkpt lat="44.85689" lon="5.19019">
        <ele>702.23</ele>
        <time>2021-08-26T11:55:18Z</time>
      </trkpt>
      <trkpt lat="44.8569" lon="5.19017">
        <ele>701.96</ele>
        <time>2021-08-26T11:55:22Z</time>
      </trkpt>
      <trkpt lat="44.85694" lon="5.19012">
        <ele>701.79</ele>
        <time>2021-08-26T11:55:32Z</time>
      </trkpt>
      <trkpt lat="44.85698" lon="5.19013">
        <ele>702.03</ele>
        <time>2021-08-26T11:55:44Z</time>
      </trkpt>
      <trkpt lat="44.85699" lon="5.19007">
        <ele>702.46</ele>
        <time>2021-08-26T11:55:53Z</time>
      </trkpt>
      <trkpt lat="44.857" lon="5.19003">
        <ele>702.45</ele>
        <time>2021-08-26T11:56:01Z</time>
      </trkpt>
      <trkpt lat="44.85703" lon="5.18996">
        <ele>702.45</ele>
        <time>2021-08-26T11:56:04Z</time>
      </trkpt>
      <trkpt lat="44.85707" lon="5.18997">
        <ele>702.98</ele>
        <time>2021-08-26T11:56:24Z</time>
      </trkpt>
      <trkpt lat="44.85725" lon="5.19002">
        <ele>704.11</ele>
        <time>2021-08-26T11:56:43Z</time>
      </trkpt>
      <trkpt lat="44.85727" lon="5.18999">
        <ele>704.09</ele>
        <time>2021-08-26T11:56:47Z</time>
      </trkpt>
      <trkpt lat="44.85735" lon="5.19008">
        <ele>704.36</ele>
        <time>2021-08-26T11:56:56Z</time>
      </trkpt>
      <trkpt lat="44.85736" lon="5.1901">
        <ele>704.49</ele>
        <time>2021-08-26T11:56:58Z</time>
      </trkpt>
      <trkpt lat="44.8574" lon="5.19013">
        <ele>705.58</ele>
        <time>2021-08-26T11:57:09Z</time>
      </trkpt>
      <trkpt lat="44.85742" lon="5.19013">
        <ele>705.91</ele>
        <time>2021-08-26T11:57:11Z</time>
      </trkpt>
      <trkpt lat="44.85751" lon="5.19016">
        <ele>705.48</ele>
        <time>2021-08-26T11:57:27Z</time>
      </trkpt>
      <trkpt lat="44.85753" lon="5.1902">
        <ele>705.43</ele>
        <time>2021-08-26T11:57:40Z</time>
      </trkpt>
      <trkpt lat="44.85753" lon="5.19023">
        <ele>706.42</ele>
        <time>2021-08-26T11:57:57Z</time>
      </trkpt>
      <trkpt lat="44.85749" lon="5.19018">
        <ele>706.02</ele>
        <time>2021-08-26T11:58:12Z</time>
      </trkpt>
      <trkpt lat="44.8575" lon="5.19023">
        <ele>706.24</ele>
        <time>2021-08-26T11:58:27Z</time>
      </trkpt>
      <trkpt lat="44.85751" lon="5.19028">
        <ele>706.56</ele>
        <time>2021-08-26T11:58:39Z</time>
      </trkpt>
      <trkpt lat="44.85751" lon="5.19023">
        <ele>706.82</ele>
        <time>2021-08-26T11:58:55Z</time>
      </trkpt>
      <trkpt lat="44.85761" lon="5.19018">
        <ele>707.41</ele>
        <time>2021-08-26T11:59:09Z</time>
      </trkpt>
      <trkpt lat="44.85763" lon="5.19016">
        <ele>707.52</ele>
        <time>2021-08-26T11:59:14Z</time>
      </trkpt>
      <trkpt lat="44.85771" lon="5.19008">
        <ele>708.04</ele>
        <time>2021-08-26T11:59:29Z</time>
      </trkpt>
      <trkpt lat="44.85772" lon="5.19004">
        <ele>708.36</ele>
        <time>2021-08-26T11:59:41Z</time>
      </trkpt>
      <trkpt lat="44.85772" lon="5.19002">
        <ele>708.72</ele>
        <time>2021-08-26T11:59:43Z</time>
      </trkpt>
      <trkpt lat="44.8577" lon="5.18997">
        <ele>709.46</ele>
        <time>2021-08-26T11:59:53Z</time>
      </trkpt>
      <trkpt lat="44.85773" lon="5.18989">
        <ele>708.57</ele>
        <time>2021-08-26T12:00:09Z</time>
      </trkpt>
      <trkpt lat="44.85771" lon="5.18985">
        <ele>709.59</ele>
        <time>2021-08-26T12:00:16Z</time>
      </trkpt>
      <trkpt lat="44.85772" lon="5.18976">
        <ele>710.15</ele>
        <time>2021-08-26T12:00:29Z</time>
      </trkpt>
      <trkpt lat="44.85774" lon="5.1898">
        <ele>710.16</ele>
        <time>2021-08-26T12:00:41Z</time>
      </trkpt>
      <trkpt lat="44.85788" lon="5.18985">
        <ele>711.15</ele>
        <time>2021-08-26T12:00:53Z</time>
      </trkpt>
      <trkpt lat="44.85791" lon="5.18988">
        <ele>711.23</ele>
        <time>2021-08-26T12:00:58Z</time>
      </trkpt>
      <trkpt lat="44.85792" lon="5.1899">
        <ele>710.86</ele>
        <time>2021-08-26T12:01:00Z</time>
      </trkpt>
      <trkpt lat="44.85792" lon="5.1899">
        <ele>710.6</ele>
        <time>2021-08-26T12:01:02Z</time>
      </trkpt>
      <trkpt lat="44.85797" lon="5.18978">
        <ele>710.26</ele>
        <time>2021-08-26T12:01:15Z</time>
      </trkpt>
      <trkpt lat="44.858" lon="5.18976">
        <ele>710.3</ele>
        <time>2021-08-26T12:01:18Z</time>
      </trkpt>
      <trkpt lat="44.85807" lon="5.18968">
        <ele>711.25</ele>
        <time>2021-08-26T12:01:31Z</time>
      </trkpt>
      <trkpt lat="44.85809" lon="5.18957">
        <ele>711.48</ele>
        <time>2021-08-26T12:01:43Z</time>
      </trkpt>
      <trkpt lat="44.8581" lon="5.18954">
        <ele>710.66</ele>
        <time>2021-08-26T12:02:00Z</time>
      </trkpt>
      <trkpt lat="44.85815" lon="5.1894">
        <ele>711.24</ele>
        <time>2021-08-26T12:02:23Z</time>
      </trkpt>
      <trkpt lat="44.85826" lon="5.18927">
        <ele>712.39</ele>
        <time>2021-08-26T12:02:46Z</time>
      </trkpt>
      <trkpt lat="44.85842" lon="5.18917">
        <ele>712.82</ele>
        <time>2021-08-26T12:03:09Z</time>
      </trkpt>
      <trkpt lat="44.85854" lon="5.18908">
        <ele>712.64</ele>
        <time>2021-08-26T12:03:26Z</time>
      </trkpt>
      <trkpt lat="44.85858" lon="5.18906">
        <ele>713.71</ele>
        <time>2021-08-26T12:03:34Z</time>
      </trkpt>
      <trkpt lat="44.85869" lon="5.18905">
        <ele>713.36</ele>
        <time>2021-08-26T12:03:55Z</time>
      </trkpt>
      <trkpt lat="44.85869" lon="5.18905">
        <ele>713.46</ele>
        <time>2021-08-26T12:03:56Z</time>
      </trkpt>
      <trkpt lat="44.85881" lon="5.18904">
        <ele>713.68</ele>
        <time>2021-08-26T12:04:14Z</time>
      </trkpt>
      <trkpt lat="44.85887" lon="5.18899">
        <ele>714.58</ele>
        <time>2021-08-26T12:04:23Z</time>
      </trkpt>
      <trkpt lat="44.859" lon="5.18894">
        <ele>714.85</ele>
        <time>2021-08-26T12:04:37Z</time>
      </trkpt>
      <trkpt lat="44.85906" lon="5.18897">
        <ele>714.6</ele>
        <time>2021-08-26T12:04:57Z</time>
      </trkpt>
      <trkpt lat="44.85909" lon="5.18898">
        <ele>714.97</ele>
        <time>2021-08-26T12:05:01Z</time>
      </trkpt>
      <trkpt lat="44.85911" lon="5.18901">
        <ele>715.03</ele>
        <time>2021-08-26T12:05:13Z</time>
      </trkpt>
      <trkpt lat="44.85908" lon="5.18899">
        <ele>715.16</ele>
        <time>2021-08-26T12:05:33Z</time>
      </trkpt>
      <trkpt lat="44.85912" lon="5.189">
        <ele>715.43</ele>
        <time>2021-08-26T12:05:53Z</time>
      </trkpt>
      <trkpt lat="44.85918" lon="5.18899">
        <ele>716.97</ele>
        <time>2021-08-26T12:06:10Z</time>
      </trkpt>
      <trkpt lat="44.85931" lon="5.18904">
        <ele>717.62</ele>
        <time>2021-08-26T12:06:29Z</time>
      </trkpt>
      <trkpt lat="44.85944" lon="5.18917">
        <ele>718.8</ele>
        <time>2021-08-26T12:06:46Z</time>
      </trkpt>
      <trkpt lat="44.85951" lon="5.18919">
        <ele>718.77</ele>
        <time>2021-08-26T12:07:07Z</time>
      </trkpt>
      <trkpt lat="44.85954" lon="5.18925">
        <ele>719.04</ele>
        <time>2021-08-26T12:07:28Z</time>
      </trkpt>
      <trkpt lat="44.85956" lon="5.18925">
        <ele>718.87</ele>
        <time>2021-08-26T12:07:37Z</time>
      </trkpt>
      <trkpt lat="44.85957" lon="5.1893">
        <ele>719.51</ele>
        <time>2021-08-26T12:07:50Z</time>
      </trkpt>
      <trkpt lat="44.85959" lon="5.18933">
        <ele>719.74</ele>
        <time>2021-08-26T12:07:56Z</time>
      </trkpt>
      <trkpt lat="44.85966" lon="5.18943">
        <ele>720.4</ele>
        <time>2021-08-26T12:08:19Z</time>
      </trkpt>
      <trkpt lat="44.85967" lon="5.18943">
        <ele>720.16</ele>
        <time>2021-08-26T12:08:25Z</time>
      </trkpt>
      <trkpt lat="44.85982" lon="5.18939">
        <ele>718.01</ele>
        <time>2021-08-26T12:08:46Z</time>
      </trkpt>
      <trkpt lat="44.85989" lon="5.18947">
        <ele>721</ele>
        <time>2021-08-26T12:09:04Z</time>
      </trkpt>
      <trkpt lat="44.85998" lon="5.18955">
        <ele>720.79</ele>
        <time>2021-08-26T12:09:24Z</time>
      </trkpt>
      <trkpt lat="44.86" lon="5.18952">
        <ele>720.12</ele>
        <time>2021-08-26T12:09:45Z</time>
      </trkpt>
      <trkpt lat="44.8601" lon="5.18948">
        <ele>721.1</ele>
        <time>2021-08-26T12:10:03Z</time>
      </trkpt>
      <trkpt lat="44.86011" lon="5.18942">
        <ele>721.67</ele>
        <time>2021-08-26T12:10:24Z</time>
      </trkpt>
      <trkpt lat="44.86019" lon="5.1895">
        <ele>722.84</ele>
        <time>2021-08-26T12:10:41Z</time>
      </trkpt>
      <trkpt lat="44.86021" lon="5.18945">
        <ele>723.78</ele>
        <time>2021-08-26T12:10:52Z</time>
      </trkpt>
      <trkpt lat="44.86027" lon="5.18954">
        <ele>725.11</ele>
        <time>2021-08-26T12:11:09Z</time>
      </trkpt>
      <trkpt lat="44.86028" lon="5.18956">
        <ele>726.58</ele>
        <time>2021-08-26T12:11:21Z</time>
      </trkpt>
      <trkpt lat="44.86032" lon="5.18954">
        <ele>727.84</ele>
        <time>2021-08-26T12:11:30Z</time>
      </trkpt>
      <trkpt lat="44.86035" lon="5.18957">
        <ele>728.11</ele>
        <time>2021-08-26T12:11:39Z</time>
      </trkpt>
      <trkpt lat="44.86039" lon="5.1896">
        <ele>727.44</ele>
        <time>2021-08-26T12:11:50Z</time>
      </trkpt>
      <trkpt lat="44.86051" lon="5.18976">
        <ele>727.21</ele>
        <time>2021-08-26T12:12:19Z</time>
      </trkpt>
      <trkpt lat="44.86051" lon="5.18975">
        <ele>727.17</ele>
        <time>2021-08-26T12:12:21Z</time>
      </trkpt>
      <trkpt lat="44.86054" lon="5.18979">
        <ele>726.08</ele>
        <time>2021-08-26T12:12:37Z</time>
      </trkpt>
      <trkpt lat="44.86054" lon="5.18979">
        <ele>725.81</ele>
        <time>2021-08-26T12:12:39Z</time>
      </trkpt>
      <trkpt lat="44.86057" lon="5.18979">
        <ele>723.49</ele>
        <time>2021-08-26T12:12:59Z</time>
      </trkpt>
      <trkpt lat="44.86058" lon="5.18979">
        <ele>725.62</ele>
        <time>2021-08-26T12:13:17Z</time>
      </trkpt>
      <trkpt lat="44.86059" lon="5.18978">
        <ele>726.01</ele>
        <time>2021-08-26T12:13:21Z</time>
      </trkpt>
      <trkpt lat="44.8607" lon="5.18987">
        <ele>726.27</ele>
        <time>2021-08-26T12:13:42Z</time>
      </trkpt>
      <trkpt lat="44.86072" lon="5.18993">
        <ele>726.51</ele>
        <time>2021-08-26T12:14:02Z</time>
      </trkpt>
      <trkpt lat="44.86073" lon="5.18992">
        <ele>726.67</ele>
        <time>2021-08-26T12:14:04Z</time>
      </trkpt>
      <trkpt lat="44.86075" lon="5.18995">
        <ele>726.84</ele>
        <time>2021-08-26T12:14:07Z</time>
      </trkpt>
      <trkpt lat="44.86086" lon="5.19005">
        <ele>727.54</ele>
        <time>2021-08-26T12:14:25Z</time>
      </trkpt>
      <trkpt lat="44.86091" lon="5.19011">
        <ele>728.19</ele>
        <time>2021-08-26T12:14:46Z</time>
      </trkpt>
      <trkpt lat="44.86085" lon="5.19018">
        <ele>727.61</ele>
        <time>2021-08-26T12:15:13Z</time>
      </trkpt>
      <trkpt lat="44.86085" lon="5.19019">
        <ele>727.68</ele>
        <time>2021-08-26T12:15:16Z</time>
      </trkpt>
      <trkpt lat="44.86096" lon="5.19033">
        <ele>728.67</ele>
        <time>2021-08-26T12:15:34Z</time>
      </trkpt>
      <trkpt lat="44.86106" lon="5.1904">
        <ele>728.59</ele>
        <time>2021-08-26T12:15:44Z</time>
      </trkpt>
      <trkpt lat="44.86118" lon="5.19038">
        <ele>729.37</ele>
        <time>2021-08-26T12:15:58Z</time>
      </trkpt>
      <trkpt lat="44.86133" lon="5.1903">
        <ele>729.73</ele>
        <time>2021-08-26T12:16:16Z</time>
      </trkpt>
      <trkpt lat="44.86142" lon="5.19024">
        <ele>730.1</ele>
        <time>2021-08-26T12:16:34Z</time>
      </trkpt>
      <trkpt lat="44.86147" lon="5.19003">
        <ele>730.73</ele>
        <time>2021-08-26T12:16:55Z</time>
      </trkpt>
      <trkpt lat="44.86151" lon="5.18985">
        <ele>731.3</ele>
        <time>2021-08-26T12:17:14Z</time>
      </trkpt>
      <trkpt lat="44.86151" lon="5.18975">
        <ele>731.68</ele>
        <time>2021-08-26T12:17:32Z</time>
      </trkpt>
      <trkpt lat="44.86155" lon="5.18962">
        <ele>732.29</ele>
        <time>2021-08-26T12:17:51Z</time>
      </trkpt>
      <trkpt lat="44.86158" lon="5.18947">
        <ele>733.09</ele>
        <time>2021-08-26T12:18:12Z</time>
      </trkpt>
      <trkpt lat="44.86164" lon="5.18932">
        <ele>733.03</ele>
        <time>2021-08-26T12:18:32Z</time>
      </trkpt>
      <trkpt lat="44.86177" lon="5.18919">
        <ele>734.39</ele>
        <time>2021-08-26T12:18:52Z</time>
      </trkpt>
      <trkpt lat="44.86193" lon="5.18908">
        <ele>734.57</ele>
        <time>2021-08-26T12:19:11Z</time>
      </trkpt>
      <trkpt lat="44.86201" lon="5.18901">
        <ele>735.45</ele>
        <time>2021-08-26T12:19:29Z</time>
      </trkpt>
      <trkpt lat="44.86201" lon="5.18899">
        <ele>735.86</ele>
        <time>2021-08-26T12:19:31Z</time>
      </trkpt>
      <trkpt lat="44.86223" lon="5.189">
        <ele>736.63</ele>
        <time>2021-08-26T12:19:50Z</time>
      </trkpt>
      <trkpt lat="44.86232" lon="5.18902">
        <ele>737.07</ele>
        <time>2021-08-26T12:20:09Z</time>
      </trkpt>
      <trkpt lat="44.86235" lon="5.189">
        <ele>736.56</ele>
        <time>2021-08-26T12:20:31Z</time>
      </trkpt>
      <trkpt lat="44.86232" lon="5.18892">
        <ele>736.91</ele>
        <time>2021-08-26T12:20:50Z</time>
      </trkpt>
      <trkpt lat="44.86232" lon="5.18891">
        <ele>736.91</ele>
        <time>2021-08-26T12:20:52Z</time>
      </trkpt>
      <trkpt lat="44.86226" lon="5.18892">
        <ele>737.18</ele>
        <time>2021-08-26T12:21:03Z</time>
      </trkpt>
      <trkpt lat="44.86231" lon="5.18891">
        <ele>737.1</ele>
        <time>2021-08-26T12:21:22Z</time>
      </trkpt>
      <trkpt lat="44.86233" lon="5.18892">
        <ele>737.29</ele>
        <time>2021-08-26T12:21:37Z</time>
      </trkpt>
      <trkpt lat="44.86234" lon="5.18896">
        <ele>737.26</ele>
        <time>2021-08-26T12:21:52Z</time>
      </trkpt>
      <trkpt lat="44.86235" lon="5.18899">
        <ele>737.3</ele>
        <time>2021-08-26T12:21:57Z</time>
      </trkpt>
      <trkpt lat="44.86247" lon="5.18902">
        <ele>736.83</ele>
        <time>2021-08-26T12:22:15Z</time>
      </trkpt>
      <trkpt lat="44.86263" lon="5.18904">
        <ele>737.45</ele>
        <time>2021-08-26T12:22:36Z</time>
      </trkpt>
      <trkpt lat="44.86278" lon="5.18913">
        <ele>738.48</ele>
        <time>2021-08-26T12:22:55Z</time>
      </trkpt>
      <trkpt lat="44.8629" lon="5.1892">
        <ele>739.48</ele>
        <time>2021-08-26T12:23:15Z</time>
      </trkpt>
      <trkpt lat="44.86306" lon="5.18929">
        <ele>739.41</ele>
        <time>2021-08-26T12:23:35Z</time>
      </trkpt>
      <trkpt lat="44.86321" lon="5.18937">
        <ele>739.79</ele>
        <time>2021-08-26T12:23:54Z</time>
      </trkpt>
      <trkpt lat="44.86326" lon="5.18955">
        <ele>740.9</ele>
        <time>2021-08-26T12:24:14Z</time>
      </trkpt>
      <trkpt lat="44.86332" lon="5.18969">
        <ele>741.21</ele>
        <time>2021-08-26T12:24:31Z</time>
      </trkpt>
      <trkpt lat="44.86344" lon="5.18991">
        <ele>742.09</ele>
        <time>2021-08-26T12:24:53Z</time>
      </trkpt>
      <trkpt lat="44.86352" lon="5.19003">
        <ele>742.17</ele>
        <time>2021-08-26T12:25:11Z</time>
      </trkpt>
      <trkpt lat="44.86368" lon="5.19001">
        <ele>742.94</ele>
        <time>2021-08-26T12:25:30Z</time>
      </trkpt>
      <trkpt lat="44.86386" lon="5.1899">
        <ele>744.36</ele>
        <time>2021-08-26T12:25:51Z</time>
      </trkpt>
      <trkpt lat="44.8639" lon="5.1898">
        <ele>744.03</ele>
        <time>2021-08-26T12:26:05Z</time>
      </trkpt>
      <trkpt lat="44.86404" lon="5.18958">
        <ele>744.87</ele>
        <time>2021-08-26T12:26:26Z</time>
      </trkpt>
      <trkpt lat="44.8641" lon="5.18953">
        <ele>745.05</ele>
        <time>2021-08-26T12:26:33Z</time>
      </trkpt>
      <trkpt lat="44.8642" lon="5.18939">
        <ele>745.37</ele>
        <time>2021-08-26T12:26:49Z</time>
      </trkpt>
      <trkpt lat="44.8644" lon="5.18921">
        <ele>746.08</ele>
        <time>2021-08-26T12:27:13Z</time>
      </trkpt>
      <trkpt lat="44.86452" lon="5.18904">
        <ele>746.65</ele>
        <time>2021-08-26T12:27:34Z</time>
      </trkpt>
      <trkpt lat="44.86469" lon="5.1889">
        <ele>746.88</ele>
        <time>2021-08-26T12:27:51Z</time>
      </trkpt>
      <trkpt lat="44.86489" lon="5.18877">
        <ele>748.05</ele>
        <time>2021-08-26T12:28:13Z</time>
      </trkpt>
      <trkpt lat="44.86502" lon="5.1888">
        <ele>748.12</ele>
        <time>2021-08-26T12:28:30Z</time>
      </trkpt>
      <trkpt lat="44.86511" lon="5.18881">
        <ele>747.97</ele>
        <time>2021-08-26T12:28:50Z</time>
      </trkpt>
      <trkpt lat="44.86516" lon="5.18879">
        <ele>748.17</ele>
        <time>2021-08-26T12:28:58Z</time>
      </trkpt>
      <trkpt lat="44.86528" lon="5.18878">
        <ele>748.07</ele>
        <time>2021-08-26T12:29:21Z</time>
      </trkpt>
      <trkpt lat="44.86534" lon="5.18883">
        <ele>749.76</ele>
        <time>2021-08-26T12:29:33Z</time>
      </trkpt>
      <trkpt lat="44.86544" lon="5.18886">
        <ele>749.81</ele>
        <time>2021-08-26T12:29:47Z</time>
      </trkpt>
      <trkpt lat="44.86547" lon="5.18886">
        <ele>749.96</ele>
        <time>2021-08-26T12:29:53Z</time>
      </trkpt>
      <trkpt lat="44.8655" lon="5.18888">
        <ele>749.76</ele>
        <time>2021-08-26T12:29:58Z</time>
      </trkpt>
      <trkpt lat="44.86567" lon="5.18892">
        <ele>749.46</ele>
        <time>2021-08-26T12:30:21Z</time>
      </trkpt>
      <trkpt lat="44.86573" lon="5.189">
        <ele>750.12</ele>
        <time>2021-08-26T12:30:35Z</time>
      </trkpt>
      <trkpt lat="44.86582" lon="5.18901">
        <ele>750.86</ele>
        <time>2021-08-26T12:30:53Z</time>
      </trkpt>
      <trkpt lat="44.86582" lon="5.18896">
        <ele>751.45</ele>
        <time>2021-08-26T12:31:08Z</time>
      </trkpt>
      <trkpt lat="44.86587" lon="5.18895">
        <ele>751.51</ele>
        <time>2021-08-26T12:31:32Z</time>
      </trkpt>
      <trkpt lat="44.86593" lon="5.18894">
        <ele>752.9</ele>
        <time>2021-08-26T12:31:51Z</time>
      </trkpt>
      <trkpt lat="44.866" lon="5.189">
        <ele>754.46</ele>
        <time>2021-08-26T12:32:10Z</time>
      </trkpt>
      <trkpt lat="44.86604" lon="5.18898">
        <ele>754</ele>
        <time>2021-08-26T12:32:21Z</time>
      </trkpt>
      <trkpt lat="44.86612" lon="5.18889">
        <ele>754.95</ele>
        <time>2021-08-26T12:32:44Z</time>
      </trkpt>
      <trkpt lat="44.86615" lon="5.18881">
        <ele>754.65</ele>
        <time>2021-08-26T12:33:09Z</time>
      </trkpt>
      <trkpt lat="44.86624" lon="5.18881">
        <ele>755.69</ele>
        <time>2021-08-26T12:33:31Z</time>
      </trkpt>
      <trkpt lat="44.86636" lon="5.18883">
        <ele>755.53</ele>
        <time>2021-08-26T12:33:49Z</time>
      </trkpt>
      <trkpt lat="44.86646" lon="5.18893">
        <ele>756.69</ele>
        <time>2021-08-26T12:34:08Z</time>
      </trkpt>
      <trkpt lat="44.86653" lon="5.18903">
        <ele>756.97</ele>
        <time>2021-08-26T12:34:25Z</time>
      </trkpt>
      <trkpt lat="44.86666" lon="5.18909">
        <ele>758.75</ele>
        <time>2021-08-26T12:34:48Z</time>
      </trkpt>
      <trkpt lat="44.86672" lon="5.18915">
        <ele>759.43</ele>
        <time>2021-08-26T12:35:11Z</time>
      </trkpt>
      <trkpt lat="44.86682" lon="5.18931">
        <ele>758.54</ele>
        <time>2021-08-26T12:35:34Z</time>
      </trkpt>
      <trkpt lat="44.86694" lon="5.18946">
        <ele>759.13</ele>
        <time>2021-08-26T12:35:52Z</time>
      </trkpt>
      <trkpt lat="44.86703" lon="5.18962">
        <ele>760.57</ele>
        <time>2021-08-26T12:36:13Z</time>
      </trkpt>
      <trkpt lat="44.86706" lon="5.18968">
        <ele>762.63</ele>
        <time>2021-08-26T12:36:24Z</time>
      </trkpt>
      <trkpt lat="44.86707" lon="5.18969">
        <ele>763.07</ele>
        <time>2021-08-26T12:36:27Z</time>
      </trkpt>
      <trkpt lat="44.86712" lon="5.18966">
        <ele>762.95</ele>
        <time>2021-08-26T12:36:51Z</time>
      </trkpt>
      <trkpt lat="44.86718" lon="5.18963">
        <ele>761.99</ele>
        <time>2021-08-26T12:37:06Z</time>
      </trkpt>
      <trkpt lat="44.86727" lon="5.1896">
        <ele>761.96</ele>
        <time>2021-08-26T12:37:25Z</time>
      </trkpt>
      <trkpt lat="44.86725" lon="5.18956">
        <ele>762.04</ele>
        <time>2021-08-26T12:37:51Z</time>
      </trkpt>
      <trkpt lat="44.86716" lon="5.18947">
        <ele>765.08</ele>
        <time>2021-08-26T12:38:08Z</time>
      </trkpt>
      <trkpt lat="44.86707" lon="5.18943">
        <ele>768.18</ele>
        <time>2021-08-26T12:38:25Z</time>
      </trkpt>
      <trkpt lat="44.86707" lon="5.18934">
        <ele>769.82</ele>
        <time>2021-08-26T12:38:43Z</time>
      </trkpt>
      <trkpt lat="44.86701" lon="5.18922">
        <ele>771.85</ele>
        <time>2021-08-26T12:39:02Z</time>
      </trkpt>
      <trkpt lat="44.86707" lon="5.18916">
        <ele>772.74</ele>
        <time>2021-08-26T12:39:22Z</time>
      </trkpt>
      <trkpt lat="44.86709" lon="5.18908">
        <ele>773.6</ele>
        <time>2021-08-26T12:39:48Z</time>
      </trkpt>
      <trkpt lat="44.86709" lon="5.18907">
        <ele>775.03</ele>
        <time>2021-08-26T12:40:14Z</time>
      </trkpt>
      <trkpt lat="44.86711" lon="5.18904">
        <ele>776.44</ele>
        <time>2021-08-26T12:40:19Z</time>
      </trkpt>
      <trkpt lat="44.86722" lon="5.18889">
        <ele>779.28</ele>
        <time>2021-08-26T12:40:37Z</time>
      </trkpt>
      <trkpt lat="44.86729" lon="5.18873">
        <ele>781.42</ele>
        <time>2021-08-26T12:40:53Z</time>
      </trkpt>
      <trkpt lat="44.86732" lon="5.1886">
        <ele>784.51</ele>
        <time>2021-08-26T12:41:08Z</time>
      </trkpt>
      <trkpt lat="44.86735" lon="5.18851">
        <ele>784.88</ele>
        <time>2021-08-26T12:41:26Z</time>
      </trkpt>
      <trkpt lat="44.86736" lon="5.18849">
        <ele>785.79</ele>
        <time>2021-08-26T12:41:53Z</time>
      </trkpt>
      <trkpt lat="44.86735" lon="5.1885">
        <ele>785.38</ele>
        <time>2021-08-26T12:42:19Z</time>
      </trkpt>
      <trkpt lat="44.86733" lon="5.18847">
        <ele>785.64</ele>
        <time>2021-08-26T12:42:55Z</time>
      </trkpt>
      <trkpt lat="44.86734" lon="5.18846">
        <ele>785.61</ele>
        <time>2021-08-26T12:43:14Z</time>
      </trkpt>
      <trkpt lat="44.86737" lon="5.18837">
        <ele>786.1</ele>
        <time>2021-08-26T12:43:32Z</time>
      </trkpt>
      <trkpt lat="44.86741" lon="5.18822">
        <ele>788.82</ele>
        <time>2021-08-26T12:43:47Z</time>
      </trkpt>
      <trkpt lat="44.86743" lon="5.18809">
        <ele>790.13</ele>
        <time>2021-08-26T12:43:58Z</time>
      </trkpt>
      <trkpt lat="44.86746" lon="5.18803">
        <ele>790.88</ele>
        <time>2021-08-26T12:44:03Z</time>
      </trkpt>
      <trkpt lat="44.86748" lon="5.18787">
        <ele>793.3</ele>
        <time>2021-08-26T12:44:17Z</time>
      </trkpt>
      <trkpt lat="44.86748" lon="5.18777">
        <ele>795.7</ele>
        <time>2021-08-26T12:44:29Z</time>
      </trkpt>
      <trkpt lat="44.86747" lon="5.18769">
        <ele>797.45</ele>
        <time>2021-08-26T12:44:41Z</time>
      </trkpt>
      <trkpt lat="44.86751" lon="5.18749">
        <ele>799.87</ele>
        <time>2021-08-26T12:44:56Z</time>
      </trkpt>
      <trkpt lat="44.86759" lon="5.18736">
        <ele>801.88</ele>
        <time>2021-08-26T12:45:10Z</time>
      </trkpt>
      <trkpt lat="44.86768" lon="5.18708">
        <ele>804.92</ele>
        <time>2021-08-26T12:45:36Z</time>
      </trkpt>
      <trkpt lat="44.86779" lon="5.18686">
        <ele>804.68</ele>
        <time>2021-08-26T12:46:01Z</time>
      </trkpt>
      <trkpt lat="44.86782" lon="5.18675">
        <ele>804.06</ele>
        <time>2021-08-26T12:46:19Z</time>
      </trkpt>
      <trkpt lat="44.86791" lon="5.18663">
        <ele>802.18</ele>
        <time>2021-08-26T12:46:38Z</time>
      </trkpt>
      <trkpt lat="44.86799" lon="5.18672">
        <ele>802.95</ele>
        <time>2021-08-26T12:46:56Z</time>
      </trkpt>
      <trkpt lat="44.86804" lon="5.18674">
        <ele>803.43</ele>
        <time>2021-08-26T12:47:13Z</time>
      </trkpt>
      <trkpt lat="44.86795" lon="5.18664">
        <ele>801.54</ele>
        <time>2021-08-26T12:47:28Z</time>
      </trkpt>
      <trkpt lat="44.86789" lon="5.18657">
        <ele>801.61</ele>
        <time>2021-08-26T12:47:46Z</time>
      </trkpt>
      <trkpt lat="44.86787" lon="5.18658">
        <ele>801.89</ele>
        <time>2021-08-26T12:48:15Z</time>
      </trkpt>
      <trkpt lat="44.868" lon="5.18666">
        <ele>802.86</ele>
        <time>2021-08-26T12:48:35Z</time>
      </trkpt>
      <trkpt lat="44.86805" lon="5.18668">
        <ele>802.95</ele>
        <time>2021-08-26T12:49:00Z</time>
      </trkpt>
      <trkpt lat="44.86809" lon="5.1867">
        <ele>803.97</ele>
        <time>2021-08-26T12:49:31Z</time>
      </trkpt>
      <trkpt lat="44.86811" lon="5.18674">
        <ele>804.23</ele>
        <time>2021-08-26T12:49:35Z</time>
      </trkpt>
      <trkpt lat="44.86818" lon="5.18681">
        <ele>804.39</ele>
        <time>2021-08-26T12:49:44Z</time>
      </trkpt>
      <trkpt lat="44.86837" lon="5.18685">
        <ele>804.17</ele>
        <time>2021-08-26T12:50:03Z</time>
      </trkpt>
      <trkpt lat="44.8684" lon="5.18685">
        <ele>804.2</ele>
        <time>2021-08-26T12:50:06Z</time>
      </trkpt>
      <trkpt lat="44.86846" lon="5.18685">
        <ele>803.66</ele>
        <time>2021-08-26T12:50:11Z</time>
      </trkpt>
      <trkpt lat="44.86867" lon="5.18686">
        <ele>803.91</ele>
        <time>2021-08-26T12:50:31Z</time>
      </trkpt>
      <trkpt lat="44.86885" lon="5.18686">
        <ele>803.26</ele>
        <time>2021-08-26T12:50:47Z</time>
      </trkpt>
      <trkpt lat="44.86887" lon="5.18686">
        <ele>803.66</ele>
        <time>2021-08-26T12:50:49Z</time>
      </trkpt>
      <trkpt lat="44.86895" lon="5.18687">
        <ele>803.34</ele>
        <time>2021-08-26T12:51:07Z</time>
      </trkpt>
      <trkpt lat="44.86897" lon="5.18689">
        <ele>803.75</ele>
        <time>2021-08-26T12:51:31Z</time>
      </trkpt>
      <trkpt lat="44.86902" lon="5.18693">
        <ele>802.68</ele>
        <time>2021-08-26T12:51:37Z</time>
      </trkpt>
      <trkpt lat="44.86916" lon="5.187">
        <ele>802.17</ele>
        <time>2021-08-26T12:51:54Z</time>
      </trkpt>
      <trkpt lat="44.86938" lon="5.18707">
        <ele>802.08</ele>
        <time>2021-08-26T12:52:17Z</time>
      </trkpt>
      <trkpt lat="44.86952" lon="5.18715">
        <ele>801.87</ele>
        <time>2021-08-26T12:52:33Z</time>
      </trkpt>
      <trkpt lat="44.86958" lon="5.18723">
        <ele>801.83</ele>
        <time>2021-08-26T12:52:46Z</time>
      </trkpt>
      <trkpt lat="44.86964" lon="5.18728">
        <ele>801.96</ele>
        <time>2021-08-26T12:52:52Z</time>
      </trkpt>
      <trkpt lat="44.86974" lon="5.18741">
        <ele>803.2</ele>
        <time>2021-08-26T12:53:06Z</time>
      </trkpt>
      <trkpt lat="44.86976" lon="5.18744">
        <ele>802.94</ele>
        <time>2021-08-26T12:53:25Z</time>
      </trkpt>
      <trkpt lat="44.86982" lon="5.18749">
        <ele>802.66</ele>
        <time>2021-08-26T12:53:30Z</time>
      </trkpt>
      <trkpt lat="44.86995" lon="5.18762">
        <ele>801.41</ele>
        <time>2021-08-26T12:53:46Z</time>
      </trkpt>
      <trkpt lat="44.87008" lon="5.1877">
        <ele>799.67</ele>
        <time>2021-08-26T12:54:03Z</time>
      </trkpt>
      <trkpt lat="44.87009" lon="5.18771">
        <ele>799.7</ele>
        <time>2021-08-26T12:54:08Z</time>
      </trkpt>
      <trkpt lat="44.87014" lon="5.18773">
        <ele>798.92</ele>
        <time>2021-08-26T12:54:16Z</time>
      </trkpt>
      <trkpt lat="44.87032" lon="5.18779">
        <ele>797.87</ele>
        <time>2021-08-26T12:54:34Z</time>
      </trkpt>
      <trkpt lat="44.87044" lon="5.18781">
        <ele>797.08</ele>
        <time>2021-08-26T12:54:49Z</time>
      </trkpt>
      <trkpt lat="44.8706" lon="5.18797">
        <ele>796.33</ele>
        <time>2021-08-26T12:55:06Z</time>
      </trkpt>
      <trkpt lat="44.87054" lon="5.18816">
        <ele>797.59</ele>
        <time>2021-08-26T12:55:23Z</time>
      </trkpt>
      <trkpt lat="44.87046" lon="5.18839">
        <ele>800.62</ele>
        <time>2021-08-26T12:55:42Z</time>
      </trkpt>
      <trkpt lat="44.87049" lon="5.18861">
        <ele>802.34</ele>
        <time>2021-08-26T12:56:03Z</time>
      </trkpt>
      <trkpt lat="44.87055" lon="5.18868">
        <ele>803.1</ele>
        <time>2021-08-26T12:56:11Z</time>
      </trkpt>
      <trkpt lat="44.87069" lon="5.18878">
        <ele>804.1</ele>
        <time>2021-08-26T12:56:32Z</time>
      </trkpt>
      <trkpt lat="44.87089" lon="5.1889">
        <ele>805.7</ele>
        <time>2021-08-26T12:56:56Z</time>
      </trkpt>
      <trkpt lat="44.87108" lon="5.18887">
        <ele>806.89</ele>
        <time>2021-08-26T12:57:19Z</time>
      </trkpt>
      <trkpt lat="44.87124" lon="5.18887">
        <ele>807.42</ele>
        <time>2021-08-26T12:57:41Z</time>
      </trkpt>
      <trkpt lat="44.87144" lon="5.18888">
        <ele>808.36</ele>
        <time>2021-08-26T12:58:00Z</time>
      </trkpt>
      <trkpt lat="44.87166" lon="5.18889">
        <ele>809.42</ele>
        <time>2021-08-26T12:58:21Z</time>
      </trkpt>
      <trkpt lat="44.87185" lon="5.18893">
        <ele>811.75</ele>
        <time>2021-08-26T12:58:43Z</time>
      </trkpt>
      <trkpt lat="44.87191" lon="5.18891">
        <ele>812.38</ele>
        <time>2021-08-26T12:58:57Z</time>
      </trkpt>
      <trkpt lat="44.87207" lon="5.18886">
        <ele>814.22</ele>
        <time>2021-08-26T12:59:13Z</time>
      </trkpt>
      <trkpt lat="44.87215" lon="5.18882">
        <ele>814.71</ele>
        <time>2021-08-26T12:59:24Z</time>
      </trkpt>
      <trkpt lat="44.8722" lon="5.18879">
        <ele>814.98</ele>
        <time>2021-08-26T12:59:29Z</time>
      </trkpt>
      <trkpt lat="44.87227" lon="5.18876">
        <ele>815.61</ele>
        <time>2021-08-26T12:59:36Z</time>
      </trkpt>
      <trkpt lat="44.8724" lon="5.18867">
        <ele>816.69</ele>
        <time>2021-08-26T12:59:53Z</time>
      </trkpt>
      <trkpt lat="44.87256" lon="5.18855">
        <ele>818.02</ele>
        <time>2021-08-26T13:00:13Z</time>
      </trkpt>
      <trkpt lat="44.87272" lon="5.1885">
        <ele>818.4</ele>
        <time>2021-08-26T13:00:32Z</time>
      </trkpt>
      <trkpt lat="44.87278" lon="5.18843">
        <ele>818.34</ele>
        <time>2021-08-26T13:01:00Z</time>
      </trkpt>
      <trkpt lat="44.87282" lon="5.18834">
        <ele>819.08</ele>
        <time>2021-08-26T13:01:27Z</time>
      </trkpt>
      <trkpt lat="44.873" lon="5.18829">
        <ele>820.5</ele>
        <time>2021-08-26T13:01:46Z</time>
      </trkpt>
      <trkpt lat="44.8731" lon="5.18827">
        <ele>821.7</ele>
        <time>2021-08-26T13:02:04Z</time>
      </trkpt>
      <trkpt lat="44.87326" lon="5.1882">
        <ele>822.9</ele>
        <time>2021-08-26T13:02:26Z</time>
      </trkpt>
      <trkpt lat="44.87339" lon="5.18814">
        <ele>823.86</ele>
        <time>2021-08-26T13:02:44Z</time>
      </trkpt>
      <trkpt lat="44.87345" lon="5.18815">
        <ele>824.63</ele>
        <time>2021-08-26T13:03:06Z</time>
      </trkpt>
      <trkpt lat="44.87345" lon="5.18817">
        <ele>825.02</ele>
        <time>2021-08-26T13:03:46Z</time>
      </trkpt>
      <trkpt lat="44.87345" lon="5.1882">
        <ele>825.77</ele>
        <time>2021-08-26T13:04:32Z</time>
      </trkpt>
      <trkpt lat="44.87357" lon="5.18813">
        <ele>827.16</ele>
        <time>2021-08-26T13:04:51Z</time>
      </trkpt>
      <trkpt lat="44.87374" lon="5.18798">
        <ele>828.21</ele>
        <time>2021-08-26T13:05:12Z</time>
      </trkpt>
      <trkpt lat="44.87377" lon="5.18794">
        <ele>828.63</ele>
        <time>2021-08-26T13:05:16Z</time>
      </trkpt>
      <trkpt lat="44.87388" lon="5.18782">
        <ele>829.46</ele>
        <time>2021-08-26T13:05:29Z</time>
      </trkpt>
      <trkpt lat="44.87397" lon="5.18765">
        <ele>830.31</ele>
        <time>2021-08-26T13:05:45Z</time>
      </trkpt>
      <trkpt lat="44.87413" lon="5.18746">
        <ele>830.39</ele>
        <time>2021-08-26T13:06:05Z</time>
      </trkpt>
      <trkpt lat="44.87433" lon="5.18734">
        <ele>832.26</ele>
        <time>2021-08-26T13:06:26Z</time>
      </trkpt>
      <trkpt lat="44.87439" lon="5.18729">
        <ele>832.35</ele>
        <time>2021-08-26T13:06:32Z</time>
      </trkpt>
      <trkpt lat="44.87459" lon="5.1872">
        <ele>833.75</ele>
        <time>2021-08-26T13:06:50Z</time>
      </trkpt>
      <trkpt lat="44.87473" lon="5.18712">
        <ele>834.26</ele>
        <time>2021-08-26T13:07:04Z</time>
      </trkpt>
      <trkpt lat="44.87487" lon="5.18703">
        <ele>835.34</ele>
        <time>2021-08-26T13:07:19Z</time>
      </trkpt>
      <trkpt lat="44.87504" lon="5.18689">
        <ele>836.69</ele>
        <time>2021-08-26T13:07:38Z</time>
      </trkpt>
      <trkpt lat="44.87518" lon="5.18679">
        <ele>838.25</ele>
        <time>2021-08-26T13:07:54Z</time>
      </trkpt>
      <trkpt lat="44.8753" lon="5.18665">
        <ele>839.06</ele>
        <time>2021-08-26T13:08:14Z</time>
      </trkpt>
      <trkpt lat="44.87543" lon="5.18651">
        <ele>840.25</ele>
        <time>2021-08-26T13:08:34Z</time>
      </trkpt>
      <trkpt lat="44.87563" lon="5.18636">
        <ele>842.18</ele>
        <time>2021-08-26T13:08:57Z</time>
      </trkpt>
      <trkpt lat="44.87589" lon="5.18629">
        <ele>843.78</ele>
        <time>2021-08-26T13:09:18Z</time>
      </trkpt>
      <trkpt lat="44.87614" lon="5.18623">
        <ele>845.57</ele>
        <time>2021-08-26T13:09:38Z</time>
      </trkpt>
      <trkpt lat="44.87636" lon="5.18614">
        <ele>846.48</ele>
        <time>2021-08-26T13:10:01Z</time>
      </trkpt>
      <trkpt lat="44.87644" lon="5.18613">
        <ele>847.67</ele>
        <time>2021-08-26T13:10:17Z</time>
      </trkpt>
      <trkpt lat="44.87648" lon="5.1861">
        <ele>848.29</ele>
        <time>2021-08-26T13:10:25Z</time>
      </trkpt>
      <trkpt lat="44.8765" lon="5.18609">
        <ele>848.63</ele>
        <time>2021-08-26T13:10:27Z</time>
      </trkpt>
      <trkpt lat="44.87665" lon="5.18599">
        <ele>849.34</ele>
        <time>2021-08-26T13:10:44Z</time>
      </trkpt>
      <trkpt lat="44.87676" lon="5.18592">
        <ele>851.06</ele>
        <time>2021-08-26T13:10:56Z</time>
      </trkpt>
      <trkpt lat="44.87687" lon="5.18586">
        <ele>852.14</ele>
        <time>2021-08-26T13:11:08Z</time>
      </trkpt>
      <trkpt lat="44.87702" lon="5.18568">
        <ele>853.6</ele>
        <time>2021-08-26T13:11:29Z</time>
      </trkpt>
      <trkpt lat="44.87721" lon="5.18563">
        <ele>854.09</ele>
        <time>2021-08-26T13:11:49Z</time>
      </trkpt>
      <trkpt lat="44.87741" lon="5.18572">
        <ele>856.48</ele>
        <time>2021-08-26T13:12:09Z</time>
      </trkpt>
      <trkpt lat="44.87753" lon="5.1858">
        <ele>857.26</ele>
        <time>2021-08-26T13:12:23Z</time>
      </trkpt>
      <trkpt lat="44.87766" lon="5.18593">
        <ele>858.27</ele>
        <time>2021-08-26T13:12:40Z</time>
      </trkpt>
      <trkpt lat="44.87766" lon="5.18602">
        <ele>858.82</ele>
        <time>2021-08-26T13:13:02Z</time>
      </trkpt>
      <trkpt lat="44.87765" lon="5.18606">
        <ele>858.79</ele>
        <time>2021-08-26T13:13:47Z</time>
      </trkpt>
      <trkpt lat="44.87765" lon="5.18606">
        <ele>859.31</ele>
        <time>2021-08-26T13:14:30Z</time>
      </trkpt>
      <trkpt lat="44.87768" lon="5.18606">
        <ele>859.64</ele>
        <time>2021-08-26T13:14:52Z</time>
      </trkpt>
      <trkpt lat="44.87772" lon="5.18607">
        <ele>859.89</ele>
        <time>2021-08-26T13:14:55Z</time>
      </trkpt>
      <trkpt lat="44.8778" lon="5.18608">
        <ele>860.05</ele>
        <time>2021-08-26T13:15:02Z</time>
      </trkpt>
      <trkpt lat="44.87785" lon="5.1861">
        <ele>860.42</ele>
        <time>2021-08-26T13:15:17Z</time>
      </trkpt>
      <trkpt lat="44.87786" lon="5.1861">
        <ele>860.07</ele>
        <time>2021-08-26T13:15:25Z</time>
      </trkpt>
      <trkpt lat="44.87796" lon="5.18609">
        <ele>860.89</ele>
        <time>2021-08-26T13:15:33Z</time>
      </trkpt>
      <trkpt lat="44.87818" lon="5.18608">
        <ele>862.02</ele>
        <time>2021-08-26T13:15:50Z</time>
      </trkpt>
      <trkpt lat="44.87834" lon="5.18611">
        <ele>863.21</ele>
        <time>2021-08-26T13:16:05Z</time>
      </trkpt>
      <trkpt lat="44.8784" lon="5.18611">
        <ele>863.61</ele>
        <time>2021-08-26T13:16:20Z</time>
      </trkpt>
      <trkpt lat="44.87842" lon="5.18612">
        <ele>863.7</ele>
        <time>2021-08-26T13:16:24Z</time>
      </trkpt>
      <trkpt lat="44.87844" lon="5.18612">
        <ele>863.81</ele>
        <time>2021-08-26T13:16:26Z</time>
      </trkpt>
      <trkpt lat="44.87864" lon="5.18613">
        <ele>865.49</ele>
        <time>2021-08-26T13:16:44Z</time>
      </trkpt>
      <trkpt lat="44.87876" lon="5.18615">
        <ele>866.62</ele>
        <time>2021-08-26T13:16:59Z</time>
      </trkpt>
      <trkpt lat="44.8788" lon="5.18615">
        <ele>867.4</ele>
        <time>2021-08-26T13:17:17Z</time>
      </trkpt>
      <trkpt lat="44.87882" lon="5.18615">
        <ele>867.24</ele>
        <time>2021-08-26T13:17:19Z</time>
      </trkpt>
      <trkpt lat="44.87887" lon="5.18616">
        <ele>867.5</ele>
        <time>2021-08-26T13:17:23Z</time>
      </trkpt>
      <trkpt lat="44.87892" lon="5.18615">
        <ele>867.93</ele>
        <time>2021-08-26T13:17:27Z</time>
      </trkpt>
      <trkpt lat="44.87898" lon="5.18614">
        <ele>867.91</ele>
        <time>2021-08-26T13:17:32Z</time>
      </trkpt>
      <trkpt lat="44.87901" lon="5.18613">
        <ele>868.09</ele>
        <time>2021-08-26T13:17:35Z</time>
      </trkpt>
      <trkpt lat="44.87919" lon="5.18624">
        <ele>868.51</ele>
        <time>2021-08-26T13:17:53Z</time>
      </trkpt>
      <trkpt lat="44.87935" lon="5.18631">
        <ele>869.55</ele>
        <time>2021-08-26T13:18:07Z</time>
      </trkpt>
      <trkpt lat="44.87941" lon="5.18634">
        <ele>869.31</ele>
        <time>2021-08-26T13:18:14Z</time>
      </trkpt>
      <trkpt lat="44.87944" lon="5.18634">
        <ele>869.14</ele>
        <time>2021-08-26T13:18:16Z</time>
      </trkpt>
      <trkpt lat="44.87957" lon="5.1864">
        <ele>869.77</ele>
        <time>2021-08-26T13:18:30Z</time>
      </trkpt>
      <trkpt lat="44.87958" lon="5.18641">
        <ele>869.84</ele>
        <time>2021-08-26T13:18:31Z</time>
      </trkpt>
      <trkpt lat="44.87966" lon="5.18648">
        <ele>870.15</ele>
        <time>2021-08-26T13:18:45Z</time>
      </trkpt>
      <trkpt lat="44.87983" lon="5.18651">
        <ele>872.15</ele>
        <time>2021-08-26T13:19:06Z</time>
      </trkpt>
      <trkpt lat="44.87987" lon="5.18654">
        <ele>872.71</ele>
        <time>2021-08-26T13:19:29Z</time>
      </trkpt>
      <trkpt lat="44.87987" lon="5.18655">
        <ele>871.43</ele>
        <time>2021-08-26T13:19:50Z</time>
      </trkpt>
      <trkpt lat="44.87989" lon="5.18655">
        <ele>873.34</ele>
        <time>2021-08-26T13:20:38Z</time>
      </trkpt>
      <trkpt lat="44.88008" lon="5.18655">
        <ele>875.39</ele>
        <time>2021-08-26T13:20:54Z</time>
      </trkpt>
      <trkpt lat="44.88022" lon="5.18654">
        <ele>876.76</ele>
        <time>2021-08-26T13:21:07Z</time>
      </trkpt>
      <trkpt lat="44.88038" lon="5.18655">
        <ele>878.33</ele>
        <time>2021-08-26T13:21:22Z</time>
      </trkpt>
      <trkpt lat="44.88045" lon="5.18654">
        <ele>879.16</ele>
        <time>2021-08-26T13:21:28Z</time>
      </trkpt>
      <trkpt lat="44.88054" lon="5.18646">
        <ele>880.96</ele>
        <time>2021-08-26T13:21:43Z</time>
      </trkpt>
      <trkpt lat="44.8805" lon="5.1863">
        <ele>883.98</ele>
        <time>2021-08-26T13:21:58Z</time>
      </trkpt>
      <trkpt lat="44.88058" lon="5.18619">
        <ele>887.11</ele>
        <time>2021-08-26T13:22:17Z</time>
      </trkpt>
      <trkpt lat="44.88067" lon="5.1861">
        <ele>889.32</ele>
        <time>2021-08-26T13:22:34Z</time>
      </trkpt>
      <trkpt lat="44.88073" lon="5.18602">
        <ele>890.77</ele>
        <time>2021-08-26T13:22:44Z</time>
      </trkpt>
      <trkpt lat="44.88074" lon="5.18599">
        <ele>891.07</ele>
        <time>2021-08-26T13:22:46Z</time>
      </trkpt>
      <trkpt lat="44.88075" lon="5.18595">
        <ele>891.23</ele>
        <time>2021-08-26T13:22:48Z</time>
      </trkpt>
      <trkpt lat="44.88076" lon="5.18583">
        <ele>890.59</ele>
        <time>2021-08-26T13:22:56Z</time>
      </trkpt>
      <trkpt lat="44.88078" lon="5.18579">
        <ele>890.56</ele>
        <time>2021-08-26T13:22:59Z</time>
      </trkpt>
      <trkpt lat="44.88084" lon="5.18554">
        <ele>890.82</ele>
        <time>2021-08-26T13:23:16Z</time>
      </trkpt>
      <trkpt lat="44.88093" lon="5.18539">
        <ele>889.75</ele>
        <time>2021-08-26T13:23:37Z</time>
      </trkpt>
      <trkpt lat="44.88101" lon="5.18526">
        <ele>888.34</ele>
        <time>2021-08-26T13:23:51Z</time>
      </trkpt>
      <trkpt lat="44.88102" lon="5.18523">
        <ele>888.46</ele>
        <time>2021-08-26T13:24:13Z</time>
      </trkpt>
      <trkpt lat="44.88113" lon="5.18507">
        <ele>887.05</ele>
        <time>2021-08-26T13:24:29Z</time>
      </trkpt>
      <trkpt lat="44.88121" lon="5.18497">
        <ele>886.96</ele>
        <time>2021-08-26T13:24:40Z</time>
      </trkpt>
      <trkpt lat="44.88134" lon="5.18477">
        <ele>886.77</ele>
        <time>2021-08-26T13:24:56Z</time>
      </trkpt>
      <trkpt lat="44.88152" lon="5.18454">
        <ele>886.52</ele>
        <time>2021-08-26T13:25:16Z</time>
      </trkpt>
      <trkpt lat="44.88154" lon="5.18452">
        <ele>886.27</ele>
        <time>2021-08-26T13:25:19Z</time>
      </trkpt>
      <trkpt lat="44.88167" lon="5.18441">
        <ele>886.44</ele>
        <time>2021-08-26T13:25:34Z</time>
      </trkpt>
      <trkpt lat="44.88183" lon="5.18429">
        <ele>886.4</ele>
        <time>2021-08-26T13:25:49Z</time>
      </trkpt>
      <trkpt lat="44.88194" lon="5.18419">
        <ele>886.93</ele>
        <time>2021-08-26T13:26:00Z</time>
      </trkpt>
      <trkpt lat="44.88198" lon="5.18416">
        <ele>886.61</ele>
        <time>2021-08-26T13:26:03Z</time>
      </trkpt>
      <trkpt lat="44.88209" lon="5.18406">
        <ele>887.48</ele>
        <time>2021-08-26T13:26:17Z</time>
      </trkpt>
      <trkpt lat="44.88224" lon="5.18392">
        <ele>889.08</ele>
        <time>2021-08-26T13:26:38Z</time>
      </trkpt>
      <trkpt lat="44.88231" lon="5.18382">
        <ele>889.27</ele>
        <time>2021-08-26T13:26:53Z</time>
      </trkpt>
      <trkpt lat="44.88232" lon="5.18379">
        <ele>889.33</ele>
        <time>2021-08-26T13:26:55Z</time>
      </trkpt>
      <trkpt lat="44.88252" lon="5.1836">
        <ele>889.99</ele>
        <time>2021-08-26T13:27:16Z</time>
      </trkpt>
      <trkpt lat="44.88255" lon="5.18355">
        <ele>889.87</ele>
        <time>2021-08-26T13:27:20Z</time>
      </trkpt>
      <trkpt lat="44.8827" lon="5.18341">
        <ele>888.84</ele>
        <time>2021-08-26T13:27:35Z</time>
      </trkpt>
      <trkpt lat="44.88288" lon="5.18345">
        <ele>889.53</ele>
        <time>2021-08-26T13:27:51Z</time>
      </trkpt>
      <trkpt lat="44.88295" lon="5.18352">
        <ele>890.82</ele>
        <time>2021-08-26T13:28:08Z</time>
      </trkpt>
      <trkpt lat="44.88297" lon="5.18365">
        <ele>892.17</ele>
        <time>2021-08-26T13:28:27Z</time>
      </trkpt>
      <trkpt lat="44.88297" lon="5.18384">
        <ele>895.03</ele>
        <time>2021-08-26T13:28:44Z</time>
      </trkpt>
      <trkpt lat="44.88297" lon="5.18385">
        <ele>895.32</ele>
        <time>2021-08-26T13:28:45Z</time>
      </trkpt>
      <trkpt lat="44.88296" lon="5.18396">
        <ele>896.3</ele>
        <time>2021-08-26T13:28:53Z</time>
      </trkpt>
      <trkpt lat="44.88295" lon="5.18417">
        <ele>898.22</ele>
        <time>2021-08-26T13:29:09Z</time>
      </trkpt>
      <trkpt lat="44.88293" lon="5.18427">
        <ele>898.89</ele>
        <time>2021-08-26T13:29:16Z</time>
      </trkpt>
      <trkpt lat="44.88288" lon="5.18444">
        <ele>899.53</ele>
        <time>2021-08-26T13:29:34Z</time>
      </trkpt>
      <trkpt lat="44.88281" lon="5.18458">
        <ele>900.73</ele>
        <time>2021-08-26T13:29:47Z</time>
      </trkpt>
      <trkpt lat="44.88272" lon="5.18475">
        <ele>901.98</ele>
        <time>2021-08-26T13:30:03Z</time>
      </trkpt>
      <trkpt lat="44.88267" lon="5.18482">
        <ele>902.56</ele>
        <time>2021-08-26T13:30:10Z</time>
      </trkpt>
      <trkpt lat="44.88267" lon="5.18481">
        <ele>902.8</ele>
        <time>2021-08-26T13:30:12Z</time>
      </trkpt>
      <trkpt lat="44.88262" lon="5.18496">
        <ele>904.37</ele>
        <time>2021-08-26T13:30:27Z</time>
      </trkpt>
      <trkpt lat="44.88267" lon="5.18493">
        <ele>905.07</ele>
        <time>2021-08-26T13:30:34Z</time>
      </trkpt>
      <trkpt lat="44.88281" lon="5.18482">
        <ele>907.91</ele>
        <time>2021-08-26T13:30:52Z</time>
      </trkpt>
      <trkpt lat="44.88292" lon="5.18471">
        <ele>908.92</ele>
        <time>2021-08-26T13:31:08Z</time>
      </trkpt>
      <trkpt lat="44.88293" lon="5.18469">
        <ele>909.11</ele>
        <time>2021-08-26T13:31:27Z</time>
      </trkpt>
      <trkpt lat="44.88295" lon="5.18466">
        <ele>909.11</ele>
        <time>2021-08-26T13:31:50Z</time>
      </trkpt>
      <trkpt lat="44.88305" lon="5.18446">
        <ele>909.83</ele>
        <time>2021-08-26T13:32:09Z</time>
      </trkpt>
      <trkpt lat="44.88309" lon="5.18442">
        <ele>910.61</ele>
        <time>2021-08-26T13:32:25Z</time>
      </trkpt>
      <trkpt lat="44.8831" lon="5.18439">
        <ele>910.8</ele>
        <time>2021-08-26T13:33:01Z</time>
      </trkpt>
      <trkpt lat="44.88315" lon="5.18434">
        <ele>911.47</ele>
        <time>2021-08-26T13:33:19Z</time>
      </trkpt>
      <trkpt lat="44.88319" lon="5.18429">
        <ele>912.55</ele>
        <time>2021-08-26T13:33:33Z</time>
      </trkpt>
      <trkpt lat="44.88319" lon="5.18434">
        <ele>912.4</ele>
        <time>2021-08-26T13:33:51Z</time>
      </trkpt>
      <trkpt lat="44.88323" lon="5.18431">
        <ele>912.71</ele>
        <time>2021-08-26T13:34:14Z</time>
      </trkpt>
      <trkpt lat="44.88345" lon="5.18422">
        <ele>915.96</ele>
        <time>2021-08-26T13:34:34Z</time>
      </trkpt>
      <trkpt lat="44.88364" lon="5.18417">
        <ele>917.29</ele>
        <time>2021-08-26T13:34:51Z</time>
      </trkpt>
      <trkpt lat="44.88374" lon="5.18415">
        <ele>917.39</ele>
        <time>2021-08-26T13:35:07Z</time>
      </trkpt>
      <trkpt lat="44.88394" lon="5.18414">
        <ele>918.24</ele>
        <time>2021-08-26T13:35:26Z</time>
      </trkpt>
      <trkpt lat="44.88417" lon="5.18414">
        <ele>918.86</ele>
        <time>2021-08-26T13:35:46Z</time>
      </trkpt>
      <trkpt lat="44.88434" lon="5.18412">
        <ele>919.46</ele>
        <time>2021-08-26T13:36:04Z</time>
      </trkpt>
      <trkpt lat="44.88437" lon="5.18412">
        <ele>919.25</ele>
        <time>2021-08-26T13:36:17Z</time>
      </trkpt>
      <trkpt lat="44.8844" lon="5.18414">
        <ele>919.3</ele>
        <time>2021-08-26T13:36:24Z</time>
      </trkpt>
      <trkpt lat="44.88446" lon="5.18411">
        <ele>919.49</ele>
        <time>2021-08-26T13:36:37Z</time>
      </trkpt>
      <trkpt lat="44.88457" lon="5.18407">
        <ele>920.13</ele>
        <time>2021-08-26T13:36:53Z</time>
      </trkpt>
      <trkpt lat="44.88461" lon="5.18407">
        <ele>920.32</ele>
        <time>2021-08-26T13:37:05Z</time>
      </trkpt>
      <trkpt lat="44.88483" lon="5.18402">
        <ele>920.1</ele>
        <time>2021-08-26T13:37:25Z</time>
      </trkpt>
      <trkpt lat="44.88488" lon="5.18401">
        <ele>920.22</ele>
        <time>2021-08-26T13:37:34Z</time>
      </trkpt>
      <trkpt lat="44.885" lon="5.18398">
        <ele>921.15</ele>
        <time>2021-08-26T13:37:47Z</time>
      </trkpt>
      <trkpt lat="44.88502" lon="5.18397">
        <ele>920.46</ele>
        <time>2021-08-26T13:37:49Z</time>
      </trkpt>
      <trkpt lat="44.88527" lon="5.18395">
        <ele>921.02</ele>
        <time>2021-08-26T13:38:10Z</time>
      </trkpt>
      <trkpt lat="44.88552" lon="5.18399">
        <ele>920.78</ele>
        <time>2021-08-26T13:38:30Z</time>
      </trkpt>
      <trkpt lat="44.88574" lon="5.18404">
        <ele>920.91</ele>
        <time>2021-08-26T13:38:49Z</time>
      </trkpt>
      <trkpt lat="44.88596" lon="5.18405">
        <ele>920.42</ele>
        <time>2021-08-26T13:39:08Z</time>
      </trkpt>
      <trkpt lat="44.88608" lon="5.18412">
        <ele>920.67</ele>
        <time>2021-08-26T13:39:20Z</time>
      </trkpt>
      <trkpt lat="44.88624" lon="5.1842">
        <ele>921.65</ele>
        <time>2021-08-26T13:39:37Z</time>
      </trkpt>
      <trkpt lat="44.88625" lon="5.18422">
        <ele>921.44</ele>
        <time>2021-08-26T13:39:53Z</time>
      </trkpt>
      <trkpt lat="44.88631" lon="5.18426">
        <ele>921.72</ele>
        <time>2021-08-26T13:40:21Z</time>
      </trkpt>
      <trkpt lat="44.88632" lon="5.18427">
        <ele>921.71</ele>
        <time>2021-08-26T13:40:38Z</time>
      </trkpt>
      <trkpt lat="44.88634" lon="5.18429">
        <ele>922.01</ele>
        <time>2021-08-26T13:40:41Z</time>
      </trkpt>
      <trkpt lat="44.88648" lon="5.18438">
        <ele>922.58</ele>
        <time>2021-08-26T13:40:57Z</time>
      </trkpt>
      <trkpt lat="44.8865" lon="5.1844">
        <ele>922.73</ele>
        <time>2021-08-26T13:40:59Z</time>
      </trkpt>
      <trkpt lat="44.88667" lon="5.18451">
        <ele>923.72</ele>
        <time>2021-08-26T13:41:19Z</time>
      </trkpt>
      <trkpt lat="44.88683" lon="5.18464">
        <ele>925.11</ele>
        <time>2021-08-26T13:41:37Z</time>
      </trkpt>
      <trkpt lat="44.88702" lon="5.18482">
        <ele>925.96</ele>
        <time>2021-08-26T13:41:58Z</time>
      </trkpt>
      <trkpt lat="44.88706" lon="5.18485">
        <ele>926.32</ele>
        <time>2021-08-26T13:42:11Z</time>
      </trkpt>
      <trkpt lat="44.88709" lon="5.18497">
        <ele>926.16</ele>
        <time>2021-08-26T13:42:19Z</time>
      </trkpt>
      <trkpt lat="44.88715" lon="5.18531">
        <ele>926.88</ele>
        <time>2021-08-26T13:42:41Z</time>
      </trkpt>
      <trkpt lat="44.8872" lon="5.18568">
        <ele>927.48</ele>
        <time>2021-08-26T13:43:05Z</time>
      </trkpt>
      <trkpt lat="44.8872" lon="5.1858">
        <ele>928.55</ele>
        <time>2021-08-26T13:43:14Z</time>
      </trkpt>
      <trkpt lat="44.88711" lon="5.18594">
        <ele>928.03</ele>
        <time>2021-08-26T13:43:29Z</time>
      </trkpt>
      <trkpt lat="44.887" lon="5.18597">
        <ele>928.91</ele>
        <time>2021-08-26T13:43:45Z</time>
      </trkpt>
    </trkseg>
  </trk>
</gpx>